Provisional Data: West Branch Pine Creek near Galeton, PA


Please select a monitoring station.
Please select start date.
Please select start date.

Toggle Unit: C/F Toggle Unit: C/F
Sample Time Temperature (C) Temperature (F) Specific Conductivity (mS/cm) pH   Turbidity (NTU+) DO (mg/L)
10/17/2022 12:00:00 AM 8.99 48.182 0.063 7.25 3.83 10.58
10/17/2022 12:15:00 AM 8.89 48.002 0.063 7.24 3.79 10.6
10/17/2022 12:30:00 AM 8.8 47.84 0.063 7.25 3.82 10.62
10/17/2022 12:45:00 AM 8.72 47.696 0.063 7.24 3.79 10.64
10/17/2022 1:00:00 AM 8.66 47.588 0.063 7.24 3.78 10.66
10/17/2022 1:15:00 AM 8.6 47.48 0.063 7.23 3.74 10.69
10/17/2022 1:30:00 AM 8.54 47.372 0.063 7.23 3.78 10.69
10/17/2022 1:45:00 AM 8.49 47.282 0.063 7.23 3.76 10.72
10/17/2022 2:00:00 AM 8.44 47.192 0.063 7.23 3.87 10.73
10/17/2022 2:15:00 AM 8.39 47.102 0.063 7.22 4.07 10.74
10/17/2022 2:30:00 AM 8.35 47.03 0.063 7.21 5.32 10.75
10/17/2022 2:45:00 AM 8.31 46.958 0.063 7.21 3.79 10.77
10/17/2022 3:00:00 AM 8.25 46.85 0.062 7.21 3.78 10.79
10/17/2022 3:15:00 AM 8.22 46.796 0.062 7.21 3.81 10.8
10/17/2022 3:30:00 AM 8.18 46.724 0.062 7.22 3.8 10.8
10/17/2022 3:45:00 AM 8.15 46.67 0.062 7.2 3.83 10.8
10/17/2022 4:00:00 AM 8.1 46.58 0.062 7.2 3.84 10.82
10/17/2022 4:15:00 AM 8.05 46.49 0.062 7.21 3.83 10.84
10/17/2022 4:30:00 AM 8.02 46.436 0.062 7.2 3.8 10.85
10/17/2022 4:45:00 AM 8 46.4 0.062 7.2 3.81 10.84
10/17/2022 5:00:00 AM 7.98 46.364 0.062 7.2 3.86 10.85
10/17/2022 5:15:00 AM 7.97 46.346 0.062 7.2 3.83 10.86
10/17/2022 5:30:00 AM 7.95 46.31 0.062 7.2 3.86 10.87
10/17/2022 5:45:00 AM 7.93 46.274 0.062 7.2 3.87 10.86
10/17/2022 6:00:00 AM 7.91 46.238 0.062 7.2 3.77 10.87
10/17/2022 6:15:00 AM 7.89 46.202 0.062 7.2 3.8 10.87
10/17/2022 6:30:00 AM 7.86 46.148 0.062 7.2 3.83 10.89
10/17/2022 6:45:00 AM 7.83 46.094 0.062 7.2 3.78 10.89
10/17/2022 7:00:00 AM 7.82 46.076 0.062 7.2 3.82 10.89
10/17/2022 7:15:00 AM 7.82 46.076 0.062 7.2 3.79 10.89
10/17/2022 7:30:00 AM 7.82 46.076 0.062 7.21 3.77 10.91
10/17/2022 7:45:00 AM 7.82 46.076 0.062 7.21 3.8 10.91
10/17/2022 8:00:00 AM 7.83 46.094 0.062 7.22 3.84 10.97
10/17/2022 8:15:00 AM 7.85 46.13 0.062 7.23 3.8 11.01
10/17/2022 8:30:00 AM 7.87 46.166 0.062 7.24 3.78 11.05
10/17/2022 8:45:00 AM 7.91 46.238 0.062 7.24 3.79 11.08
10/17/2022 9:00:00 AM 7.94 46.292 0.062 7.25 3.79 11.11
10/17/2022 9:15:00 AM 7.99 46.382 0.062 7.26 3.77 11.15
10/17/2022 9:30:00 AM 8.04 46.472 0.062 7.26 3.73 11.16
10/17/2022 9:45:00 AM 8.11 46.598 0.062 7.28 3.78 11.21
10/17/2022 10:00:00 AM 8.18 46.724 0.062 7.28 3.71 11.17
10/17/2022 10:15:00 AM 8.23 46.814 0.062 7.28 3.71 11.12
10/17/2022 10:30:00 AM 8.28 46.904 0.062 7.28 3.71 11.07
10/17/2022 10:45:00 AM 8.37 47.066 0.062 7.29 3.59 11.09
10/17/2022 11:00:00 AM 8.5 47.3 0.061 7.29 3.64 11.13
10/17/2022 11:15:00 AM 8.64 47.552 0.061 7.3 3.68 11.14
10/17/2022 11:30:00 AM 8.78 47.804 0.061 7.32 3.7 11.17
10/17/2022 11:45:00 AM 8.94 48.092 0.061 7.34 3.72 11.17
10/17/2022 12:00:00 PM 9.05 48.29 0.061 7.35 4.16 11.13
10/17/2022 12:15:00 PM 9.06 48.308 0.061 7.35 4.51 11.1
10/17/2022 12:30:00 PM 9.07 48.326 0.061 7.36 3115.51 11.09
10/17/2022 12:45:00 PM 9.1 48.38 0.061 7.36 3.46 11.1
10/17/2022 1:00:00 PM 9.15 48.47 0.061 7.37 3.45 11.1
10/17/2022 1:15:00 PM 9.22 48.596 0.061 7.38 3.46 11.09
10/17/2022 1:30:00 PM 9.34 48.812 0.061 7.39 3.49 11.08
10/17/2022 1:45:00 PM 9.48 49.064 0.061 7.39 3.49 11.05
10/17/2022 2:00:00 PM 9.61 49.298 0.061 7.39 3.51 11.01
10/17/2022 2:15:00 PM 9.74 49.532 0.061 7.4 3.42 10.97
10/17/2022 2:30:00 PM 9.76 49.568 0.061 7.4 3.35 10.94
10/17/2022 2:45:00 PM 9.75 49.55 0.061 7.39 3.42 10.95
10/17/2022 3:00:00 PM 9.81 49.658 0.061 7.39 3.39 10.94
10/17/2022 3:15:00 PM 9.86 49.748 0.061 7.4 3.53 10.93
10/17/2022 3:30:00 PM 9.88 49.784 0.061 7.41 3.5 10.91
10/17/2022 3:45:00 PM 9.87 49.766 0.061 7.41 3.46 10.89
10/17/2022 4:00:00 PM 9.88 49.784 0.061 7.41 3.46 10.88
10/17/2022 4:15:00 PM 9.89 49.802 0.061 7.41 3.54 10.86
10/17/2022 4:30:00 PM 9.92 49.856 0.061 7.41 3.48 10.83
10/17/2022 4:45:00 PM 9.94 49.892 0.061 7.41 3.54 10.8
10/17/2022 5:00:00 PM 9.94 49.892 0.061 7.41 3.6 10.78
10/17/2022 5:15:00 PM 9.92 49.856 0.061 7.4 3.47 10.72
10/17/2022 5:30:00 PM 9.87 49.766 0.061 7.4 3.53 10.71
10/17/2022 5:45:00 PM 9.82 49.676 0.061 7.39 3.52 10.7
10/17/2022 6:00:00 PM 9.77 49.586 0.061 7.38 3.55 10.66
10/17/2022 6:15:00 PM 9.72 49.496 0.061 7.37 3.54 10.63
10/17/2022 6:30:00 PM 9.67 49.406 0.061 7.36 3.57 10.58
10/17/2022 6:45:00 PM 9.62 49.316 0.062 7.35 3.59 10.55
10/17/2022 7:00:00 PM 9.57 49.226 0.062 7.34 3.65 10.51
10/17/2022 7:15:00 PM 9.5 49.1 0.062 7.34 3.68 10.51
10/17/2022 7:30:00 PM 9.43 48.974 0.062 7.33 3.63 10.49
10/17/2022 7:45:00 PM 9.35 48.83 0.062 7.32 3.62 10.49
10/17/2022 8:00:00 PM 9.25 48.65 0.062 7.31 3.69 10.49
10/17/2022 8:15:00 PM 9.15 48.47 0.062 7.3 3.75 10.5
10/17/2022 8:30:00 PM 9.05 48.29 0.062 7.31 3.69 10.54
10/17/2022 8:45:00 PM 8.95 48.11 0.063 7.3 3.66 10.54
10/17/2022 9:00:00 PM 8.85 47.93 0.063 7.29 3.68 10.57
10/17/2022 9:15:00 PM 8.76 47.768 0.063 7.29 3.7 10.6
10/17/2022 9:30:00 PM 8.67 47.606 0.063 7.28 3.71 10.59
10/17/2022 9:45:00 PM 8.57 47.426 0.063 7.28 3.69 10.63
10/17/2022 10:00:00 PM 8.48 47.264 0.063 7.27 3.7 10.66
10/17/2022 10:15:00 PM 8.38 47.084 0.063 7.27 3.68 10.68
10/17/2022 10:30:00 PM 8.28 46.904 0.063 7.26 3.65 10.69
10/17/2022 10:45:00 PM 8.19 46.742 0.063 7.26 3.69 10.73
10/17/2022 11:00:00 PM 8.09 46.562 0.063 7.26 3.69 10.76
10/17/2022 11:15:00 PM 8 46.4 0.063 7.24 3.73 10.78
10/17/2022 11:30:00 PM 7.9 46.22 0.063 7.24 3.69 10.8
10/17/2022 11:45:00 PM 7.8 46.04 0.063 7.23 3.69 10.83
10/18/2022 12:00:00 AM 7.71 45.878 0.063 7.22 3.74 10.84
10/18/2022 12:15:00 AM 7.61 45.698 0.063 7.22 3.71 10.88
10/18/2022 12:30:00 AM 7.51 45.518 0.063 7.23 3.74 10.94
10/18/2022 12:45:00 AM 7.43 45.374 0.063 7.22 3.74 10.94
10/18/2022 1:00:00 AM 7.35 45.23 0.063 7.21 3.69 10.96
10/18/2022 1:15:00 AM 7.26 45.068 0.063 7.21 3.74 10.98
10/18/2022 1:30:00 AM 7.17 44.906 0.063 7.21 3.71 11.01
10/18/2022 1:45:00 AM 7.11 44.798 0.063 7.2 3.69 11
10/18/2022 2:00:00 AM 7.04 44.672 0.063 7.2 3.66 11.04
10/18/2022 2:15:00 AM 6.99 44.582 0.063 7.2 3.7 11.05
10/18/2022 2:30:00 AM 6.93 44.474 0.063 7.2 3.69 11.07
10/18/2022 2:45:00 AM 6.87 44.366 0.063 7.2 3.65 11.09
10/18/2022 3:00:00 AM 6.81 44.258 0.063 7.2 3.66 11.1
10/18/2022 3:15:00 AM 6.75 44.15 0.063 7.2 3.66 11.12
10/18/2022 3:30:00 AM 6.69 44.042 0.063 7.2 3.65 11.14
10/18/2022 3:45:00 AM 6.63 43.934 0.063 7.2 3.69 11.15
10/18/2022 4:00:00 AM 6.56 43.808 0.063 7.2 3.74 11.19
10/18/2022 4:15:00 AM 6.5 43.7 0.063 7.2 3.75 11.2
10/18/2022 4:30:00 AM 6.44 43.592 0.063 7.2 3.72 11.21
10/18/2022 4:45:00 AM 6.38 43.484 0.062 7.19 3.72 11.22
10/18/2022 5:00:00 AM 6.32 43.376 0.062 7.2 3.71 11.24
10/18/2022 5:15:00 AM 6.28 43.304 0.062 7.2 3.7 11.26
10/18/2022 5:30:00 AM 6.24 43.232 0.062 7.2 3.67 11.26
10/18/2022 5:45:00 AM 6.2 43.16 0.062 7.2 3.67 11.32
10/18/2022 6:00:00 AM 6.17 43.106 0.062 7.21 3.67 11.33
10/18/2022 6:15:00 AM 6.17 43.106 0.062 7.21 3.68 11.33
10/18/2022 6:30:00 AM 6.18 43.124 0.062 7.21 3.66 11.33
10/18/2022 6:45:00 AM 6.2 43.16 0.062 7.21 3.68 11.34
10/18/2022 7:00:00 AM 6.21 43.178 0.062 7.21 3.66 11.33
10/18/2022 7:15:00 AM 6.22 43.196 0.062 7.21 3.67 11.33
10/18/2022 7:30:00 AM 6.23 43.214 0.062 7.21 3.7 11.32
10/18/2022 7:45:00 AM 6.24 43.232 0.062 7.21 3.68 11.35
10/18/2022 8:00:00 AM 6.25 43.25 0.062 7.22 3.65 11.38
10/18/2022 8:15:00 AM 6.28 43.304 0.062 7.22 3.7 11.4
10/18/2022 8:30:00 AM 6.29 43.322 0.062 7.24 3.66 11.46
10/18/2022 8:45:00 AM 6.32 43.376 0.062 7.25 3.65 11.49
10/18/2022 9:00:00 AM 6.35 43.43 0.062 7.26 3.68 11.51
10/18/2022 9:15:00 AM 6.39 43.502 0.062 7.27 3.63 11.55
10/18/2022 9:30:00 AM 6.42 43.556 0.062 7.27 3.64 11.55
10/18/2022 9:45:00 AM 6.48 43.664 0.062 7.28 3.65 11.59
10/18/2022 10:00:00 AM 6.54 43.772 0.062 7.29 3.67 11.61
10/18/2022 10:15:00 AM 6.6 43.88 0.062 7.3 3.51 11.62
10/18/2022 10:30:00 AM 6.67 44.006 0.062 7.3 3.55 11.63
10/18/2022 10:45:00 AM 6.73 44.114 0.062 7.31 3.51 11.62
10/18/2022 11:00:00 AM 6.79 44.222 0.062 7.31 3.53 11.62
10/18/2022 11:15:00 AM 6.82 44.276 0.061 7.31 3.57 11.63
10/18/2022 11:30:00 AM 6.85 44.33 0.061 7.32 3.46 11.64
10/18/2022 11:45:00 AM 6.9 44.42 0.061 7.32 3.68 11.65
10/18/2022 12:00:00 PM 6.96 44.528 0.061 7.33 3.62 11.64
10/18/2022 12:15:00 PM 7.01 44.618 0.061 7.33 3.57 11.62
10/18/2022 12:30:00 PM 7.08 44.744 0.061 7.33 3.58 11.62
10/18/2022 12:45:00 PM 7.17 44.906 0.061 7.34 3.54 11.63
10/18/2022 1:00:00 PM 7.22 44.996 0.061 7.35 3.52 11.64
10/18/2022 1:15:00 PM 7.3 45.14 0.061 7.35 3.51 11.6
10/18/2022 1:30:00 PM 7.41 45.338 0.061 7.35 3.47 11.6
10/18/2022 1:45:00 PM 7.53 45.554 0.061 7.36 3.49 11.59
10/18/2022 2:00:00 PM 7.65 45.77 0.061 7.37 3.45 11.57
10/18/2022 2:15:00 PM 7.71 45.878 0.061 7.37 3.45 11.53
10/18/2022 2:30:00 PM 7.75 45.95 0.061 7.36 3.53 11.49
10/18/2022 2:45:00 PM 7.75 45.95 0.061 7.37 3.6 11.5
10/18/2022 3:00:00 PM 7.79 46.022 0.061 7.37 3.64 11.5
10/18/2022 3:15:00 PM 7.89 46.202 0.061 7.38 3.54 11.49
10/18/2022 3:30:00 PM 8.01 46.418 0.061 7.36 3.66 11.42
10/18/2022 3:45:00 PM 8.05 46.49 0.061 7.38 3.63 11.36
10/18/2022 4:00:00 PM 8.11 46.598 0.061 7.38 3.62 11.35
10/18/2022 4:15:00 PM 8.1 46.58 0.061 7.37 3.63 11.31
10/18/2022 4:30:00 PM 8.1 46.58 0.061 7.37 3.61 11.32
10/18/2022 4:45:00 PM 8.1 46.58 0.061 7.37 3.65 11.3
10/18/2022 5:00:00 PM 8.1 46.58 0.061 7.37 3.56 11.26
10/18/2022 5:15:00 PM 8.12 46.616 0.061 7.36 3.65 11.25
10/18/2022 5:30:00 PM 8.13 46.634 0.061 7.37 3.65 11.22
10/18/2022 5:45:00 PM 8.11 46.598 0.061 7.36 3.63 11.15
10/18/2022 6:00:00 PM 8.07 46.526 0.061 7.35 4.01 11.09
10/18/2022 6:15:00 PM 8.03 46.454 0.061 7.34 3.66 11.07
10/18/2022 6:30:00 PM 8.01 46.418 0.061 7.34 3.65 11.04
10/18/2022 6:45:00 PM 7.98 46.364 0.062 7.33 3.66 11.01
10/18/2022 7:00:00 PM 7.93 46.274 0.062 7.33 3.72 11.02
10/18/2022 7:15:00 PM 7.89 46.202 0.062 7.32 3.7 11
10/18/2022 7:30:00 PM 7.84 46.112 0.062 7.32 3.71 11.01
10/18/2022 7:45:00 PM 7.79 46.022 0.062 7.31 3.75 11.01
10/18/2022 8:00:00 PM 7.74 45.932 0.062 7.3 3.78 11.01
10/18/2022 8:15:00 PM 7.7 45.86 0.062 7.3 3.78 11
10/18/2022 8:30:00 PM 7.65 45.77 0.062 7.29 3.76 11.02
10/18/2022 8:45:00 PM 7.6 45.68 0.062 7.29 3.79 11.02
10/18/2022 9:00:00 PM 7.54 45.572 0.063 7.28 3.83 11.01
10/18/2022 9:15:00 PM 7.49 45.482 0.063 7.27 3.94 11.01
10/18/2022 9:30:00 PM 7.44 45.392 0.063 7.28 3.88 11.04
10/18/2022 9:45:00 PM 7.39 45.302 0.063 7.27 3.76 11.05
10/18/2022 10:00:00 PM 7.35 45.23 0.063 7.27 3.76 11.05
10/18/2022 10:15:00 PM 7.32 45.176 0.063 7.26 3.81 11.07
10/18/2022 10:30:00 PM 7.28 45.104 0.063 7.27 3.82 11.09
10/18/2022 10:45:00 PM 7.24 45.032 0.063 7.25 3.76 11.07
10/18/2022 11:00:00 PM 7.21 44.978 0.063 7.25 3.76 11.08
10/18/2022 11:15:00 PM 7.17 44.906 0.063 7.25 3.75 11.1
10/18/2022 11:30:00 PM 7.14 44.852 0.063 7.25 3.7 11.11
10/18/2022 11:45:00 PM 7.11 44.798 0.063 7.24 3.68 11.12
10/19/2022 12:00:00 AM 7.08 44.744 0.063 7.24 3.69 11.12
10/19/2022 12:15:00 AM 7.05 44.69 0.063 7.24 3.72 11.13
10/19/2022 12:30:00 AM 7.02 44.636 0.063 7.24 3.62 11.13
10/19/2022 12:45:00 AM 7 44.6 0.063 7.24 3.66 11.15
10/19/2022 1:00:00 AM 6.98 44.564 0.063 7.24 3.67 11.15
10/19/2022 1:15:00 AM 6.96 44.528 0.063 7.24 3.66 11.16
10/19/2022 1:30:00 AM 6.94 44.492 0.063 7.23 3.68 11.16
10/19/2022 1:45:00 AM 6.91 44.438 0.063 7.23 3.7 11.17
10/19/2022 2:00:00 AM 6.9 44.42 0.063 7.23 3.66 11.18
10/19/2022 2:15:00 AM 6.88 44.384 0.063 7.23 3.64 11.19
10/19/2022 2:30:00 AM 6.86 44.348 0.063 7.24 3.65 11.2
10/19/2022 2:45:00 AM 6.84 44.312 0.063 7.24 3.63 11.21
10/19/2022 3:00:00 AM 6.82 44.276 0.063 7.24 3.61 11.21
10/19/2022 3:15:00 AM 6.8 44.24 0.063 7.23 3.62 11.22
10/19/2022 3:30:00 AM 6.78 44.204 0.063 7.23 3.7 11.23
10/19/2022 3:45:00 AM 6.76 44.168 0.063 7.23 3.62 11.23
10/19/2022 4:00:00 AM 6.75 44.15 0.063 7.23 3.66 11.23
10/19/2022 4:15:00 AM 6.74 44.132 0.063 7.23 3.67 11.22
10/19/2022 4:30:00 AM 6.72 44.096 0.063 7.24 3.67 11.25
10/19/2022 4:45:00 AM 6.71 44.078 0.063 7.23 3.65 11.24
10/19/2022 5:00:00 AM 6.68 44.024 0.063 7.23 3.67 11.24
10/19/2022 5:15:00 AM 6.65 43.97 0.063 7.23 3.69 11.25
10/19/2022 5:30:00 AM 6.63 43.934 0.062 7.23 3.69 11.26
10/19/2022 5:45:00 AM 6.61 43.898 0.062 7.23 3.7 11.27
10/19/2022 6:00:00 AM 6.59 43.862 0.062 7.23 3.64 11.27
10/19/2022 6:15:00 AM 6.58 43.844 0.062 7.22 3.66 11.27
10/19/2022 6:30:00 AM 6.56 43.808 0.062 7.22 3.65 11.27
10/19/2022 6:45:00 AM 6.53 43.754 0.062 7.22 3.64 11.29
10/19/2022 7:00:00 AM 6.51 43.718 0.062 7.23 3.64 11.29
10/19/2022 7:15:00 AM 6.49 43.682 0.062 7.23 3.63 11.31
10/19/2022 7:30:00 AM 6.47 43.646 0.062 7.23 3.65 11.33
10/19/2022 7:45:00 AM 6.45 43.61 0.062 7.23 3.65 11.35
10/19/2022 8:00:00 AM 6.43 43.574 0.062 7.24 3.65 11.38
10/19/2022 8:15:00 AM 6.43 43.574 0.062 7.24 3.69 11.44
10/19/2022 8:30:00 AM 6.43 43.574 0.062 7.25 3.66 11.49
10/19/2022 8:45:00 AM 6.44 43.592 0.062 7.26 3.64 11.53
10/19/2022 9:00:00 AM 6.45 43.61 0.062 7.27 3.67 11.56
10/19/2022 9:15:00 AM 6.48 43.664 0.062 7.28 3.66 11.62
10/19/2022 9:30:00 AM 6.52 43.736 0.062 7.28 3.67 11.63
10/19/2022 9:45:00 AM 6.58 43.844 0.062 7.27 3.67 11.63
10/19/2022 10:00:00 AM 6.6 43.88 0.062 7.27 3.66 11.63
10/19/2022 10:15:00 AM 6.64 43.952 0.061 7.28 3.63 11.65
10/19/2022 10:30:00 AM 6.73 44.114 0.061 7.28 3.65 11.66
10/19/2022 10:45:00 AM 6.82 44.276 0.061 7.3 3.66 11.68
10/19/2022 11:00:00 AM 6.88 44.384 0.061 7.3 3.66 11.68
10/19/2022 11:15:00 AM 6.95 44.51 0.061 7.31 3.69 11.68
10/19/2022 11:30:00 AM 7.03 44.654 0.061 7.32 3.66 11.7
10/19/2022 11:45:00 AM 7.08 44.744 0.061 7.33 3.58 11.71
10/19/2022 12:00:00 PM 7.14 44.852 0.061 7.33 3.59 11.69
10/19/2022 12:15:00 PM 7.22 44.996 0.061 7.33 3.57 11.68
10/19/2022 12:30:00 PM 7.32 45.176 0.061 7.34 3.54 11.68
10/19/2022 12:45:00 PM 7.42 45.356 0.061 7.35 3.54 11.66
10/19/2022 1:00:00 PM 7.48 45.464 0.061 7.35 3.53 11.62
10/19/2022 1:15:00 PM 7.51 45.518 0.061 7.35 3.54 11.6
10/19/2022 1:30:00 PM 7.53 45.554 0.061 7.36 3.54 11.59
10/19/2022 1:45:00 PM 7.58 45.644 0.06 7.36 3.52 11.59
10/19/2022 2:00:00 PM 7.67 45.806 0.06 7.36 3.55 11.57
10/19/2022 2:15:00 PM 7.78 46.004 0.06 7.37 3.54 11.55
10/19/2022 2:30:00 PM 7.91 46.238 0.06 7.37 3.62 11.52
10/19/2022 2:45:00 PM 8.05 46.49 0.06 7.37 3.61 11.49
10/19/2022 3:00:00 PM 8.16 46.688 0.06 7.37 3.7 11.46
10/19/2022 3:15:00 PM 8.22 46.796 0.06 7.38 3.66 11.43
10/19/2022 3:30:00 PM 8.25 46.85 0.06 7.38 3.65 11.41
10/19/2022 3:45:00 PM 8.27 46.886 0.06 7.39 3.68 11.4
10/19/2022 4:00:00 PM 8.27 46.886 0.06 7.38 3.68 11.35
10/19/2022 4:15:00 PM 8.29 46.922 0.06 7.38 3.7 11.33
10/19/2022 4:30:00 PM 8.33 46.994 0.06 7.39 3.7 11.33
10/19/2022 4:45:00 PM 8.38 47.084 0.06 7.39 3.68 11.3
10/19/2022 5:00:00 PM 8.36 47.048 0.06 7.38 3.7 11.27
10/19/2022 5:15:00 PM 8.35 47.03 0.06 7.38 3.75 11.22
10/19/2022 5:30:00 PM 8.35 47.03 0.061 7.38 3.82 11.18
10/19/2022 5:45:00 PM 8.35 47.03 0.061 7.37 3.78 11.17
10/19/2022 6:00:00 PM 8.33 46.994 0.061 7.37 3.92 11.12
10/19/2022 6:15:00 PM 8.29 46.922 0.061 7.36 3.87 11.07
10/19/2022 6:30:00 PM 8.25 46.85 0.061 7.35 3.91 11.03
10/19/2022 6:45:00 PM 8.21 46.778 0.061 7.34 3.86 11
10/19/2022 7:00:00 PM 8.18 46.724 0.061 7.33 3.9 10.98
10/19/2022 7:15:00 PM 8.15 46.67 0.061 7.33 3.94 10.96
10/19/2022 7:30:00 PM 8.1 46.58 0.061 7.32 3.97 10.95
10/19/2022 7:45:00 PM 8.06 46.508 0.062 7.32 3.93 10.96
10/19/2022 8:00:00 PM 8.01 46.418 0.062 7.31 3.94 10.96
10/19/2022 8:15:00 PM 7.96 46.328 0.062 7.31 3.99 10.96
10/19/2022 8:30:00 PM 7.89 46.202 0.062 7.3 3.95 10.97
10/19/2022 8:45:00 PM 7.85 46.13 0.062 7.3 4.01 10.98
10/19/2022 9:00:00 PM 7.81 46.058 0.062 7.3 3.96 10.99
10/19/2022 9:15:00 PM 7.76 45.968 0.062 7.29 3.96 11.01
10/19/2022 9:30:00 PM 7.71 45.878 0.062 7.29 3.98 11.02
10/19/2022 9:45:00 PM 7.66 45.788 0.062 7.28 3.98 11.03
10/19/2022 10:00:00 PM 7.62 45.716 0.062 7.28 3.97 11.04
10/19/2022 10:15:00 PM 7.58 45.644 0.062 7.28 3.97 11.06
10/19/2022 10:30:00 PM 7.54 45.572 0.062 7.28 3.95 11.06
10/19/2022 10:45:00 PM 7.5 45.5 0.062 7.28 3.99 11.08
10/19/2022 11:00:00 PM 7.47 45.446 0.062 7.27 3.99 11.08
10/19/2022 11:15:00 PM 7.43 45.374 0.062 7.27 3.97 11.09
10/19/2022 11:30:00 PM 7.41 45.338 0.062 7.26 4.26 11.1
10/19/2022 11:45:00 PM 7.38 45.284 0.062 7.26 3.94 11.11
10/20/2022 12:00:00 AM 7.36 45.248 0.062 7.26 3.97 11.13
10/20/2022 12:15:00 AM 7.34 45.212 0.062 7.25 3.92 11.13
10/20/2022 12:30:00 AM 7.32 45.176 0.062 7.25 3.98 11.13
10/20/2022 12:45:00 AM 7.3 45.14 0.062 7.25 4.14 11.14
10/20/2022 1:00:00 AM 7.27 45.086 0.062 7.26 3.96 11.16
10/20/2022 1:15:00 AM 7.24 45.032 0.062 7.26 3.94 11.17
10/20/2022 1:30:00 AM 7.22 44.996 0.062 7.25 3.94 11.17
10/20/2022 1:45:00 AM 7.2 44.96 0.062 7.25 3.96 11.18
10/20/2022 2:00:00 AM 7.18 44.924 0.062 7.25 3.93 11.18
10/20/2022 2:15:00 AM 7.16 44.888 0.062 7.24 3.97 11.18
10/20/2022 2:30:00 AM 7.13 44.834 0.062 7.24 3.94 11.19
10/20/2022 2:45:00 AM 7.1 44.78 0.062 7.25 3.9 11.21
10/20/2022 3:00:00 AM 7.07 44.726 0.062 7.25 3.89 11.21
10/20/2022 3:15:00 AM 7.01 44.618 0.062 7.25 3.91 11.23
10/20/2022 3:30:00 AM 6.95 44.51 0.062 7.25 3.95 11.25
10/20/2022 3:45:00 AM 6.88 44.384 0.062 7.25 3.93 11.26
10/20/2022 4:00:00 AM 6.81 44.258 0.062 7.25 3.93 11.29
10/20/2022 4:15:00 AM 6.75 44.15 0.062 7.25 3.94 11.31
10/20/2022 4:30:00 AM 6.68 44.024 0.062 7.25 3.91 11.33
10/20/2022 4:45:00 AM 6.62 43.916 0.062 7.25 3.92 11.35
10/20/2022 5:00:00 AM 6.57 43.826 0.062 7.25 3.91 11.37
10/20/2022 5:15:00 AM 6.53 43.754 0.062 7.24 3.94 11.38
10/20/2022 5:30:00 AM 6.49 43.682 0.062 7.24 3.92 11.39
10/20/2022 5:45:00 AM 6.45 43.61 0.062 7.24 3.94 11.39
10/20/2022 6:00:00 AM 6.39 43.502 0.062 7.23 3.95 11.42
10/20/2022 6:15:00 AM 6.33 43.394 0.062 7.24 3.94 11.44
10/20/2022 6:30:00 AM 6.27 43.286 0.062 7.23 3.93 11.44
10/20/2022 6:45:00 AM 6.22 43.196 0.062 7.23 3.92 11.46
10/20/2022 7:00:00 AM 6.15 43.07 0.062 7.23 3.93 11.49
10/20/2022 7:15:00 AM 6.09 42.962 0.062 7.23 3.93 11.49
10/20/2022 7:30:00 AM 6.03 42.854 0.062 7.23 3.93 11.52
10/20/2022 7:45:00 AM 5.98 42.764 0.062 7.22 3.92 11.54
10/20/2022 8:00:00 AM 5.93 42.674 0.062 7.22 3.91 11.58
10/20/2022 8:15:00 AM 5.88 42.584 0.062 7.23 3.91 11.63
10/20/2022 8:30:00 AM 5.82 42.476 0.062 7.24 3.94 11.69
10/20/2022 8:45:00 AM 5.78 42.404 0.062 7.24 3.94 11.72
10/20/2022 9:00:00 AM 5.77 42.386 0.062 7.25 3.95 11.78
10/20/2022 9:15:00 AM 5.76 42.368 0.062 7.26 3.9 11.83
10/20/2022 9:30:00 AM 5.73 42.314 0.062 7.26 3.89 11.87
10/20/2022 9:45:00 AM 5.72 42.296 0.061 7.27 3.92 11.92
10/20/2022 10:00:00 AM 5.73 42.314 0.061 7.27 3.92 11.95
10/20/2022 10:15:00 AM 5.73 42.314 0.061 7.28 3.93 11.97
10/20/2022 10:30:00 AM 5.77 42.386 0.061 7.29 3.95 12
10/20/2022 10:45:00 AM 5.82 42.476 0.061 7.29 3.89 12.01
10/20/2022 11:00:00 AM 5.92 42.656 0.061 7.3 3.87 12.03
10/20/2022 11:15:00 AM 5.97 42.746 0.061 7.31 4.01 12.04
10/20/2022 11:30:00 AM 6.06 42.908 0.061 7.32 3.89 12.03
10/20/2022 11:45:00 AM 6.13 43.034 0.061 7.33 3.95 12.04
10/20/2022 12:00:00 PM 6.24 43.232 0.061 7.33 3.98 12.01
10/20/2022 12:15:00 PM 6.37 43.466 0.061 7.34 3.96 12.01
10/20/2022 12:30:00 PM 6.49 43.682 0.061 7.34 3.92 11.97
10/20/2022 12:45:00 PM 6.59 43.862 0.06 7.34 3.84 11.94
10/20/2022 1:00:00 PM 6.66 43.988 0.06 7.34 3.98 11.92
10/20/2022 1:15:00 PM 6.74 44.132 0.06 7.35 3.88 11.91
10/20/2022 1:30:00 PM 6.85 44.33 0.06 7.35 3.87 11.88
10/20/2022 1:45:00 PM 6.96 44.528 0.06 7.36 3.86 11.86
10/20/2022 2:00:00 PM 7.08 44.744 0.06 7.36 3.83 11.84
10/20/2022 2:15:00 PM 7.2 44.96 0.06 7.37 3.85 11.81
10/20/2022 2:30:00 PM 7.34 45.212 0.06 7.38 3.81 11.77
10/20/2022 2:45:00 PM 7.47 45.446 0.06 7.37 3.83 11.72
10/20/2022 3:00:00 PM 7.57 45.626 0.06 7.38 3.85 11.7
10/20/2022 3:15:00 PM 7.66 45.788 0.06 7.38 3.86 11.66
10/20/2022 3:30:00 PM 7.72 45.896 0.06 7.39 3.82 11.65
10/20/2022 3:45:00 PM 7.74 45.932 0.06 7.39 3.83 11.61
10/20/2022 4:00:00 PM 7.78 46.004 0.06 7.39 3.77 11.59
10/20/2022 4:15:00 PM 7.82 46.076 0.06 7.39 3.8 11.56
10/20/2022 4:30:00 PM 7.84 46.112 0.06 7.4 3.85 11.55
10/20/2022 4:45:00 PM 7.86 46.148 0.06 7.4 3.92 11.53
10/20/2022 5:00:00 PM 7.87 46.166 0.06 7.4 3.84 11.49
10/20/2022 5:15:00 PM 7.87 46.166 0.06 7.39 3.8 11.45
10/20/2022 5:30:00 PM 7.88 46.184 0.06 7.39 3.79 11.42
10/20/2022 5:45:00 PM 7.87 46.166 0.06 7.39 3.81 11.38
10/20/2022 6:00:00 PM 7.86 46.148 0.06 7.38 3.82 11.33
10/20/2022 6:15:00 PM 7.83 46.094 0.06 7.36 3.85 11.28
10/20/2022 6:30:00 PM 7.8 46.04 0.061 7.35 3.85 11.24
10/20/2022 6:45:00 PM 7.77 45.986 0.061 7.35 3.88 11.21
10/20/2022 7:00:00 PM 7.74 45.932 0.061 7.34 3.85 11.19
10/20/2022 7:15:00 PM 7.7 45.86 0.061 7.33 3.9 11.17
10/20/2022 7:30:00 PM 7.65 45.77 0.061 7.33 3.86 11.17
10/20/2022 7:45:00 PM 7.61 45.698 0.061 7.32 3.93 11.17
10/20/2022 8:00:00 PM 7.57 45.626 0.061 7.31 3.89 11.15
10/20/2022 8:15:00 PM 7.53 45.554 0.061 7.31 3.94 11.16
10/20/2022 8:30:00 PM 7.48 45.464 0.061 7.3 3.94 11.16
10/20/2022 8:45:00 PM 7.43 45.374 0.062 7.3 3.95 11.18
10/20/2022 9:00:00 PM 7.39 45.302 0.062 7.29 3.93 11.18
10/20/2022 9:15:00 PM 7.34 45.212 0.062 7.29 3.97 11.19
10/20/2022 9:30:00 PM 7.31 45.158 0.062 7.29 3.97 11.2
10/20/2022 9:45:00 PM 7.27 45.086 0.062 7.28 3.92 11.21
10/20/2022 10:00:00 PM 7.24 45.032 0.062 7.28 3.89 11.21
10/20/2022 10:15:00 PM 7.2 44.96 0.062 7.28 3.94 11.23
10/20/2022 10:30:00 PM 7.17 44.906 0.062 7.27 3.92 11.25
10/20/2022 10:45:00 PM 7.14 44.852 0.062 7.27 3.98 11.26
10/20/2022 11:00:00 PM 7.1 44.78 0.062 7.27 3.91 11.28
10/20/2022 11:15:00 PM 7.06 44.708 0.062 7.26 3.91 11.27
10/20/2022 11:30:00 PM 7.02 44.636 0.062 7.26 3.93 11.29
10/20/2022 11:45:00 PM 6.96 44.528 0.062 7.25 3.9 11.3
10/21/2022 12:00:00 AM 6.91 44.438 0.062 7.25 3.91 11.31
10/21/2022 12:15:00 AM 6.85 44.33 0.062 7.25 3.94 11.31
10/21/2022 12:30:00 AM 6.78 44.204 0.062 7.25 3.91 11.35
10/21/2022 12:45:00 AM 6.72 44.096 0.062 7.24 3.97 11.35
10/21/2022 1:00:00 AM 6.65 43.97 0.062 7.24 3.94 11.37
10/21/2022 1:15:00 AM 6.57 43.826 0.062 7.24 3.95 11.39
10/21/2022 1:30:00 AM 6.5 43.7 0.062 7.24 4.02 11.42
10/21/2022 1:45:00 AM 6.42 43.556 0.062 7.23 4.65 11.43
10/21/2022 2:00:00 AM 6.34 43.412 0.062 7.23 4 11.46
10/21/2022 2:15:00 AM 6.26 43.268 0.062 7.24 3.99 11.5
10/21/2022 2:30:00 AM 6.18 43.124 0.062 7.24 3.97 11.53
10/21/2022 2:45:00 AM 6.1 42.98 0.062 7.23 3.94 11.53
10/21/2022 3:00:00 AM 6.02 42.836 0.062 7.23 4.01 11.58
10/21/2022 3:15:00 AM 5.94 42.692 0.062 7.22 3.97 11.6
10/21/2022 3:30:00 AM 5.85 42.53 0.062 7.22 4.01 11.64
10/21/2022 3:45:00 AM 5.78 42.404 0.062 7.22 4 11.65
10/21/2022 4:00:00 AM 5.71 42.278 0.062 7.22 4.02 11.66
10/21/2022 4:15:00 AM 5.62 42.116 0.062 7.22 4.04 11.71
10/21/2022 4:30:00 AM 5.56 42.008 0.062 7.21 4.03 11.71
10/21/2022 4:45:00 AM 5.49 41.882 0.062 7.21 4.03 11.74
10/21/2022 5:00:00 AM 5.42 41.756 0.062 7.21 4.01 11.76
10/21/2022 5:15:00 AM 5.34 41.612 0.062 7.21 3.99 11.79
10/21/2022 5:30:00 AM 5.27 41.486 0.062 7.21 3.97 11.82
10/21/2022 5:45:00 AM 5.21 41.378 0.062 7.2 3.94 11.83
10/21/2022 6:00:00 AM 5.13 41.234 0.062 7.2 4 11.86
10/21/2022 6:15:00 AM 5.06 41.108 0.062 7.2 3.99 11.9
10/21/2022 6:30:00 AM 4.99 40.982 0.062 7.2 4.01 11.94
10/21/2022 6:45:00 AM 4.94 40.892 0.062 7.19 4.03 11.93
10/21/2022 7:00:00 AM 4.87 40.766 0.062 7.19 6.03 11.96
10/21/2022 7:15:00 AM 4.8 40.64 0.062 7.19 4.03 11.99
10/21/2022 7:30:00 AM 4.73 40.514 0.062 7.19 4.02 12.03
10/21/2022 7:45:00 AM 4.67 40.406 0.062 7.19 4 12.05
10/21/2022 8:00:00 AM 4.61 40.298 0.062 7.19 4.01 12.1
10/21/2022 8:15:00 AM 4.56 40.208 0.062 7.2 4.02 12.14
10/21/2022 8:30:00 AM 4.52 40.136 0.062 7.2 3.98 12.2
10/21/2022 8:45:00 AM 4.48 40.064 0.062 7.21 4.04 12.25
10/21/2022 9:00:00 AM 4.47 40.046 0.062 7.22 4 12.3
10/21/2022 9:15:00 AM 4.46 40.028 0.062 7.22 4.01 12.34
10/21/2022 9:30:00 AM 4.46 40.028 0.062 7.24 3.97 12.38
10/21/2022 9:45:00 AM 4.48 40.064 0.062 7.24 3.98 12.4
10/21/2022 10:00:00 AM 4.52 40.136 0.062 7.25 3.94 12.43
10/21/2022 10:15:00 AM 4.58 40.244 0.061 7.25 3.93 12.43
10/21/2022 10:30:00 AM 4.65 40.37 0.061 7.26 3.91 12.44
10/21/2022 10:45:00 AM 4.74 40.532 0.061 7.26 3.9 12.43
10/21/2022 11:00:00 AM 4.83 40.694 0.061 7.27 3.94 12.44
10/21/2022 11:15:00 AM 4.94 40.892 0.061 7.29 3.94 12.46
10/21/2022 11:30:00 AM 5.11 41.198 0.061 7.29 3.88 12.41
10/21/2022 11:45:00 AM 5.3 41.54 0.061 7.29 3.89 12.35
10/21/2022 12:00:00 PM 5.51 41.918 0.061 7.29 3.85 12.28
10/21/2022 12:15:00 PM 5.72 42.296 0.061 7.29 3.84 12.23
10/21/2022 12:30:00 PM 5.92 42.656 0.061 7.29 3.86 12.18
10/21/2022 12:45:00 PM 6.11 42.998 0.061 7.31 3.81 12.15
10/21/2022 1:00:00 PM 6.32 43.376 0.061 7.3 3.84 12.07
10/21/2022 1:15:00 PM 6.52 43.736 0.061 7.31 3.78 12.02
10/21/2022 1:30:00 PM 6.7 44.06 0.061 7.33 3.73 11.99
10/21/2022 1:45:00 PM 6.88 44.384 0.061 7.33 3.71 11.94
10/21/2022 2:00:00 PM 7.06 44.708 0.061 7.33 3.68 11.85
10/21/2022 2:15:00 PM 7.25 45.05 0.061 7.33 3.68 11.78
10/21/2022 2:30:00 PM 7.44 45.392 0.061 7.33 3.71 11.71
10/21/2022 2:45:00 PM 7.54 45.572 0.061 7.36 3.6 11.72
10/21/2022 3:00:00 PM 7.71 45.878 0.061 7.34 3.56 11.63
10/21/2022 3:15:00 PM 7.83 46.094 0.061 7.35 3.56 11.58
10/21/2022 3:30:00 PM 7.94 46.292 0.061 7.34 3.55 11.52
10/21/2022 3:45:00 PM 8.03 46.454 0.061 7.35 3.56 11.48
10/21/2022 4:00:00 PM 8.12 46.616 0.061 7.36 3.62 11.45
10/21/2022 4:15:00 PM 8.21 46.778 0.061 7.35 3.7 11.39
10/21/2022 4:30:00 PM 8.28 46.904 0.061 7.36 3.64 11.35
10/21/2022 4:45:00 PM 8.35 47.03 0.061 7.35 3.69 11.3
10/21/2022 5:00:00 PM 8.4 47.12 0.061 7.35 3.68 11.26
10/21/2022 5:15:00 PM 8.44 47.192 0.061 7.36 3.69 11.23
10/21/2022 5:30:00 PM 8.48 47.264 0.061 7.37 3.71 11.2
10/21/2022 5:45:00 PM 8.5 47.3 0.061 7.37 3.76 11.17
10/21/2022 6:00:00 PM 8.53 47.354 0.061 7.36 3.88 11.09
10/21/2022 6:15:00 PM 8.53 47.354 0.061 7.36 3.83 11.06
10/21/2022 6:30:00 PM 8.51 47.318 0.061 7.35 3.87 11
10/21/2022 6:45:00 PM 8.48 47.264 0.061 7.35 3.86 10.97
10/21/2022 7:00:00 PM 8.45 47.21 0.061 7.33 3.92 10.92
10/21/2022 7:15:00 PM 8.4 47.12 0.062 7.32 3.86 10.92
10/21/2022 7:30:00 PM 8.35 47.03 0.062 7.31 3.95 10.9
10/21/2022 7:45:00 PM 8.29 46.922 0.062 7.3 3.97 10.9
10/21/2022 8:00:00 PM 8.22 46.796 0.062 7.29 3.97 10.91
10/21/2022 8:15:00 PM 8.14 46.652 0.062 7.29 3.99 10.93
10/21/2022 8:30:00 PM 8.05 46.49 0.062 7.29 3.95 10.95
10/21/2022 8:45:00 PM 7.96 46.328 0.062 7.29 3.97 10.98
10/21/2022 9:00:00 PM 7.87 46.166 0.062 7.29 3.97 11.01
10/21/2022 9:15:00 PM 7.78 46.004 0.062 7.29 4.02 11.04
10/21/2022 9:30:00 PM 7.68 45.824 0.062 7.28 4.08 11.06
10/21/2022 9:45:00 PM 7.6 45.68 0.062 7.27 4.1 11.07
10/21/2022 10:00:00 PM 7.5 45.5 0.062 7.27 4.1 11.1
10/21/2022 10:15:00 PM 7.4 45.32 0.062 7.26 4.14 11.13
10/21/2022 10:30:00 PM 7.32 45.176 0.062 7.25 4.11 11.15
10/21/2022 10:45:00 PM 7.23 45.014 0.062 7.25 4.08 11.17
10/21/2022 11:00:00 PM 7.13 44.834 0.062 7.25 4.06 11.2
10/21/2022 11:15:00 PM 7.04 44.672 0.063 7.24 4.04 11.22
10/21/2022 11:30:00 PM 6.95 44.51 0.063 7.24 4.08 11.25
10/21/2022 11:45:00 PM 6.86 44.348 0.063 7.24 4.02 11.28
10/22/2022 12:00:00 AM 6.77 44.186 0.063 7.23 4.14 11.32
10/22/2022 12:15:00 AM 6.68 44.024 0.063 7.23 4.14 11.34
10/22/2022 12:30:00 AM 6.6 43.88 0.063 7.23 4.1 11.36
10/22/2022 12:45:00 AM 6.51 43.718 0.063 7.22 4.05 11.39
10/22/2022 1:00:00 AM 6.42 43.556 0.063 7.22 4.12 11.41
10/22/2022 1:15:00 AM 6.34 43.412 0.063 7.22 4.12 11.44
10/22/2022 1:30:00 AM 6.25 43.25 0.063 7.21 4.11 11.48
10/22/2022 1:45:00 AM 6.18 43.124 0.063 7.21 4.1 11.51
10/22/2022 2:00:00 AM 6.1 42.98 0.063 7.21 4.11 11.54
10/22/2022 2:15:00 AM 6.02 42.836 0.063 7.21 4.94 11.56
10/22/2022 2:30:00 AM 5.95 42.71 0.063 7.21 5.55 11.59
10/22/2022 2:45:00 AM 5.89 42.602 0.062 7.2 4.35 11.6
10/22/2022 3:00:00 AM 5.81 42.458 0.062 7.2 4.35 11.64
10/22/2022 3:15:00 AM 5.75 42.35 0.062 7.2 4.35 11.66
10/22/2022 3:30:00 AM 5.69 42.242 0.062 7.2 4.33 11.69
10/22/2022 3:45:00 AM 5.62 42.116 0.062 7.2 4.3 11.72
10/22/2022 4:00:00 AM 5.57 42.026 0.062 7.19 4.28 11.72
10/22/2022 4:15:00 AM 5.51 41.918 0.062 7.19 4.31 11.74
10/22/2022 4:30:00 AM 5.46 41.828 0.062 7.19 4.32 11.76
10/22/2022 4:45:00 AM 5.41 41.738 0.062 7.18 4.34 11.77
10/22/2022 5:00:00 AM 5.36 41.648 0.062 7.18 4.28 11.79
10/22/2022 5:15:00 AM 5.3 41.54 0.062 7.18 4.34 11.81
10/22/2022 5:30:00 AM 5.25 41.45 0.062 7.18 4.26 11.83
10/22/2022 5:45:00 AM 5.19 41.342 0.062 7.18 4.27 11.86
10/22/2022 6:00:00 AM 5.14 41.252 0.062 7.18 4.28 11.87
10/22/2022 6:15:00 AM 5.1 41.18 0.062 7.17 4.38 11.89
10/22/2022 6:30:00 AM 5.04 41.072 0.062 7.18 4.3 11.91
10/22/2022 6:45:00 AM 5 41 0.062 7.17 3.98 11.91
10/22/2022 7:00:00 AM 4.95 40.91 0.062 7.18 4.05 11.93
10/22/2022 7:15:00 AM 4.9 40.82 0.062 7.18 4.09 11.96
10/22/2022 7:30:00 AM 4.85 40.73 0.062 7.18 4.07 11.98
10/22/2022 7:45:00 AM 4.81 40.658 0.062 7.18 4.06 12.01
10/22/2022 8:00:00 AM 4.77 40.586 0.062 7.18 4.05 12.06
10/22/2022 8:15:00 AM 4.75 40.55 0.062 7.18 4.05 12.08
10/22/2022 8:30:00 AM 4.71 40.478 0.062 7.19 4.03 12.14
10/22/2022 8:45:00 AM 4.69 40.442 0.062 7.2 4.01 12.18
10/22/2022 9:00:00 AM 4.69 40.442 0.062 7.21 4.02 12.23
10/22/2022 9:15:00 AM 4.71 40.478 0.062 7.22 4.03 12.28
10/22/2022 9:30:00 AM 4.73 40.514 0.062 7.23 3.95 12.32
10/22/2022 9:45:00 AM 4.78 40.604 0.062 7.23 3.96 12.33
10/22/2022 10:00:00 AM 4.85 40.73 0.062 7.24 3.91 12.34
10/22/2022 10:15:00 AM 4.93 40.874 0.062 7.24 3.88 12.33
10/22/2022 10:30:00 AM 5.04 41.072 0.062 7.24 3.73 12.32
10/22/2022 10:45:00 AM 5.15 41.27 0.062 7.25 3.68 12.33
10/22/2022 11:00:00 AM 5.26 41.468 0.062 7.26 3.67 12.34
10/22/2022 11:15:00 AM 5.39 41.702 0.062 7.28 3.69 12.33
10/22/2022 11:30:00 AM 5.57 42.026 0.062 7.28 3.62 12.3
10/22/2022 11:45:00 AM 5.77 42.386 0.062 7.29 3.62 12.26
10/22/2022 12:00:00 PM 6 42.8 0.061 7.28 3.59 12.19
10/22/2022 12:15:00 PM 6.26 43.268 0.061 7.28 3.54 12.09
10/22/2022 12:30:00 PM 6.55 43.79 0.061 7.27 3.5 12.01
10/22/2022 12:45:00 PM 6.8 44.24 0.061 7.28 3.59 11.97
10/22/2022 1:00:00 PM 7.02 44.636 0.061 7.29 3.47 11.92
10/22/2022 1:15:00 PM 7.23 45.014 0.061 7.31 3.61 11.88
10/22/2022 1:30:00 PM 7.43 45.374 0.061 7.32 3.51 11.82
10/22/2022 1:45:00 PM 7.65 45.77 0.061 7.31 3.53 11.75
10/22/2022 2:00:00 PM 7.87 46.166 0.061 7.31 3.52 11.67
10/22/2022 2:15:00 PM 8.08 46.544 0.061 7.32 3.48 11.61
10/22/2022 2:30:00 PM 8.26 46.868 0.061 7.33 3.5 11.56
10/22/2022 2:45:00 PM 8.41 47.138 0.061 7.33 3.55 11.5
10/22/2022 3:00:00 PM 8.57 47.426 0.061 7.33 3.5 11.43
10/22/2022 3:15:00 PM 8.7 47.66 0.061 7.34 3.51 11.39
10/22/2022 3:30:00 PM 8.81 47.858 0.061 7.34 3.52 11.33
10/22/2022 3:45:00 PM 8.93 48.074 0.061 7.34 3.51 11.29
10/22/2022 4:00:00 PM 9 48.2 0.061 7.36 3.53 11.28
10/22/2022 4:15:00 PM 9.06 48.308 0.061 7.37 3.53 11.25
10/22/2022 4:30:00 PM 9.15 48.47 0.061 7.38 3.53 11.19
10/22/2022 4:45:00 PM 9.24 48.632 0.061 7.36 3.54 11.11
10/22/2022 5:00:00 PM 9.29 48.722 0.061 7.36 3.51 11.06
10/22/2022 5:15:00 PM 9.34 48.812 0.061 7.36 3.58 11.01
10/22/2022 5:30:00 PM 9.38 48.884 0.061 7.37 3.78 10.99
10/22/2022 5:45:00 PM 9.4 48.92 0.061 7.38 3.71 10.97
10/22/2022 6:00:00 PM 9.44 48.992 0.061 7.37 3.73 10.9
10/22/2022 6:15:00 PM 9.45 49.01 0.061 7.35 3.67 10.83
10/22/2022 6:30:00 PM 9.45 49.01 0.061 7.33 3.75 10.76
10/22/2022 6:45:00 PM 9.44 48.992 0.061 7.31 3.77 10.71
10/22/2022 7:00:00 PM 9.41 48.938 0.061 7.3 3.76 10.67
10/22/2022 7:15:00 PM 9.38 48.884 0.062 7.3 3.78 10.66
10/22/2022 7:30:00 PM 9.34 48.812 0.062 7.29 3.68 10.65
10/22/2022 7:45:00 PM 9.29 48.722 0.062 7.28 3.68 10.65
10/22/2022 8:00:00 PM 9.22 48.596 0.062 7.28 3.66 10.65
10/22/2022 8:15:00 PM 9.14 48.452 0.062 7.28 3.7 10.68
10/22/2022 8:30:00 PM 9.05 48.29 0.062 7.27 3.68 10.69
10/22/2022 8:45:00 PM 8.95 48.11 0.062 7.28 3.7 10.72
10/22/2022 9:00:00 PM 8.86 47.948 0.062 7.28 3.7 10.76
10/22/2022 9:15:00 PM 8.76 47.768 0.062 7.27 3.81 10.77
10/22/2022 9:30:00 PM 8.66 47.588 0.062 7.27 3.75 10.81
10/22/2022 9:45:00 PM 8.56 47.408 0.062 7.27 3.85 10.83
10/22/2022 10:00:00 PM 8.46 47.228 0.062 7.26 3.77 10.85
10/22/2022 10:15:00 PM 8.37 47.066 0.063 7.26 3.8 10.87
10/22/2022 10:30:00 PM 8.27 46.886 0.063 7.25 3.76 10.91
10/22/2022 10:45:00 PM 8.17 46.706 0.063 7.25 3.81 10.93
10/22/2022 11:00:00 PM 8.07 46.526 0.063 7.25 3.82 10.96
10/22/2022 11:15:00 PM 7.98 46.364 0.063 7.24 3.73 10.98
10/22/2022 11:30:00 PM 7.88 46.184 0.063 7.24 3.81 11.02
10/22/2022 11:45:00 PM 7.79 46.022 0.063 7.23 3.74 11.05
10/23/2022 12:00:00 AM 7.69 45.842 0.063 7.23 3.81 11.07
10/23/2022 12:15:00 AM 7.59 45.662 0.063 7.23 3.76 11.11
10/23/2022 12:30:00 AM 7.49 45.482 0.063 7.22 3.79 11.14
10/23/2022 12:45:00 AM 7.4 45.32 0.063 7.22 4.46 11.17
10/23/2022 1:00:00 AM 7.3 45.14 0.063 7.22 4.44 11.2
10/23/2022 1:15:00 AM 7.21 44.978 0.063 7.21 3.86 11.22
10/23/2022 1:30:00 AM 7.11 44.798 0.063 7.21 3.84 11.26
10/23/2022 1:45:00 AM 7.02 44.636 0.063 7.21 3.84 11.29
10/23/2022 2:00:00 AM 6.93 44.474 0.063 7.21 3.83 11.32
10/23/2022 2:15:00 AM 6.84 44.312 0.063 7.2 3.83 11.35
10/23/2022 2:30:00 AM 6.76 44.168 0.063 7.2 3.85 11.38
10/23/2022 2:45:00 AM 6.68 44.024 0.063 7.19 3.87 11.39
10/23/2022 3:00:00 AM 6.6 43.88 0.063 7.19 3.88 11.41
10/23/2022 3:15:00 AM 6.52 43.736 0.063 7.19 3.95 11.44
10/23/2022 3:30:00 AM 6.44 43.592 0.063 7.19 3.91 11.48
10/23/2022 3:45:00 AM 6.37 43.466 0.063 7.18 3.89 11.5
10/23/2022 4:00:00 AM 6.29 43.322 0.063 7.19 3.9 11.54
10/23/2022 4:15:00 AM 6.21 43.178 0.063 7.19 3.96 11.54
10/23/2022 4:30:00 AM 6.14 43.052 0.063 7.18 3.9 11.58
10/23/2022 4:45:00 AM 6.08 42.944 0.063 7.19 3.96 11.61
10/23/2022 5:00:00 AM 6.02 42.836 0.063 7.18 3.96 11.62
10/23/2022 5:15:00 AM 5.95 42.71 0.063 7.18 3.98 11.66
10/23/2022 5:30:00 AM 5.88 42.584 0.063 7.18 3.97 11.69
10/23/2022 5:45:00 AM 5.82 42.476 0.063 7.18 3.98 11.71
10/23/2022 6:00:00 AM 5.76 42.368 0.063 7.17 3.99 11.71
10/23/2022 6:15:00 AM 5.7 42.26 0.063 7.17 3.94 11.74
10/23/2022 6:30:00 AM 5.64 42.152 0.063 7.17 3.98 11.77
10/23/2022 6:45:00 AM 5.59 42.062 0.063 7.17 3.98 11.77
10/23/2022 7:00:00 AM 5.53 41.954 0.063 7.17 3.98 11.81
10/23/2022 7:15:00 AM 5.48 41.864 0.063 7.17 3.92 11.81
10/23/2022 7:30:00 AM 5.43 41.774 0.063 7.17 3.92 11.84
10/23/2022 7:45:00 AM 5.37 41.666 0.063 7.17 3.92 11.89
10/23/2022 8:00:00 AM 5.33 41.594 0.063 7.17 3.95 11.91
10/23/2022 8:15:00 AM 5.29 41.522 0.063 7.17 3.97 11.95
10/23/2022 8:30:00 AM 5.26 41.468 0.063 7.18 3.97 12
10/23/2022 8:45:00 AM 5.24 41.432 0.062 7.19 3.96 12.06
10/23/2022 9:00:00 AM 5.26 41.468 0.062 7.19 3.99 12.1
10/23/2022 9:15:00 AM 5.28 41.504 0.062 7.21 3.97 12.15
10/23/2022 9:30:00 AM 5.3 41.54 0.062 7.22 3.94 12.18
10/23/2022 9:45:00 AM 5.3 41.54 0.062 7.22 3.93 12.2
10/23/2022 10:00:00 AM 5.35 41.63 0.062 7.23 3.93 12.21
10/23/2022 10:15:00 AM 5.44 41.792 0.062 7.23 3.86 12.23
10/23/2022 10:30:00 AM 5.56 42.008 0.062 7.24 3.82 12.24
10/23/2022 10:45:00 AM 5.7 42.26 0.062 7.25 3.68 12.23
10/23/2022 11:00:00 AM 5.87 42.566 0.062 7.25 3.59 12.19
10/23/2022 11:15:00 AM 6.03 42.854 0.062 7.26 3.6 12.19
10/23/2022 11:30:00 AM 6.18 43.124 0.062 7.28 3.56 12.21
10/23/2022 11:45:00 AM 6.27 43.286 0.062 7.3 3.52 12.18
10/23/2022 12:00:00 PM 6.5 43.7 0.061 7.28 3.56 12.12
10/23/2022 12:15:00 PM 6.61 43.898 0.061 7.29 3.55 12.08
10/23/2022 12:30:00 PM 6.79 44.222 0.061 7.3 3.53 12.02
10/23/2022 12:45:00 PM 6.98 44.564 0.061 7.29 3.51 11.98
10/23/2022 1:00:00 PM 7.2 44.96 0.061 7.3 3.53 11.94
10/23/2022 1:15:00 PM 7.46 45.428 0.061 7.3 3.48 11.86
10/23/2022 1:30:00 PM 7.75 45.95 0.061 7.32 3.46 11.79
10/23/2022 1:45:00 PM 8.01 46.418 0.061 7.33 3.45 11.73
10/23/2022 2:00:00 PM 8.23 46.814 0.061 7.36 3.41 11.71
10/23/2022 2:15:00 PM 8.49 47.282 0.061 7.35 3.42 11.62
10/23/2022 2:30:00 PM 8.68 47.624 0.061 7.37 3.41 11.59
10/23/2022 2:45:00 PM 8.79 47.822 0.061 7.33 3.43 11.44
10/23/2022 3:00:00 PM 8.86 47.948 0.061 7.33 3.43 11.42
10/23/2022 3:15:00 PM 8.9 48.02 0.061 7.36 3.52 11.42
10/23/2022 3:30:00 PM 8.92 48.056 0.061 7.39 3.43 11.41
10/23/2022 3:45:00 PM 9.02 48.236 0.061 7.36 3.56 11.31
10/23/2022 4:00:00 PM 9.15 48.47 0.061 7.35 3.48 11.24
10/23/2022 4:15:00 PM 9.25 48.65 0.061 7.35 3.47 11.19
10/23/2022 4:30:00 PM 9.31 48.758 0.061 7.35 3.45 11.15
10/23/2022 4:45:00 PM 9.42 48.956 0.061 7.36 3.48 11.11
10/23/2022 5:00:00 PM 9.44 48.992 0.061 7.38 3.46 11.11
10/23/2022 5:15:00 PM 9.47 49.046 0.061 7.36 3.48 11.02
10/23/2022 5:30:00 PM 9.53 49.154 0.061 7.35 3.45 10.98
10/23/2022 5:45:00 PM 9.58 49.244 0.061 7.34 3.49 10.93
10/23/2022 6:00:00 PM 9.59 49.262 0.061 7.33 3.5 10.88
10/23/2022 6:15:00 PM 9.58 49.244 0.061 7.33 3.59 10.83
10/23/2022 6:30:00 PM 9.57 49.226 0.061 7.32 3.53 10.79
10/23/2022 6:45:00 PM 9.55 49.19 0.061 7.32 3.58 10.74
10/23/2022 7:00:00 PM 9.53 49.154 0.061 7.31 3.6 10.71
10/23/2022 7:15:00 PM 9.51 49.118 0.062 7.3 3.62 10.68
10/23/2022 7:30:00 PM 9.5 49.1 0.062 7.29 3.56 10.67
10/23/2022 7:45:00 PM 9.5 49.1 0.062 7.29 3.43 10.65
10/23/2022 8:00:00 PM 9.5 49.1 0.062 7.28 3.39 10.63
10/23/2022 8:15:00 PM 9.49 49.082 0.062 7.27 3.43 10.63
10/23/2022 8:30:00 PM 9.47 49.046 0.062 7.27 3.43 10.63
10/23/2022 8:45:00 PM 9.42 48.956 0.062 7.27 3.42 10.64
10/23/2022 9:00:00 PM 9.37 48.866 0.062 7.26 3.46 10.63
10/23/2022 9:15:00 PM 9.34 48.812 0.062 7.25 3.47 10.62
10/23/2022 9:30:00 PM 9.31 48.758 0.063 7.25 3.48 10.63
10/23/2022 9:45:00 PM 9.29 48.722 0.063 7.24 3.59 10.61
10/23/2022 10:00:00 PM 9.25 48.65 0.063 7.24 3.49 10.63
10/23/2022 10:15:00 PM 9.22 48.596 0.063 7.24 3.54 10.65
10/23/2022 10:30:00 PM 9.17 48.506 0.063 7.24 3.57 10.65
10/23/2022 10:45:00 PM 9.13 48.434 0.063 7.23 3.5 10.66
10/23/2022 11:00:00 PM 9.09 48.362 0.063 7.24 3.49 10.68
10/23/2022 11:15:00 PM 9.04 48.272 0.063 7.23 3.46 10.68
10/23/2022 11:30:00 PM 8.99 48.182 0.063 7.23 3.51 10.71
10/23/2022 11:45:00 PM 8.94 48.092 0.063 7.22 3.46 10.72
10/24/2022 12:00:00 AM 8.89 48.002 0.063 7.22 3.44 10.72
10/24/2022 12:15:00 AM 8.83 47.894 0.063 7.23 3.49 10.76
10/24/2022 12:30:00 AM 8.79 47.822 0.063 7.22 3.47 10.74
10/24/2022 12:45:00 AM 8.74 47.732 0.063 7.22 3.45 10.77
10/24/2022 1:00:00 AM 8.69 47.642 0.063 7.22 3.48 10.81
10/24/2022 1:15:00 AM 8.64 47.552 0.063 7.21 3.51 10.78
10/24/2022 1:30:00 AM 8.6 47.48 0.063 7.21 3.52 10.83
10/24/2022 1:45:00 AM 8.53 47.354 0.063 7.22 3.54 10.84
10/24/2022 2:00:00 AM 8.48 47.264 0.063 7.21 3.44 10.86
10/24/2022 2:15:00 AM 8.45 47.21 0.063 7.21 3.42 10.84
10/24/2022 2:30:00 AM 8.4 47.12 0.063 7.21 3.47 10.86
10/24/2022 2:45:00 AM 8.34 47.012 0.063 7.2 3.45 10.88
10/24/2022 3:00:00 AM 8.29 46.922 0.063 7.2 3.45 10.89
10/24/2022 3:15:00 AM 8.23 46.814 0.063 7.2 3.48 10.9
10/24/2022 3:30:00 AM 8.18 46.724 0.063 7.19 3.5 10.92
10/24/2022 3:45:00 AM 8.12 46.616 0.063 7.19 3.45 10.93
10/24/2022 4:00:00 AM 8.06 46.508 0.063 7.19 3.48 10.95
10/24/2022 4:15:00 AM 8.02 46.436 0.063 7.19 3.57 10.95
10/24/2022 4:30:00 AM 7.96 46.328 0.063 7.19 3.54 10.98
10/24/2022 4:45:00 AM 7.91 46.238 0.063 7.19 3.52 10.99
10/24/2022 5:00:00 AM 7.86 46.148 0.063 7.19 3.43 11.01
10/24/2022 5:15:00 AM 7.81 46.058 0.063 7.19 3.53 11.02
10/24/2022 5:30:00 AM 7.76 45.968 0.063 7.18 3.57 11.04
10/24/2022 5:45:00 AM 7.71 45.878 0.063 7.18 3.58 11.05
10/24/2022 6:00:00 AM 7.66 45.788 0.063 7.19 3.6 11.08
10/24/2022 6:15:00 AM 7.62 45.716 0.063 7.18 3.51 11.09
10/24/2022 6:30:00 AM 7.59 45.662 0.063 7.18 3.51 11.1
10/24/2022 6:45:00 AM 7.55 45.59 0.063 7.18 3.51 11.12
10/24/2022 7:00:00 AM 7.51 45.518 0.063 7.18 3.46 11.12
10/24/2022 7:15:00 AM 7.47 45.446 0.063 7.18 3.42 11.15
10/24/2022 7:30:00 AM 7.43 45.374 0.063 7.17 3.46 11.13
10/24/2022 7:45:00 AM 7.4 45.32 0.063 7.18 3.41 11.19
10/24/2022 8:00:00 AM 7.39 45.302 0.063 7.17 3.42 11.17
10/24/2022 8:15:00 AM 7.4 45.32 0.063 7.18 3.46 11.2
10/24/2022 8:30:00 AM 7.43 45.374 0.063 7.19 3.48 11.25
10/24/2022 8:45:00 AM 7.44 45.392 0.062 7.2 3.38 11.32
10/24/2022 9:00:00 AM 7.46 45.428 0.062 7.21 3.39 11.37
10/24/2022 9:15:00 AM 7.5 45.5 0.062 7.22 3.39 11.44
10/24/2022 9:30:00 AM 7.59 45.662 0.062 7.23 3.39 11.46
10/24/2022 9:45:00 AM 7.67 45.806 0.062 7.23 3.36 11.48
10/24/2022 10:00:00 AM 7.76 45.968 0.062 7.24 3.34 11.49
10/24/2022 10:15:00 AM 7.88 46.184 0.062 7.25 3.34 11.5
10/24/2022 10:30:00 AM 8 46.4 0.062 7.25 3.29 11.48
10/24/2022 10:45:00 AM 8.09 46.562 0.062 7.25 3.27 11.46
10/24/2022 11:00:00 AM 8.21 46.778 0.062 7.27 3.25 11.48
10/24/2022 11:15:00 AM 8.37 47.066 0.062 7.28 3.27 11.44
10/24/2022 11:30:00 AM 8.57 47.426 0.062 7.3 3.28 11.47
10/24/2022 11:45:00 AM 8.75 47.75 0.062 7.32 3.29 11.42
10/24/2022 12:00:00 PM 9.01 48.218 0.061 7.34 3.21 11.41
10/24/2022 12:15:00 PM 9.25 48.65 0.061 7.36 3.23 11.38
10/24/2022 12:30:00 PM 9.47 49.046 0.061 7.37 3.24 11.34
10/24/2022 12:45:00 PM 9.68 49.424 0.061 7.36 3.19 11.26
10/24/2022 1:00:00 PM 9.89 49.802 0.061 7.37 3.21 11.22
10/24/2022 1:15:00 PM 10.06 50.108 0.061 7.36 3.19 11.14
10/24/2022 1:30:00 PM 10.15 50.27 0.061 7.36 3.2 11.1
10/24/2022 1:45:00 PM 10.31 50.558 0.061 7.36 3.17 11.06
10/24/2022 2:00:00 PM 10.51 50.918 0.061 7.38 3.19 11.04
10/24/2022 2:15:00 PM 10.71 51.278 0.061 7.38 3.19 10.99
10/24/2022 2:30:00 PM 10.92 51.656 0.061 7.4 3.21 10.92
10/24/2022 2:45:00 PM 11.14 52.052 0.061 7.39 3.17 10.83
10/24/2022 3:00:00 PM 11.37 52.466 0.061 7.39 3.19 10.72
10/24/2022 3:15:00 PM 11.63 52.934 0.061 7.4 3.17 10.69
10/24/2022 3:30:00 PM 11.78 53.204 0.061 7.41 3.18 10.65
10/24/2022 3:45:00 PM 11.85 53.33 0.061 7.39 3.61 10.57
10/24/2022 4:00:00 PM 11.91 53.438 0.061 7.4 3.37 10.55
10/24/2022 4:15:00 PM 11.97 53.546 0.061 7.4 3.39 10.51
10/24/2022 4:30:00 PM 12.03 53.654 0.061 7.39 3.37 10.45
10/24/2022 4:45:00 PM 12.03 53.654 0.061 7.39 3.36 10.4
10/24/2022 5:00:00 PM 12.05 53.69 0.061 7.39 3.39 10.34
10/24/2022 5:15:00 PM 12.09 53.762 0.061 7.4 3.35 10.31
10/24/2022 5:30:00 PM 12.14 53.852 0.061 7.4 3.35 10.25
10/24/2022 5:45:00 PM 12.2 53.96 0.061 7.39 3.38 10.18
10/24/2022 6:00:00 PM 12.24 54.032 0.061 7.38 3.4 10.09
10/24/2022 6:15:00 PM 12.28 54.104 0.062 7.38 3.42 10.02
10/24/2022 6:30:00 PM 12.28 54.104 0.062 7.35 3.42 9.94
10/24/2022 6:45:00 PM 12.27 54.086 0.062 7.34 3.45 9.9
10/24/2022 7:00:00 PM 12.26 54.068 0.062 7.33 3.5 9.88
10/24/2022 7:15:00 PM 12.23 54.014 0.062 7.31 3.5 9.85
10/24/2022 7:30:00 PM 12.2 53.96 0.062 7.31 3.47 9.84
10/24/2022 7:45:00 PM 12.15 53.87 0.062 7.31 3.48 9.83
10/24/2022 8:00:00 PM 12.08 53.744 0.062 7.3 3.53 9.83
10/24/2022 8:15:00 PM 12.01 53.618 0.063 7.29 3.56 9.83
10/24/2022 8:30:00 PM 11.93 53.474 0.063 7.28 3.57 9.85
10/24/2022 8:45:00 PM 11.85 53.33 0.063 7.27 3.58 9.85
10/24/2022 9:00:00 PM 11.77 53.186 0.063 7.27 3.62 9.87
10/24/2022 9:15:00 PM 11.68 53.024 0.063 7.28 3.65 9.89
10/24/2022 9:30:00 PM 11.58 52.844 0.063 7.26 3.63 9.9
10/24/2022 9:45:00 PM 11.49 52.682 0.063 7.25 3.68 9.91
10/24/2022 10:00:00 PM 11.39 52.502 0.063 7.26 3.75 9.95
10/24/2022 10:15:00 PM 11.3 52.34 0.063 7.25 3.77 9.95
10/24/2022 10:30:00 PM 11.21 52.178 0.063 7.25 3.71 9.99
10/24/2022 10:45:00 PM 11.12 52.016 0.063 7.24 3.69 9.99
10/24/2022 11:00:00 PM 11.03 51.854 0.063 7.24 3.62 10.02
10/24/2022 11:15:00 PM 10.94 51.692 0.064 7.23 3.67 10.05
10/24/2022 11:30:00 PM 10.88 51.584 0.064 7.23 3.68 10.08
10/24/2022 11:45:00 PM 10.84 51.512 0.064 7.22 3.62 10.06
10/25/2022 12:00:00 AM 10.8 51.44 0.064 7.23 3.68 10.1
10/25/2022 12:15:00 AM 10.77 51.386 0.064 7.22 3.66 10.11
10/25/2022 12:30:00 AM 10.74 51.332 0.064 7.22 3.65 10.11
10/25/2022 12:45:00 AM 10.7 51.26 0.064 7.22 3.68 10.12
10/25/2022 1:00:00 AM 10.66 51.188 0.064 7.22 3.68 10.14
10/25/2022 1:15:00 AM 10.63 51.134 0.064 7.21 3.65 10.15
10/25/2022 1:30:00 AM 10.6 51.08 0.064 7.21 3.66 10.16
10/25/2022 1:45:00 AM 10.57 51.026 0.064 7.21 3.93 10.15
10/25/2022 2:00:00 AM 10.54 50.972 0.064 7.21 3.89 10.17
10/25/2022 2:15:00 AM 10.52 50.936 0.064 7.21 3.89 10.18
10/25/2022 2:30:00 AM 10.5 50.9 0.064 7.2 3.84 10.17
10/25/2022 2:45:00 AM 10.48 50.864 0.064 7.2 3.85 10.18
10/25/2022 3:00:00 AM 10.47 50.846 0.064 7.2 3.91 10.19
10/25/2022 3:15:00 AM 10.46 50.828 0.063 7.19 3.79 10.17
10/25/2022 3:30:00 AM 10.44 50.792 0.063 7.19 3.85 10.18
10/25/2022 3:45:00 AM 10.43 50.774 0.063 7.19 3.9 10.19
10/25/2022 4:00:00 AM 10.42 50.756 0.063 7.19 3.83 10.19
10/25/2022 4:15:00 AM 10.42 50.756 0.063 7.2 3.7 10.19
10/25/2022 4:30:00 AM 10.41 50.738 0.063 7.19 3.69 10.19
10/25/2022 4:45:00 AM 10.4 50.72 0.063 7.19 3.72 10.19
10/25/2022 5:00:00 AM 10.4 50.72 0.063 7.19 3.66 10.19
10/25/2022 5:15:00 AM 10.39 50.702 0.063 7.19 3.67 10.19
10/25/2022 5:30:00 AM 10.39 50.702 0.063 7.19 3.65 10.2
10/25/2022 5:45:00 AM 10.39 50.702 0.063 7.19 3.69 10.21
10/25/2022 6:00:00 AM 10.39 50.702 0.063 7.18 3.66 10.2
10/25/2022 6:15:00 AM 10.38 50.684 0.063 7.18 3.66 10.19
10/25/2022 6:30:00 AM 10.39 50.702 0.063 7.17 3.67 10.17
10/25/2022 6:45:00 AM 10.39 50.702 0.063 7.18 3.61 10.19
10/25/2022 7:00:00 AM 10.39 50.702 0.063 7.18 3.54 10.19
10/25/2022 7:15:00 AM 10.39 50.702 0.063 7.18 3.59 10.19
10/25/2022 7:30:00 AM 10.4 50.72 0.063 7.18 3.55 10.2
10/25/2022 7:45:00 AM 10.4 50.72 0.063 7.18 3.54 10.2
10/25/2022 8:00:00 AM 10.41 50.738 0.063 7.18 3.51 10.23
10/25/2022 8:15:00 AM 10.43 50.774 0.063 7.19 3.49 10.26
10/25/2022 8:30:00 AM 10.45 50.81 0.063 7.2 3.51 10.29
10/25/2022 8:45:00 AM 10.48 50.864 0.063 7.2 3.48 10.34
10/25/2022 9:00:00 AM 10.52 50.936 0.063 7.22 3.46 10.41
10/25/2022 9:15:00 AM 10.56 51.008 0.063 7.23 3.5 10.45
10/25/2022 9:30:00 AM 10.62 51.116 0.063 7.24 3.48 10.49
10/25/2022 9:45:00 AM 10.69 51.242 0.063 7.25 3.47 10.53
10/25/2022 10:00:00 AM 10.76 51.368 0.063 7.26 3.44 10.54
10/25/2022 10:15:00 AM 10.86 51.548 0.062 7.28 3.44 10.58
10/25/2022 10:30:00 AM 10.96 51.728 0.062 7.29 3.37 10.6
10/25/2022 10:45:00 AM 11.07 51.926 0.062 7.32 3.38 10.64
10/25/2022 11:00:00 AM 11.21 52.178 0.062 7.33 3.37 10.64
10/25/2022 11:15:00 AM 11.36 52.448 0.062 7.33 3.35 10.61
10/25/2022 11:30:00 AM 11.54 52.772 0.062 7.34 3.31 10.61
10/25/2022 11:45:00 AM 11.7 53.06 0.062 7.33 3.29 10.57
10/25/2022 12:00:00 PM 11.9 53.42 0.062 7.34 3.31 10.54
10/25/2022 12:15:00 PM 12.05 53.69 0.062 7.35 3.24 10.53
10/25/2022 12:30:00 PM 12.18 53.924 0.061 7.37 3.32 10.51
10/25/2022 12:45:00 PM 12.28 54.104 0.061 7.38 3.24 10.5
10/25/2022 1:00:00 PM 12.41 54.338 0.061 7.4 3.25 10.49
10/25/2022 1:15:00 PM 12.55 54.59 0.061 7.4 3.29 10.43
10/25/2022 1:30:00 PM 12.78 55.004 0.061 7.4 3.23 10.38
10/25/2022 1:45:00 PM 13.04 55.472 0.061 7.38 3.23 10.27
10/25/2022 2:00:00 PM 13.3 55.94 0.061 7.41 3.25 10.24
10/25/2022 2:15:00 PM 13.42 56.156 0.061 7.44 3.28 10.22
10/25/2022 2:30:00 PM 13.53 56.354 0.061 7.45 3.21 10.17
10/25/2022 2:45:00 PM 13.62 56.516 0.061 7.44 3.25 10.1
10/25/2022 3:00:00 PM 13.63 56.534 0.061 7.46 3.31 10.1
10/25/2022 3:15:00 PM 13.64 56.552 0.061 7.45 3.29 10.07
10/25/2022 3:30:00 PM 13.68 56.624 0.062 7.46 3.32 10.04
10/25/2022 3:45:00 PM 13.71 56.678 0.062 7.46 3.33 10
10/25/2022 4:00:00 PM 13.74 56.732 0.062 7.47 3.46 9.98
10/25/2022 4:15:00 PM 13.77 56.786 0.062 7.46 3.39 9.93
10/25/2022 4:30:00 PM 13.79 56.822 0.062 7.45 3.38 9.88
10/25/2022 4:45:00 PM 13.81 56.858 0.062 7.45 3.43 9.83
10/25/2022 5:00:00 PM 13.8 56.84 0.062 7.44 3.48 9.77
10/25/2022 5:15:00 PM 13.81 56.858 0.062 7.43 3.39 9.72
10/25/2022 5:30:00 PM 13.79 56.822 0.062 7.41 3.38 9.65
10/25/2022 5:45:00 PM 13.78 56.804 0.062 7.39 3.36 9.58
10/25/2022 6:00:00 PM 13.76 56.768 0.062 7.39 3.41 9.54
10/25/2022 6:15:00 PM 13.75 56.75 0.062 7.38 3.4 9.5
10/25/2022 6:30:00 PM 13.74 56.732 0.062 7.37 3.45 9.46
10/25/2022 6:45:00 PM 13.73 56.714 0.063 7.36 3.5 9.41
10/25/2022 7:00:00 PM 13.73 56.714 0.063 7.35 3.48 9.4
10/25/2022 7:15:00 PM 13.71 56.678 0.063 7.34 3.5 9.37
10/25/2022 7:30:00 PM 13.68 56.624 0.063 7.33 3.47 9.36
10/25/2022 7:45:00 PM 13.64 56.552 0.063 7.33 3.49 9.37
10/25/2022 8:00:00 PM 13.61 56.498 0.063 7.33 3.52 9.38
10/25/2022 8:15:00 PM 13.57 56.426 0.063 7.32 3.62 9.36
10/25/2022 8:30:00 PM 13.53 56.354 0.063 7.3 3.53 9.34
10/25/2022 8:45:00 PM 13.48 56.264 0.063 7.3 3.53 9.36
10/25/2022 9:00:00 PM 13.44 56.192 0.064 7.32 3.51 9.39
10/25/2022 9:15:00 PM 13.4 56.12 0.064 7.31 3.53 9.38
10/25/2022 9:30:00 PM 13.35 56.03 0.064 7.31 3.53 9.39
10/25/2022 9:45:00 PM 13.3 55.94 0.064 7.3 3.54 9.4
10/25/2022 10:00:00 PM 13.26 55.868 0.064 7.3 3.57 9.41
10/25/2022 10:15:00 PM 13.21 55.778 0.064 7.3 3.47 9.41
10/25/2022 10:30:00 PM 13.13 55.634 0.064 7.29 3.52 9.42
10/25/2022 10:45:00 PM 13.06 55.508 0.064 7.3 3.53 9.45
10/25/2022 11:00:00 PM 12.99 55.382 0.064 7.28 3.57 9.44
10/25/2022 11:15:00 PM 12.95 55.31 0.064 7.29 3.6 9.45
10/25/2022 11:30:00 PM 12.91 55.238 0.064 7.28 3.56 9.46
10/25/2022 11:45:00 PM 12.87 55.166 0.064 7.28 3.34 9.48
10/26/2022 12:00:00 AM 12.82 55.076 0.064 7.29 3.28 9.5
10/26/2022 12:15:00 AM 12.77 54.986 0.064 7.29 3.23 9.51
10/26/2022 12:30:00 AM 12.72 54.896 0.064 7.27 3.34 9.52
10/26/2022 12:45:00 AM 12.67 54.806 0.064 7.27 3.32 9.52
10/26/2022 1:00:00 AM 12.61 54.698 0.064 7.27 3.54 9.54
10/26/2022 1:15:00 AM 12.55 54.59 0.064 7.27 3.48 9.55
10/26/2022 1:30:00 AM 12.5 54.5 0.064 7.25 3.44 9.53
10/26/2022 1:45:00 AM 12.43 54.374 0.064 7.26 3.43 9.56
10/26/2022 2:00:00 AM 12.36 54.248 0.064 7.26 3.48 9.58
10/26/2022 2:15:00 AM 12.29 54.122 0.064 7.26 3.47 9.6
10/26/2022 2:30:00 AM 12.21 53.978 0.064 7.25 3.47 9.62
10/26/2022 2:45:00 AM 12.14 53.852 0.064 7.25 3.5 9.62
10/26/2022 3:00:00 AM 12.08 53.744 0.064 7.25 3.44 9.63
10/26/2022 3:15:00 AM 12.01 53.618 0.064 7.24 3.47 9.63
10/26/2022 3:30:00 AM 11.94 53.492 0.064 7.24 3.54 9.66
10/26/2022 3:45:00 AM 11.89 53.402 0.064 7.24 3.42 9.67
10/26/2022 4:00:00 AM 11.81 53.258 0.064 7.24 3.45 9.69
10/26/2022 4:15:00 AM 11.72 53.096 0.064 7.24 3.46 9.7
10/26/2022 4:30:00 AM 11.64 52.952 0.064 7.24 3.41 9.72
10/26/2022 4:45:00 AM 11.55 52.79 0.064 7.23 3.41 9.74
10/26/2022 5:00:00 AM 11.47 52.646 0.064 7.24 3.47 9.77
10/26/2022 5:15:00 AM 11.39 52.502 0.064 7.22 3.4 9.76
10/26/2022 5:30:00 AM 11.31 52.358 0.064 7.23 3.52 9.8
10/26/2022 5:45:00 AM 11.25 52.25 0.064 7.23 3.47 9.83
10/26/2022 6:00:00 AM 11.18 52.124 0.064 7.22 3.38 9.83
10/26/2022 6:15:00 AM 11.13 52.034 0.064 7.24 3.46 9.84
10/26/2022 6:30:00 AM 11.09 51.962 0.063 7.22 3.46 9.85
10/26/2022 6:45:00 AM 11.06 51.908 0.063 7.22 3.49 9.87
10/26/2022 7:00:00 AM 11.02 51.836 0.063 7.22 3.55 9.88
10/26/2022 7:15:00 AM 11 51.8 0.063 7.21 3.53 9.89
10/26/2022 7:30:00 AM 10.98 51.764 0.063 7.22 3.47 9.9
10/26/2022 7:45:00 AM 10.97 51.746 0.063 7.22 3.48 9.92
10/26/2022 8:00:00 AM 10.97 51.746 0.063 7.22 3.4 9.94
10/26/2022 8:15:00 AM 10.96 51.728 0.063 7.23 3.4 10
10/26/2022 8:30:00 AM 10.97 51.746 0.063 7.24 3.4 10.04
10/26/2022 8:45:00 AM 11 51.8 0.063 7.25 3.41 10.14
10/26/2022 9:00:00 AM 11.03 51.854 0.063 7.25 3.43 10.16
10/26/2022 9:15:00 AM 11.11 51.998 0.063 7.27 3.36 10.24
10/26/2022 9:30:00 AM 11.22 52.196 0.063 7.29 3.36 10.31
10/26/2022 9:45:00 AM 11.32 52.376 0.063 7.32 3.43 10.36
10/26/2022 10:00:00 AM 11.42 52.556 0.063 7.31 3.42 10.35
10/26/2022 10:15:00 AM 11.51 52.718 0.062 7.31 3.38 10.33
10/26/2022 10:30:00 AM 11.6 52.88 0.062 7.33 3.37 10.37
10/26/2022 10:45:00 AM 11.67 53.006 0.062 7.35 3.49 10.41
10/26/2022 11:00:00 AM 11.72 53.096 0.062 7.36 3.54 10.4
10/26/2022 11:15:00 AM 11.79 53.222 0.062 7.38 3.47 10.42
10/26/2022 11:30:00 AM 11.93 53.474 0.062 7.39 3.46 10.43
10/26/2022 11:45:00 AM 12.13 53.834 0.062 7.38 3.42 10.38
10/26/2022 12:00:00 PM 12.4 54.32 0.062 7.4 3.4 10.36
10/26/2022 12:15:00 PM 12.63 54.734 0.061 7.4 3.34 10.3
10/26/2022 12:30:00 PM 12.9 55.22 0.061 7.41 3.37 10.26
10/26/2022 12:45:00 PM 12.97 55.346 0.061 7.4 3.41 10.21
10/26/2022 1:00:00 PM 13.12 55.616 0.061 7.41 3.41 10.2
10/26/2022 1:15:00 PM 13.18 55.724 0.061 7.44 3.3 10.19
10/26/2022 1:30:00 PM 13.21 55.778 0.061 7.44 3.36 10.18
10/26/2022 1:45:00 PM 13.25 55.85 0.061 7.43 3.28 10.15
10/26/2022 2:00:00 PM 13.3 55.94 0.061 7.42 3.34 10.13
10/26/2022 2:15:00 PM 13.33 55.994 0.061 7.43 3.3 10.08
10/26/2022 2:30:00 PM 13.37 56.066 0.061 7.43 3.34 10.03
10/26/2022 2:45:00 PM 13.43 56.174 0.061 7.43 3.34 10.01
10/26/2022 3:00:00 PM 13.47 56.246 0.061 7.44 3.31 9.97
10/26/2022 3:15:00 PM 13.48 56.264 0.061 7.43 3.36 9.89
10/26/2022 3:30:00 PM 13.52 56.336 0.061 7.41 3.41 9.86
10/26/2022 3:45:00 PM 13.53 56.354 0.061 7.41 3.36 9.82
10/26/2022 4:00:00 PM 13.52 56.336 0.061 7.4 3.35 9.77
10/26/2022 4:15:00 PM 13.49 56.282 0.061 7.4 3.34 9.75
10/26/2022 4:30:00 PM 13.44 56.192 0.062 7.39 3.37 9.66
10/26/2022 4:45:00 PM 13.4 56.12 0.062 7.38 3.41 9.62
10/26/2022 5:00:00 PM 13.37 56.066 0.062 7.37 3.37 9.6
10/26/2022 5:15:00 PM 13.33 55.994 0.062 7.36 3.42 9.57
10/26/2022 5:30:00 PM 13.3 55.94 0.062 7.35 3.38 9.56
10/26/2022 5:45:00 PM 13.28 55.904 0.062 7.35 3.4 9.55
10/26/2022 6:00:00 PM 13.25 55.85 0.062 7.34 3.38 9.52
10/26/2022 6:15:00 PM 13.21 55.778 0.062 7.34 3.46 9.5
10/26/2022 6:30:00 PM 13.17 55.706 0.063 7.33 3.45 9.47
10/26/2022 6:45:00 PM 13.13 55.634 0.063 7.32 3.61 9.45
10/26/2022 7:00:00 PM 13.08 55.544 0.063 7.31 3.55 9.44
10/26/2022 7:15:00 PM 13 55.4 0.063 7.3 3.5 9.44
10/26/2022 7:30:00 PM 12.95 55.31 0.063 7.3 3.55 9.44
10/26/2022 7:45:00 PM 12.92 55.256 0.063 7.29 3.52 9.44
10/26/2022 8:00:00 PM 12.88 55.184 0.063 7.3 3.47 9.45
10/26/2022 8:15:00 PM 12.85 55.13 0.063 7.3 3.49 9.46
10/26/2022 8:30:00 PM 12.81 55.058 0.064 7.29 3.58 9.46
10/26/2022 8:45:00 PM 12.77 54.986 0.064 7.29 3.55 9.46
10/26/2022 9:00:00 PM 12.73 54.914 0.064 7.29 3.49 9.47
10/26/2022 9:15:00 PM 12.68 54.824 0.064 7.28 3.55 9.48
10/26/2022 9:30:00 PM 12.64 54.752 0.064 7.28 3.53 9.49
10/26/2022 9:45:00 PM 12.59 54.662 0.064 7.28 3.5 9.5
10/26/2022 10:00:00 PM 12.55 54.59 0.064 7.28 3.53 9.52
10/26/2022 10:15:00 PM 12.5 54.5 0.064 7.28 3.55 9.53
10/26/2022 10:30:00 PM 12.45 54.41 0.064 7.29 3.51 9.57
10/26/2022 10:45:00 PM 12.41 54.338 0.064 7.28 3.53 9.58
10/26/2022 11:00:00 PM 12.37 54.266 0.064 7.27 3.58 9.57
10/26/2022 11:15:00 PM 12.33 54.194 0.064 7.27 3.55 9.58
10/26/2022 11:30:00 PM 12.29 54.122 0.064 7.27 3.52 9.6
10/26/2022 11:45:00 PM 12.23 54.014 0.064 7.27 3.59 9.59
10/27/2022 12:00:00 AM 12.18 53.924 0.064 7.27 3.54 9.62
10/27/2022 12:15:00 AM 12.13 53.834 0.064 7.27 3.57 9.65
10/27/2022 12:30:00 AM 12.08 53.744 0.064 7.26 3.54 9.63
10/27/2022 12:45:00 AM 12.01 53.618 0.064 7.27 3.49 9.69
10/27/2022 1:00:00 AM 11.93 53.474 0.064 7.27 3.56 9.71
10/27/2022 1:15:00 AM 11.87 53.366 0.064 7.27 3.55 9.73
10/27/2022 1:30:00 AM 11.82 53.276 0.064 7.27 3.54 9.74
10/27/2022 1:45:00 AM 11.78 53.204 0.064 7.27 3.53 9.77
10/27/2022 2:00:00 AM 11.75 53.15 0.064 7.26 3.55 9.76
10/27/2022 2:15:00 AM 11.71 53.078 0.064 7.25 3.54 9.76
10/27/2022 2:30:00 AM 11.66 52.988 0.064 7.25 3.57 9.78
10/27/2022 2:45:00 AM 11.62 52.916 0.064 7.26 3.57 9.8
10/27/2022 3:00:00 AM 11.56 52.808 0.064 7.26 3.65 9.82
10/27/2022 3:15:00 AM 11.51 52.718 0.064 7.25 3.62 9.83
10/27/2022 3:30:00 AM 11.46 52.628 0.064 7.25 3.61 9.85
10/27/2022 3:45:00 AM 11.42 52.556 0.064 7.25 3.66 9.86
10/27/2022 4:00:00 AM 11.37 52.466 0.064 7.25 3.64 9.87
10/27/2022 4:15:00 AM 11.32 52.376 0.064 7.25 3.65 9.89
10/27/2022 4:30:00 AM 11.27 52.286 0.064 7.25 3.61 9.91
10/27/2022 4:45:00 AM 11.22 52.196 0.064 7.26 3.69 9.94
10/27/2022 5:00:00 AM 11.15 52.07 0.063 7.25 3.7 9.92
10/27/2022 5:15:00 AM 11.09 51.962 0.063 7.25 3.65 9.97
10/27/2022 5:30:00 AM 11.03 51.854 0.063 7.25 3.67 9.97
10/27/2022 5:45:00 AM 10.97 51.746 0.063 7.25 3.68 9.99
10/27/2022 6:00:00 AM 10.92 51.656 0.063 7.24 3.72 10.02
10/27/2022 6:15:00 AM 10.84 51.512 0.063 7.23 3.73 10.02
10/27/2022 6:30:00 AM 10.73 51.314 0.063 7.23 3.78 10.05
10/27/2022 6:45:00 AM 10.63 51.134 0.063 7.23 3.78 10.1
10/27/2022 7:00:00 AM 10.52 50.936 0.063 7.22 3.82 10.11
10/27/2022 7:15:00 AM 10.44 50.792 0.063 7.21 3.82 10.13
10/27/2022 7:30:00 AM 10.35 50.63 0.063 7.22 3.84 10.16
10/27/2022 7:45:00 AM 10.26 50.468 0.063 7.21 3.84 10.2
10/27/2022 8:00:00 AM 10.19 50.342 0.063 7.22 3.83 10.27
10/27/2022 8:15:00 AM 10.12 50.216 0.063 7.22 3.78 10.32
10/27/2022 8:30:00 AM 10.05 50.09 0.063 7.23 3.81 10.39
10/27/2022 8:45:00 AM 9.98 49.964 0.063 7.24 3.83 10.45
10/27/2022 9:00:00 AM 9.93 49.874 0.063 7.25 3.8 10.54
10/27/2022 9:15:00 AM 9.89 49.802 0.063 7.26 3.81 10.61
10/27/2022 9:30:00 AM 9.86 49.748 0.063 7.27 3.81 10.68
10/27/2022 9:45:00 AM 9.86 49.748 0.063 7.29 3.88 10.75
10/27/2022 10:00:00 AM 9.85 49.73 0.063 7.32 4.06 10.78
10/27/2022 10:15:00 AM 9.89 49.802 0.063 7.33 3.82 10.88
10/27/2022 10:30:00 AM 9.93 49.874 0.063 7.35 3.67 10.93
10/27/2022 10:45:00 AM 9.99 49.982 0.062 7.33 3.51 10.89
10/27/2022 11:00:00 AM 10.02 50.036 0.062 7.34 3.44 10.93
10/27/2022 11:15:00 AM 10.05 50.09 0.062 7.34 3.44 10.94
10/27/2022 11:30:00 AM 10.13 50.234 0.062 7.34 3.54 10.92
10/27/2022 11:45:00 AM 10.19 50.342 0.062 7.36 3.38 10.94
10/27/2022 12:00:00 PM 10.25 50.45 0.062 7.35 3.52 10.93
10/27/2022 12:15:00 PM 10.34 50.612 0.062 7.34 3.49 10.9
10/27/2022 12:30:00 PM 10.43 50.774 0.062 7.36 3.44 10.89
10/27/2022 12:45:00 PM 10.54 50.972 0.062 7.35 3.35 10.87
10/27/2022 1:00:00 PM 10.62 51.116 0.062 7.36 3.32 10.85
10/27/2022 1:15:00 PM 10.71 51.278 0.062 7.38 3.44 10.86
10/27/2022 1:30:00 PM 10.82 51.476 0.062 7.37 3.42 10.83
10/27/2022 1:45:00 PM 10.91 51.638 0.062 7.39 3.62 10.82
10/27/2022 2:00:00 PM 10.98 51.764 0.062 7.39 3.66 10.78
10/27/2022 2:15:00 PM 11.08 51.944 0.062 7.38 3.57 10.74
10/27/2022 2:30:00 PM 11.16 52.088 0.062 7.38 3.37 10.72
10/27/2022 2:45:00 PM 11.2 52.16 0.062 7.39 3.34 10.69
10/27/2022 3:00:00 PM 11.25 52.25 0.062 7.39 3.36 10.68
10/27/2022 3:15:00 PM 11.29 52.322 0.062 7.39 3.39 10.67
10/27/2022 3:30:00 PM 11.32 52.376 0.062 7.4 3.38 10.65
10/27/2022 3:45:00 PM 11.31 52.358 0.062 7.41 3.39 10.64
10/27/2022 4:00:00 PM 11.33 52.394 0.062 7.41 3.39 10.63
10/27/2022 4:15:00 PM 11.31 52.358 0.062 7.41 3.4 10.62
10/27/2022 4:30:00 PM 11.28 52.304 0.062 7.43 3.36 10.61
10/27/2022 4:45:00 PM 11.26 52.268 0.062 7.42 3.37 10.6
10/27/2022 5:00:00 PM 11.21 52.178 0.062 7.41 3.43 10.56
10/27/2022 5:15:00 PM 11.15 52.07 0.062 7.41 3.43 10.53
10/27/2022 5:30:00 PM 11.1 51.98 0.062 7.4 3.76 10.47
10/27/2022 5:45:00 PM 11.07 51.926 0.062 7.39 3.55 10.44
10/27/2022 6:00:00 PM 11.03 51.854 0.062 7.37 3.65 10.38
10/27/2022 6:15:00 PM 10.96 51.728 0.062 7.36 3.64 10.34
10/27/2022 6:30:00 PM 10.9 51.62 0.062 7.34 3.67 10.31
10/27/2022 6:45:00 PM 10.82 51.476 0.063 7.34 3.73 10.29
10/27/2022 7:00:00 PM 10.74 51.332 0.063 7.33 3.82 10.27
10/27/2022 7:15:00 PM 10.67 51.206 0.063 7.32 3.8 10.28
10/27/2022 7:30:00 PM 10.57 51.026 0.063 7.32 3.83 10.28
10/27/2022 7:45:00 PM 10.48 50.864 0.063 7.31 3.84 10.3
10/27/2022 8:00:00 PM 10.38 50.684 0.063 7.31 3.88 10.31
10/27/2022 8:15:00 PM 10.28 50.504 0.063 7.3 3.84 10.32
10/27/2022 8:30:00 PM 10.17 50.306 0.063 7.29 3.89 10.34
10/27/2022 8:45:00 PM 10.05 50.09 0.063 7.28 3.89 10.37
10/27/2022 9:00:00 PM 9.92 49.856 0.063 7.28 3.92 10.4
10/27/2022 9:15:00 PM 9.8 49.64 0.064 7.27 3.92 10.41
10/27/2022 9:30:00 PM 9.67 49.406 0.064 7.26 4.11 10.46
10/27/2022 9:45:00 PM 9.55 49.19 0.064 7.26 4.09 10.5
10/27/2022 10:00:00 PM 9.42 48.956 0.064 7.25 4.02 10.53
10/27/2022 10:15:00 PM 9.29 48.722 0.064 7.24 4.07 10.56
10/27/2022 10:30:00 PM 9.16 48.488 0.064 7.24 4.06 10.6
10/27/2022 10:45:00 PM 9.03 48.254 0.064 7.25 4.14 10.64
10/27/2022 11:00:00 PM 8.91 48.038 0.064 7.23 4.15 10.66
10/27/2022 11:15:00 PM 8.78 47.804 0.064 7.22 4.03 10.72
10/27/2022 11:30:00 PM 8.66 47.588 0.064 7.21 4.09 10.72
10/27/2022 11:45:00 PM 8.55 47.39 0.064 7.21 4.09 10.77
10/28/2022 12:00:00 AM 8.44 47.192 0.064 7.23 4.07 10.81
10/28/2022 12:15:00 AM 8.33 46.994 0.064 7.2 4.04 10.84
10/28/2022 12:30:00 AM 8.23 46.814 0.064 7.2 4.04 10.87
10/28/2022 12:45:00 AM 8.12 46.616 0.064 7.2 3.98 10.92
10/28/2022 1:00:00 AM 8.01 46.418 0.064 7.2 4.07 10.94
10/28/2022 1:15:00 AM 7.91 46.238 0.064 7.2 4.1 10.98
10/28/2022 1:30:00 AM 7.81 46.058 0.064 7.2 4.1 11.02
10/28/2022 1:45:00 AM 7.71 45.878 0.064 7.19 4.11 11.06
10/28/2022 2:00:00 AM 7.61 45.698 0.064 7.2 4.12 11.09
10/28/2022 2:15:00 AM 7.52 45.536 0.064 7.19 4.11 11.11
10/28/2022 2:30:00 AM 7.43 45.374 0.064 7.19 4.08 11.15
10/28/2022 2:45:00 AM 7.34 45.212 0.064 7.19 4.57 11.15
10/28/2022 3:00:00 AM 7.24 45.032 0.064 7.18 3.6 11.21
10/28/2022 3:15:00 AM 7.16 44.888 0.064 7.19 3.59 11.25
10/28/2022 3:30:00 AM 7.07 44.726 0.064 7.19 3.56 11.28
10/28/2022 3:45:00 AM 6.99 44.582 0.064 7.19 3.55 11.31
10/28/2022 4:00:00 AM 6.9 44.42 0.064 7.19 3.51 11.34
10/28/2022 4:15:00 AM 6.82 44.276 0.064 7.19 3.51 11.37
10/28/2022 4:30:00 AM 6.75 44.15 0.064 7.19 3.53 11.39
10/28/2022 4:45:00 AM 6.65 43.97 0.064 7.19 3.63 11.4
10/28/2022 5:00:00 AM 6.59 43.862 0.064 7.19 3.51 11.43
10/28/2022 5:15:00 AM 6.51 43.718 0.064 7.19 3.48 11.48
10/28/2022 5:30:00 AM 6.43 43.574 0.064 7.19 3.52 11.52
10/28/2022 5:45:00 AM 6.35 43.43 0.064 7.19 3.46 11.51
10/28/2022 6:00:00 AM 6.28 43.304 0.064 7.18 3.5 11.55
10/28/2022 6:15:00 AM 6.22 43.196 0.064 7.19 3.52 11.56
10/28/2022 6:30:00 AM 6.13 43.034 0.064 7.19 3.49 11.6
10/28/2022 6:45:00 AM 6.06 42.908 0.064 7.19 3.53 11.64
10/28/2022 7:00:00 AM 5.99 42.782 0.064 7.19 3.5 11.64
10/28/2022 7:15:00 AM 5.92 42.656 0.064 7.19 3.49 11.69
10/28/2022 7:30:00 AM 5.84 42.512 0.064 7.19 3.52 11.71
10/28/2022 7:45:00 AM 5.78 42.404 0.064 7.19 3.49 11.75
10/28/2022 8:00:00 AM 5.71 42.278 0.064 7.19 3.52 11.78
10/28/2022 8:15:00 AM 5.66 42.188 0.064 7.2 3.51 11.86
10/28/2022 8:30:00 AM 5.62 42.116 0.063 7.22 3.5 11.93
10/28/2022 8:45:00 AM 5.6 42.08 0.063 7.22 3.53 11.99
10/28/2022 9:00:00 AM 5.6 42.08 0.063 7.24 3.5 12.05
10/28/2022 9:15:00 AM 5.6 42.08 0.063 7.24 3.5 12.09
10/28/2022 9:30:00 AM 5.63 42.134 0.063 7.25 3.48 12.13
10/28/2022 9:45:00 AM 5.67 42.206 0.063 7.26 3.41 12.17
10/28/2022 10:00:00 AM 5.73 42.314 0.063 7.28 3.43 12.21
10/28/2022 10:15:00 AM 5.77 42.386 0.063 7.28 3.41 12.23
10/28/2022 10:30:00 AM 5.84 42.512 0.063 7.28 3.41 12.24
10/28/2022 10:45:00 AM 5.95 42.71 0.063 7.29 3.4 12.26
10/28/2022 11:00:00 AM 6.06 42.908 0.063 7.3 3.33 12.27
10/28/2022 11:15:00 AM 6.23 43.214 0.062 7.31 3.29 12.26
10/28/2022 11:30:00 AM 6.37 43.466 0.062 7.31 3.37 12.23
10/28/2022 11:45:00 AM 6.55 43.79 0.062 7.33 3.36 12.21
10/28/2022 12:00:00 PM 6.7 44.06 0.062 7.35 3.32 12.2
10/28/2022 12:15:00 PM 6.88 44.384 0.062 7.37 3.25 12.15
10/28/2022 12:30:00 PM 7.06 44.708 0.062 7.36 3.34 12.09
10/28/2022 12:45:00 PM 7.25 45.05 0.062 7.36 3.38 12.04
10/28/2022 1:00:00 PM 7.42 45.356 0.062 7.37 3.36 12
10/28/2022 1:15:00 PM 7.6 45.68 0.062 7.38 3.34 11.94
10/28/2022 1:30:00 PM 7.74 45.932 0.062 7.38 3.3 11.88
10/28/2022 1:45:00 PM 7.86 46.148 0.062 7.38 3.34 11.83
10/28/2022 2:00:00 PM 7.97 46.346 0.062 7.37 3.29 11.77
10/28/2022 2:15:00 PM 8.08 46.544 0.062 7.37 3.33 11.73
10/28/2022 2:30:00 PM 8.2 46.76 0.062 7.36 3.27 11.67
10/28/2022 2:45:00 PM 8.34 47.012 0.062 7.35 3.26 11.61
10/28/2022 3:00:00 PM 8.39 47.102 0.062 7.38 3.3 11.65
10/28/2022 3:15:00 PM 8.46 47.228 0.062 7.38 3.42 11.6
10/28/2022 3:30:00 PM 8.52 47.336 0.062 7.41 3.34 11.59
10/28/2022 3:45:00 PM 8.63 47.534 0.061 7.38 3.36 11.51
10/28/2022 4:00:00 PM 8.71 47.678 0.061 7.38 3.35 11.47
10/28/2022 4:15:00 PM 8.76 47.768 0.061 7.4 3.35 11.47
10/28/2022 4:30:00 PM 8.83 47.894 0.061 7.4 3.39 11.4
10/28/2022 4:45:00 PM 8.9 48.02 0.061 7.39 3.38 11.36
10/28/2022 5:00:00 PM 8.96 48.128 0.061 7.38 3.39 11.31
10/28/2022 5:15:00 PM 9 48.2 0.062 7.38 3.39 11.26
10/28/2022 5:30:00 PM 9.03 48.254 0.062 7.37 3.38 11.2
10/28/2022 5:45:00 PM 9.04 48.272 0.062 7.36 3.4 11.16
10/28/2022 6:00:00 PM 9.03 48.254 0.062 7.35 3.37 11.11
10/28/2022 6:15:00 PM 8.99 48.182 0.062 7.35 3.38 11.07
10/28/2022 6:30:00 PM 8.93 48.074 0.062 7.34 3.45 11.01
10/28/2022 6:45:00 PM 8.85 47.93 0.062 7.33 3.45 10.97
10/28/2022 7:00:00 PM 8.77 47.786 0.062 7.33 3.55 10.95
10/28/2022 7:15:00 PM 8.69 47.642 0.062 7.32 3.62 10.93
10/28/2022 7:30:00 PM 8.62 47.516 0.063 7.32 3.71 10.96
10/28/2022 7:45:00 PM 8.55 47.39 0.063 7.32 3.56 10.95
10/28/2022 8:00:00 PM 8.47 47.246 0.063 7.32 3.56 10.96
10/28/2022 8:15:00 PM 8.4 47.12 0.063 7.32 3.56 10.99
10/28/2022 8:30:00 PM 8.32 46.976 0.063 7.32 3.63 11.01
10/28/2022 8:45:00 PM 8.24 46.832 0.063 7.32 3.66 11.03
10/28/2022 9:00:00 PM 8.17 46.706 0.063 7.31 3.71 11.04
10/28/2022 9:15:00 PM 8.08 46.544 0.063 7.31 3.76 11.06
10/28/2022 9:30:00 PM 7.99 46.382 0.063 7.3 3.78 11.08
10/28/2022 9:45:00 PM 7.9 46.22 0.064 7.29 3.83 11.1
10/28/2022 10:00:00 PM 7.81 46.058 0.064 7.29 3.78 11.11
10/28/2022 10:15:00 PM 7.71 45.878 0.064 7.28 3.81 11.14
10/28/2022 10:30:00 PM 7.61 45.698 0.064 7.28 3.81 11.17
10/28/2022 10:45:00 PM 7.5 45.5 0.064 7.28 3.86 11.19
10/28/2022 11:00:00 PM 7.39 45.302 0.064 7.27 3.83 11.23
10/28/2022 11:15:00 PM 7.29 45.122 0.064 7.27 3.84 11.25
10/28/2022 11:30:00 PM 7.18 44.924 0.064 7.26 3.87 11.27
10/28/2022 11:45:00 PM 7.08 44.744 0.064 7.27 3.93 11.32
10/29/2022 12:00:00 AM 6.98 44.564 0.064 7.26 3.93 11.36
10/29/2022 12:15:00 AM 6.89 44.402 0.064 7.26 3.94 11.38
10/29/2022 12:30:00 AM 6.79 44.222 0.064 7.25 3.94 11.4
10/29/2022 12:45:00 AM 6.69 44.042 0.064 7.25 3.98 11.44
10/29/2022 1:00:00 AM 6.6 43.88 0.064 7.25 3.95 11.47
10/29/2022 1:15:00 AM 6.51 43.718 0.064 7.23 3.96 11.5
10/29/2022 1:30:00 AM 6.41 43.538 0.064 7.23 3.98 11.52
10/29/2022 1:45:00 AM 6.32 43.376 0.064 7.23 4.02 11.55
10/29/2022 2:00:00 AM 6.23 43.214 0.064 7.22 4.05 11.58
10/29/2022 2:15:00 AM 6.14 43.052 0.064 7.22 4.03 11.62
10/29/2022 2:30:00 AM 6.04 42.872 0.064 7.22 4.07 11.67
10/29/2022 2:45:00 AM 5.95 42.71 0.064 7.21 4.03 11.69
10/29/2022 3:00:00 AM 5.86 42.548 0.064 7.21 3.95 11.73
10/29/2022 3:15:00 AM 5.77 42.386 0.064 7.21 3.97 11.76
10/29/2022 3:30:00 AM 5.69 42.242 0.064 7.21 4.09 11.78
10/29/2022 3:45:00 AM 5.6 42.08 0.064 7.2 4.07 11.8
10/29/2022 4:00:00 AM 5.51 41.918 0.064 7.2 4.13 11.83
10/29/2022 4:15:00 AM 5.43 41.774 0.064 7.2 4.09 11.87
10/29/2022 4:30:00 AM 5.34 41.612 0.064 7.2 4.03 11.9
10/29/2022 4:45:00 AM 5.26 41.468 0.064 7.2 4.08 11.92
10/29/2022 5:00:00 AM 5.18 41.324 0.064 7.19 4.14 11.96
10/29/2022 5:15:00 AM 5.1 41.18 0.064 7.19 4.01 11.97
10/29/2022 5:30:00 AM 5.02 41.036 0.064 7.19 4.08 12.01
10/29/2022 5:45:00 AM 4.94 40.892 0.064 7.19 4.09 12.04
10/29/2022 6:00:00 AM 4.87 40.766 0.064 7.19 4 12.07
10/29/2022 6:15:00 AM 4.79 40.622 0.064 7.19 4.05 12.1
10/29/2022 6:30:00 AM 4.71 40.478 0.064 7.19 4 12.14
10/29/2022 6:45:00 AM 4.64 40.352 0.064 7.19 4.13 12.16
10/29/2022 7:00:00 AM 4.58 40.244 0.063 7.19 4.09 12.17
10/29/2022 7:15:00 AM 4.5 40.1 0.063 7.19 4.11 12.2
10/29/2022 7:30:00 AM 4.43 39.974 0.063 7.19 4.05 12.25
10/29/2022 7:45:00 AM 4.37 39.866 0.063 7.19 4.05 12.27
10/29/2022 8:00:00 AM 4.3 39.74 0.063 7.2 4.07 12.32
10/29/2022 8:15:00 AM 4.25 39.65 0.063 7.21 4.02 12.38
10/29/2022 8:30:00 AM 4.2 39.56 0.063 7.21 4 12.42
10/29/2022 8:45:00 AM 4.16 39.488 0.063 7.21 4.04 12.47
10/29/2022 9:00:00 AM 4.12 39.416 0.063 7.22 4 12.52
10/29/2022 9:15:00 AM 4.13 39.434 0.063 7.24 3.96 12.59
10/29/2022 9:30:00 AM 4.14 39.452 0.063 7.24 3.96 12.64
10/29/2022 9:45:00 AM 4.16 39.488 0.063 7.25 3.96 12.66
10/29/2022 10:00:00 AM 4.22 39.596 0.063 7.26 3.99 12.67
10/29/2022 10:15:00 AM 4.29 39.722 0.063 7.27 3.87 12.69
10/29/2022 10:30:00 AM 4.39 39.902 0.063 7.27 3.8 12.69
10/29/2022 10:45:00 AM 4.5 40.1 0.063 7.28 3.69 12.71
10/29/2022 11:00:00 AM 4.63 40.334 0.063 7.29 3.64 12.7
10/29/2022 11:15:00 AM 4.79 40.622 0.062 7.28 3.58 12.65
10/29/2022 11:30:00 AM 4.94 40.892 0.062 7.29 3.59 12.64
10/29/2022 11:45:00 AM 5.12 41.216 0.062 7.29 3.6 12.59
10/29/2022 12:00:00 PM 5.29 41.522 0.062 7.3 3.55 12.58
10/29/2022 12:15:00 PM 5.47 41.846 0.062 7.32 3.53 12.56
10/29/2022 12:30:00 PM 5.66 42.188 0.062 7.33 3.62 12.51
10/29/2022 12:45:00 PM 5.87 42.566 0.062 7.32 3.63 12.44
10/29/2022 1:00:00 PM 6.09 42.962 0.062 7.32 3.52 12.37
10/29/2022 1:15:00 PM 6.32 43.376 0.062 7.31 3.5 12.27
10/29/2022 1:30:00 PM 6.56 43.808 0.062 7.3 3.47 12.19
10/29/2022 1:45:00 PM 6.77 44.186 0.062 7.3 3.49 12.1
10/29/2022 2:00:00 PM 6.93 44.474 0.062 7.32 3.48 12.07
10/29/2022 2:15:00 PM 7.1 44.78 0.062 7.31 3.41 11.99
10/29/2022 2:30:00 PM 7.28 45.104 0.062 7.31 3.43 11.93
10/29/2022 2:45:00 PM 7.4 45.32 0.062 7.33 3.34 11.89
10/29/2022 3:00:00 PM 7.5 45.5 0.062 7.34 3.42 11.87
10/29/2022 3:15:00 PM 7.61 45.698 0.062 7.35 3.43 11.84
10/29/2022 3:30:00 PM 7.67 45.806 0.062 7.38 3.41 11.83
10/29/2022 3:45:00 PM 7.7 45.86 0.062 7.39 3.4 11.81
10/29/2022 4:00:00 PM 7.76 45.968 0.062 7.39 3.45 11.77
10/29/2022 4:15:00 PM 7.81 46.058 0.062 7.38 3.41 11.72
10/29/2022 4:30:00 PM 7.87 46.166 0.062 7.37 3.42 11.65
10/29/2022 4:45:00 PM 7.92 46.256 0.062 7.36 3.45 11.58
10/29/2022 5:00:00 PM 7.94 46.292 0.062 7.35 3.42 11.55
10/29/2022 5:15:00 PM 7.93 46.274 0.062 7.35 3.4 11.48
10/29/2022 5:30:00 PM 7.93 46.274 0.062 7.34 3.49 11.43
10/29/2022 5:45:00 PM 7.94 46.292 0.062 7.33 3.52 11.37
10/29/2022 6:00:00 PM 7.93 46.274 0.062 7.32 3.6 11.32
10/29/2022 6:15:00 PM 7.91 46.238 0.062 7.32 3.71 11.28
10/29/2022 6:30:00 PM 7.89 46.202 0.062 7.32 3.75 11.25
10/29/2022 6:45:00 PM 7.86 46.148 0.062 7.32 3.78 11.22
10/29/2022 7:00:00 PM 7.84 46.112 0.062 7.32 3.84 11.2
10/29/2022 7:15:00 PM 7.81 46.058 0.062 7.32 3.81 11.19
10/29/2022 7:30:00 PM 7.76 45.968 0.062 7.32 3.79 11.2
10/29/2022 7:45:00 PM 7.71 45.878 0.063 7.31 3.87 11.2
10/29/2022 8:00:00 PM 7.64 45.752 0.063 7.31 3.82 11.21
10/29/2022 8:15:00 PM 7.56 45.608 0.063 7.31 3.84 11.22
10/29/2022 8:30:00 PM 7.46 45.428 0.063 7.31 3.91 11.25
10/29/2022 8:45:00 PM 7.36 45.248 0.063 7.3 3.84 11.27
10/29/2022 9:00:00 PM 7.26 45.068 0.063 7.3 3.94 11.3
10/29/2022 9:15:00 PM 7.15 44.87 0.063 7.3 3.9 11.33
10/29/2022 9:30:00 PM 7.04 44.672 0.063 7.29 3.96 11.36
10/29/2022 9:45:00 PM 6.93 44.474 0.063 7.3 3.76 11.39
10/29/2022 10:00:00 PM 6.83 44.294 0.063 7.29 3.77 11.41
10/29/2022 10:15:00 PM 6.72 44.096 0.063 7.29 3.8 11.45
10/29/2022 10:30:00 PM 6.62 43.916 0.064 7.28 3.86 11.48
10/29/2022 10:45:00 PM 6.53 43.754 0.064 7.28 3.85 11.49
10/29/2022 11:00:00 PM 6.44 43.592 0.064 7.27 3.84 11.52
10/29/2022 11:15:00 PM 6.33 43.394 0.064 7.27 3.88 11.54
10/29/2022 11:30:00 PM 6.24 43.232 0.064 7.27 3.86 11.59
10/29/2022 11:45:00 PM 6.15 43.07 0.064 7.26 3.87 11.62
10/30/2022 12:00:00 AM 6.05 42.89 0.064 7.26 3.89 11.64
10/30/2022 12:15:00 AM 5.96 42.728 0.064 7.26 3.93 11.67
10/30/2022 12:30:00 AM 5.86 42.548 0.064 7.25 3.91 11.7
10/30/2022 12:45:00 AM 5.77 42.386 0.064 7.25 3.89 11.73
10/30/2022 1:00:00 AM 5.68 42.224 0.064 7.25 3.91 11.76
10/30/2022 1:15:00 AM 5.59 42.062 0.064 7.24 3.93 11.79
10/30/2022 1:30:00 AM 5.49 41.882 0.064 7.24 3.92 11.82
10/30/2022 1:45:00 AM 5.4 41.72 0.064 7.24 4.02 11.85
10/30/2022 2:00:00 AM 5.31 41.558 0.064 7.23 3.95 11.89
10/30/2022 2:15:00 AM 5.23 41.414 0.064 7.23 3.97 11.91
10/30/2022 2:30:00 AM 5.13 41.234 0.064 7.22 3.92 11.95
10/30/2022 2:45:00 AM 5.05 41.09 0.064 7.22 3.95 11.96
10/30/2022 3:00:00 AM 4.95 40.91 0.064 7.22 3.98 12
10/30/2022 3:15:00 AM 4.87 40.766 0.064 7.21 3.98 12.02
10/30/2022 3:30:00 AM 4.78 40.604 0.064 7.21 3.96 12.06
10/30/2022 3:45:00 AM 4.68 40.424 0.064 7.2 4.03 12.1
10/30/2022 4:00:00 AM 4.61 40.298 0.064 7.19 3.94 12.11
10/30/2022 4:15:00 AM 4.53 40.154 0.064 7.22 3.98 12.15
10/30/2022 4:30:00 AM 4.45 40.01 0.064 7.21 4 12.19
10/30/2022 4:45:00 AM 4.37 39.866 0.064 7.2 4 12.22
10/30/2022 5:00:00 AM 4.29 39.722 0.064 7.19 3.97 12.24
10/30/2022 5:15:00 AM 4.22 39.596 0.064 7.19 4.04 12.27
10/30/2022 5:30:00 AM 4.13 39.434 0.064 7.19 3.98 12.31
10/30/2022 5:45:00 AM 4.07 39.326 0.064 7.19 3.99 12.34
10/30/2022 6:00:00 AM 4 39.2 0.064 7.19 3.98 12.35
10/30/2022 6:15:00 AM 3.93 39.074 0.064 7.19 3.98 12.38
10/30/2022 6:30:00 AM 3.86 38.948 0.063 7.19 3.99 12.39
10/30/2022 6:45:00 AM 3.79 38.822 0.063 7.19 3.98 12.42
10/30/2022 7:00:00 AM 3.73 38.714 0.063 7.18 3.98 12.44
10/30/2022 7:15:00 AM 3.65 38.57 0.064 7.19 3.98 12.5
10/30/2022 7:30:00 AM 3.59 38.462 0.063 7.19 3.99 12.51
10/30/2022 7:45:00 AM 3.54 38.372 0.063 7.19 3.94 12.55
10/30/2022 8:00:00 AM 3.49 38.282 0.063 7.19 3.94 12.57
10/30/2022 8:15:00 AM 3.46 38.228 0.063 7.2 3.96 12.63
10/30/2022 8:30:00 AM 3.43 38.174 0.063 7.21 3.91 12.7
10/30/2022 8:45:00 AM 3.41 38.138 0.063 7.22 3.93 12.76
10/30/2022 9:00:00 AM 3.4 38.12 0.063 7.23 3.89 12.81
10/30/2022 9:15:00 AM 3.4 38.12 0.063 7.24 3.93 12.87
10/30/2022 9:30:00 AM 3.43 38.174 0.063 7.24 3.9 12.87
10/30/2022 9:45:00 AM 3.46 38.228 0.063 7.25 3.9 12.89
10/30/2022 10:00:00 AM 3.49 38.282 0.063 7.26 3.89 12.91
10/30/2022 10:15:00 AM 3.57 38.426 0.063 7.26 3.9 12.92
10/30/2022 10:30:00 AM 3.68 38.624 0.063 7.27 3.85 12.91
10/30/2022 10:45:00 AM 3.81 38.858 0.063 7.28 3.72 12.89
10/30/2022 11:00:00 AM 3.93 39.074 0.063 7.28 3.73 12.87
10/30/2022 11:15:00 AM 4.07 39.326 0.062 7.29 3.68 12.88
10/30/2022 11:30:00 AM 4.23 39.614 0.062 7.3 3.68 12.85
10/30/2022 11:45:00 AM 4.43 39.974 0.062 7.3 3.63 12.78
10/30/2022 12:00:00 PM 4.64 40.352 0.062 7.29 3.59 12.71
10/30/2022 12:15:00 PM 4.85 40.73 0.062 7.31 3.51 12.68
10/30/2022 12:30:00 PM 5.1 41.18 0.062 7.3 3.47 12.61
10/30/2022 12:45:00 PM 5.32 41.576 0.062 7.3 3.45 12.54
10/30/2022 1:00:00 PM 5.55 41.99 0.062 7.3 3.44 12.46
10/30/2022 1:15:00 PM 5.74 42.332 0.062 7.29 3.45 12.38
10/30/2022 1:30:00 PM 5.97 42.746 0.062 7.3 3.37 12.33
10/30/2022 1:45:00 PM 6.12 43.016 0.062 7.31 3.53 12.29
10/30/2022 2:00:00 PM 6.32 43.376 0.062 7.31 3.51 12.22
10/30/2022 2:15:00 PM 6.51 43.718 0.061 7.31 3.5 12.14
10/30/2022 2:30:00 PM 6.69 44.042 0.061 7.32 3.6 12.08
10/30/2022 2:45:00 PM 6.82 44.276 0.061 7.32 3.52 12.03
10/30/2022 3:00:00 PM 6.94 44.492 0.061 7.33 3.58 11.99
10/30/2022 3:15:00 PM 7.11 44.798 0.061 7.35 3.74 11.97
10/30/2022 3:30:00 PM 7.2 44.96 0.061 7.35 3.8 11.92
10/30/2022 3:45:00 PM 7.26 45.068 0.061 7.35 3.73 11.84
10/30/2022 4:00:00 PM 7.28 45.104 0.061 7.34 3.66 11.79
10/30/2022 4:15:00 PM 7.32 45.176 0.061 7.35 3.58 11.79
10/30/2022 4:30:00 PM 7.39 45.302 0.061 7.36 3.57 11.78
10/30/2022 4:45:00 PM 7.4 45.32 0.061 7.36 3.6 11.74
10/30/2022 5:00:00 PM 7.4 45.32 0.061 7.36 3.59 11.65
10/30/2022 5:15:00 PM 7.4 45.32 0.061 7.35 3.58 11.6
10/30/2022 5:30:00 PM 7.4 45.32 0.061 7.35 3.59 11.53
10/30/2022 5:45:00 PM 7.42 45.356 0.062 7.34 3.61 11.47
10/30/2022 6:00:00 PM 7.42 45.356 0.062 7.33 3.58 11.43
10/30/2022 6:15:00 PM 7.42 45.356 0.062 7.32 3.58 11.37
10/30/2022 6:30:00 PM 7.41 45.338 0.062 7.32 3.63 11.33
10/30/2022 6:45:00 PM 7.41 45.338 0.062 7.32 3.63 11.31
10/30/2022 7:00:00 PM 7.42 45.356 0.062 7.31 3.7 11.27
10/30/2022 7:15:00 PM 7.43 45.374 0.062 7.31 3.66 11.27
10/30/2022 7:30:00 PM 7.43 45.374 0.062 7.31 3.68 11.24
10/30/2022 7:45:00 PM 7.42 45.356 0.062 7.3 3.66 11.24
10/30/2022 8:00:00 PM 7.4 45.32 0.062 7.3 3.65 11.22
10/30/2022 8:15:00 PM 7.37 45.266 0.063 7.29 3.7 11.24
10/30/2022 8:30:00 PM 7.33 45.194 0.063 7.29 3.88 11.23
10/30/2022 8:45:00 PM 7.28 45.104 0.063 7.29 3.77 11.24
10/30/2022 9:00:00 PM 7.22 44.996 0.063 7.29 3.81 11.25
10/30/2022 9:15:00 PM 7.14 44.852 0.063 7.28 3.75 11.26
10/30/2022 9:30:00 PM 7.06 44.708 0.063 7.28 3.76 11.29
10/30/2022 9:45:00 PM 7.01 44.618 0.063 7.28 3.67 11.3
10/30/2022 10:00:00 PM 6.96 44.528 0.063 7.28 3.67 11.32
10/30/2022 10:15:00 PM 6.91 44.438 0.063 7.27 3.66 11.33
10/30/2022 10:30:00 PM 6.87 44.366 0.063 7.27 3.74 11.33
10/30/2022 10:45:00 PM 6.81 44.258 0.063 7.27 3.74 11.35
10/30/2022 11:00:00 PM 6.74 44.132 0.063 7.27 3.73 11.38
10/30/2022 11:15:00 PM 6.66 43.988 0.064 7.27 3.68 11.4
10/30/2022 11:30:00 PM 6.58 43.844 0.064 7.27 3.74 11.43
10/30/2022 11:45:00 PM 6.5 43.7 0.064 7.26 3.72 11.44
10/31/2022 12:00:00 AM 6.42 43.556 0.064 7.26 3.76 11.44
10/31/2022 12:15:00 AM 6.34 43.412 0.064 7.26 3.8 11.48
10/31/2022 12:30:00 AM 6.27 43.286 0.064 7.25 3.79 11.5
10/31/2022 12:45:00 AM 6.2 43.16 0.064 7.25 3.78 11.51
10/31/2022 1:00:00 AM 6.12 43.016 0.064 7.25 3.75 11.54
10/31/2022 1:15:00 AM 6.05 42.89 0.064 7.25 3.78 11.57
10/31/2022 1:30:00 AM 5.97 42.746 0.064 7.24 3.83 11.59
10/31/2022 1:45:00 AM 5.9 42.62 0.064 7.24 3.83 11.62
10/31/2022 2:00:00 AM 5.82 42.476 0.064 7.23 3.78 11.64
10/31/2022 2:15:00 AM 5.75 42.35 0.064 7.24 3.79 11.67
10/31/2022 2:30:00 AM 5.68 42.224 0.064 7.23 3.81 11.68
10/31/2022 2:45:00 AM 5.61 42.098 0.064 7.23 3.81 11.71
10/31/2022 3:00:00 AM 5.54 41.972 0.064 7.23 3.82 11.74
10/31/2022 3:15:00 AM 5.48 41.864 0.064 7.23 3.84 11.76
10/31/2022 3:30:00 AM 5.42 41.756 0.064 7.22 3.78 11.78
10/31/2022 3:45:00 AM 5.36 41.648 0.064 7.22 3.81 11.8
10/31/2022 4:00:00 AM 5.32 41.576 0.064 7.22 3.86 11.81
10/31/2022 4:15:00 AM 5.29 41.522 0.064 7.22 3.83 11.83
10/31/2022 4:30:00 AM 5.27 41.486 0.064 7.21 3.8 11.84
10/31/2022 4:45:00 AM 5.24 41.432 0.063 7.21 3.8 11.86
10/31/2022 5:00:00 AM 5.2 41.36 0.063 7.22 3.81 11.88
10/31/2022 5:15:00 AM 5.16 41.288 0.063 7.22 3.79 11.9
10/31/2022 5:30:00 AM 5.11 41.198 0.063 7.21 3.8 11.9
10/31/2022 5:45:00 AM 5.05 41.09 0.063 7.21 3.82 11.92
10/31/2022 6:00:00 AM 5.02 41.036 0.063 7.2 3.82 11.93
10/31/2022 6:15:00 AM 4.97 40.946 0.063 7.2 3.83 11.93
10/31/2022 6:30:00 AM 4.92 40.856 0.063 7.21 3.82 11.96
10/31/2022 6:45:00 AM 4.89 40.802 0.063 7.2 3.83 11.97
10/31/2022 7:00:00 AM 4.87 40.766 0.063 7.2 3.82 11.98
10/31/2022 7:15:00 AM 4.85 40.73 0.063 7.2 3.87 11.98
10/31/2022 7:30:00 AM 4.86 40.748 0.063 7.2 3.81 11.99
10/31/2022 7:45:00 AM 4.85 40.73 0.063 7.2 3.84 12.01
10/31/2022 8:00:00 AM 4.88 40.784 0.063 7.21 3.82 12.05
10/31/2022 8:15:00 AM 4.93 40.874 0.063 7.21 3.82 12.07
10/31/2022 8:30:00 AM 4.94 40.892 0.063 7.21 3.78 12.1
10/31/2022 8:45:00 AM 4.97 40.946 0.063 7.22 3.82 12.12
10/31/2022 9:00:00 AM 5.02 41.036 0.063 7.23 3.79 12.15
10/31/2022 9:15:00 AM 5.08 41.144 0.063 7.23 3.74 12.17
10/31/2022 9:30:00 AM 5.15 41.27 0.063 7.24 3.73 12.21
10/31/2022 9:45:00 AM 5.21 41.378 0.063 7.25 3.74 12.23
10/31/2022 10:00:00 AM 5.32 41.576 0.062 7.26 3.71 12.23
10/31/2022 10:15:00 AM 5.45 41.81 0.062 7.26 3.66 12.24
10/31/2022 10:30:00 AM 5.58 42.044 0.062 7.27 3.65 12.24
10/31/2022 10:45:00 AM 5.69 42.242 0.062 7.28 3.64 12.22
10/31/2022 11:00:00 AM 5.82 42.476 0.062 7.28 3.62 12.21
10/31/2022 11:15:00 AM 5.96 42.728 0.062 7.3 3.57 12.21
10/31/2022 11:30:00 AM 6.1 42.98 0.062 7.31 3.56 12.19
10/31/2022 11:45:00 AM 6.27 43.286 0.062 7.32 3.56 12.18
10/31/2022 12:00:00 PM 6.49 43.682 0.062 7.34 3.51 12.17
10/31/2022 12:15:00 PM 6.68 44.024 0.062 7.35 3.53 12.11
10/31/2022 12:30:00 PM 6.87 44.366 0.061 7.36 3.45 12.07
10/31/2022 12:45:00 PM 7.02 44.636 0.061 7.36 3.33 11.99
10/31/2022 1:00:00 PM 7.16 44.888 0.061 7.34 3.25 11.93
10/31/2022 1:15:00 PM 7.29 45.122 0.061 7.35 3.24 11.88
10/31/2022 1:30:00 PM 7.42 45.356 0.061 7.34 3.35 11.8
10/31/2022 1:45:00 PM 7.55 45.59 0.061 7.34 3.3 11.76
10/31/2022 2:00:00 PM 7.68 45.824 0.061 7.37 3.27 11.77
10/31/2022 2:15:00 PM 7.84 46.112 0.061 7.35 3.31 11.68
10/31/2022 2:30:00 PM 7.96 46.328 0.061 7.35 3.25 11.61
10/31/2022 2:45:00 PM 8.06 46.508 0.061 7.34 3.24 11.54
10/31/2022 3:00:00 PM 8.16 46.688 0.061 7.35 3.25 11.52
10/31/2022 3:15:00 PM 8.25 46.85 0.061 7.36 3.28 11.49
10/31/2022 3:30:00 PM 8.27 46.886 0.061 7.4 3.29 11.51
10/31/2022 3:45:00 PM 8.31 46.958 0.061 7.42 3.29 11.48
10/31/2022 4:00:00 PM 8.35 47.03 0.061 7.41 3.29 11.45
10/31/2022 4:15:00 PM 8.4 47.12 0.061 7.41 3.28 11.38
10/31/2022 4:30:00 PM 8.46 47.228 0.061 7.37 3.32 11.3
10/31/2022 4:45:00 PM 8.5 47.3 0.061 7.35 3.3 11.23
10/31/2022 5:00:00 PM 8.53 47.354 0.061 7.34 3.32 11.16
10/31/2022 5:15:00 PM 8.57 47.426 0.061 7.34 3.34 11.12
10/31/2022 5:30:00 PM 8.61 47.498 0.061 7.33 3.33 11.09
10/31/2022 5:45:00 PM 8.62 47.516 0.061 7.33 3.32 11.02
10/31/2022 6:00:00 PM 8.62 47.516 0.062 7.33 3.33 11.02
10/31/2022 6:15:00 PM 8.63 47.534 0.062 7.32 3.32 10.97
10/31/2022 6:30:00 PM 8.63 47.534 0.062 7.32 3.31 10.93
10/31/2022 6:45:00 PM 8.65 47.57 0.062 7.32 3.38 10.91
10/31/2022 7:00:00 PM 8.66 47.588 0.062 7.31 3.38 10.88
10/31/2022 7:15:00 PM 8.67 47.606 0.062 7.31 3.38 10.85
10/31/2022 7:30:00 PM 8.68 47.624 0.062 7.31 3.35 10.86
10/31/2022 7:45:00 PM 8.69 47.642 0.062 7.3 3.42 10.82
10/31/2022 8:00:00 PM 8.69 47.642 0.062 7.29 3.46 10.81
10/31/2022 8:15:00 PM 8.68 47.624 0.062 7.29 3.71 10.79
10/31/2022 8:30:00 PM 8.66 47.588 0.063 7.29 3.36 10.81
10/31/2022 8:45:00 PM 8.65 47.57 0.063 7.28 3.26 10.79
10/31/2022 9:00:00 PM 8.64 47.552 0.063 7.27 3.3 10.77
10/31/2022 9:15:00 PM 8.63 47.534 0.063 7.27 3.23 10.78
10/31/2022 9:30:00 PM 8.62 47.516 0.063 7.27 3.31 10.77
10/31/2022 9:45:00 PM 8.61 47.498 0.063 7.26 3.33 10.77
10/31/2022 10:00:00 PM 8.6 47.48 0.063 7.25 3.33 10.76
10/31/2022 10:15:00 PM 8.59 47.462 0.063 7.25 3.32 10.76
10/31/2022 10:30:00 PM 8.59 47.462 0.063 7.24 3.32 10.77
10/31/2022 10:45:00 PM 8.58 47.444 0.063 7.23 3.36 10.77
10/31/2022 11:00:00 PM 8.57 47.426 0.063 7.24 3.31 10.76
10/31/2022 11:15:00 PM 8.57 47.426 0.063 7.24 3.33 10.78
10/31/2022 11:30:00 PM 8.57 47.426 0.063 7.23 3.28 10.77
10/31/2022 11:45:00 PM 8.56 47.408 0.063 7.23 3.35 10.77
11/1/2022 12:00:00 AM 8.56 47.408 0.063 7.23 3.25 10.77
11/1/2022 12:15:00 AM 8.56 47.408 0.063 7.23 3.31 10.77
11/1/2022 12:30:00 AM 8.55 47.39 0.063 7.23 3.33 10.79
11/1/2022 12:45:00 AM 8.55 47.39 0.063 7.22 3.31 10.76
11/1/2022 1:00:00 AM 8.54 47.372 0.063 7.23 3.31 10.78
11/1/2022 1:15:00 AM 8.54 47.372 0.063 7.23 3.31 10.79
11/1/2022 1:30:00 AM 8.53 47.354 0.063 7.22 3.31 10.8
11/1/2022 1:45:00 AM 8.53 47.354 0.063 7.22 3.31 10.78
11/1/2022 2:00:00 AM 8.53 47.354 0.063 7.22 3.34 10.78
11/1/2022 2:15:00 AM 8.52 47.336 0.063 7.22 3.28 10.78
11/1/2022 2:30:00 AM 8.52 47.336 0.063 7.22 3.32 10.8
11/1/2022 2:45:00 AM 8.52 47.336 0.063 7.21 3.28 10.79
11/1/2022 3:00:00 AM 8.52 47.336 0.063 7.21 3.33 10.77
11/1/2022 3:15:00 AM 8.52 47.336 0.063 7.21 3.33 10.8
11/1/2022 3:30:00 AM 8.53 47.354 0.063 7.22 3.3 10.8
11/1/2022 3:45:00 AM 8.53 47.354 0.063 7.21 3.36 10.8
11/1/2022 4:00:00 AM 8.53 47.354 0.063 7.21 9.47 10.77
11/1/2022 4:15:00 AM 8.54 47.372 0.063 7.2 2.96 10.78
11/1/2022 4:30:00 AM 8.54 47.372 0.063 7.21 2.93 10.77
11/1/2022 4:45:00 AM 8.54 47.372 0.063 7.2 2.95 10.79
11/1/2022 5:00:00 AM 8.55 47.39 0.063 7.21 2.94 10.79
11/1/2022 5:15:00 AM 8.55 47.39 0.063 7.21 2.95 10.78
11/1/2022 5:30:00 AM 8.56 47.408 0.063 7.2 2.97 10.77
11/1/2022 5:45:00 AM 8.57 47.426 0.063 7.2 2.98 10.78
11/1/2022 6:00:00 AM 8.57 47.426 0.063 7.2 3.01 10.76
11/1/2022 6:15:00 AM 8.58 47.444 0.063 7.2 3 10.79
11/1/2022 6:30:00 AM 8.59 47.462 0.063 7.2 3.05 10.76
11/1/2022 6:45:00 AM 8.59 47.462 0.063 7.2 3.01 10.78
11/1/2022 7:00:00 AM 8.6 47.48 0.063 7.2 3.01 10.78
11/1/2022 7:15:00 AM 8.59 47.462 0.063 7.2 3 10.76
11/1/2022 7:30:00 AM 8.59 47.462 0.063 7.2 2.99 10.79
11/1/2022 7:45:00 AM 8.6 47.48 0.063 7.19 2.94 10.75
11/1/2022 8:00:00 AM 8.62 47.516 0.063 7.2 2.97 10.78
11/1/2022 8:15:00 AM 8.64 47.552 0.063 7.2 2.96 10.79
11/1/2022 8:30:00 AM 8.66 47.588 0.063 7.2 2.94 10.81
11/1/2022 8:45:00 AM 8.67 47.606 0.063 7.21 2.99 10.85
11/1/2022 9:00:00 AM 8.7 47.66 0.063 7.22 2.97 10.86
11/1/2022 9:15:00 AM 8.73 47.714 0.063 7.22 2.97 10.93
11/1/2022 9:30:00 AM 8.77 47.786 0.063 7.23 2.94 10.97
11/1/2022 9:45:00 AM 8.82 47.876 0.062 7.25 2.92 11.03
11/1/2022 10:00:00 AM 8.95 48.11 0.062 7.26 2.93 11.07
11/1/2022 10:15:00 AM 9.09 48.362 0.062 7.28 2.92 11.12
11/1/2022 10:30:00 AM 9.24 48.632 0.062 7.28 2.91 11.11
11/1/2022 10:45:00 AM 9.36 48.848 0.062 7.3 2.94 11.13
11/1/2022 11:00:00 AM 9.47 49.046 0.062 7.32 2.9 11.17
11/1/2022 11:15:00 AM 9.52 49.136 0.062 7.33 2.91 11.16
11/1/2022 11:30:00 AM 9.65 49.37 0.062 7.34 2.9 11.15
11/1/2022 11:45:00 AM 9.8 49.64 0.062 7.35 2.89 11.14
11/1/2022 12:00:00 PM 9.95 49.91 0.061 7.36 2.94 11.12
11/1/2022 12:15:00 PM 10.13 50.234 0.061 7.37 2.89 11.11
11/1/2022 12:30:00 PM 10.32 50.576 0.061 7.38 2.92 11.08
11/1/2022 12:45:00 PM 10.49 50.882 0.061 7.38 2.93 11.03
11/1/2022 1:00:00 PM 10.57 51.026 0.061 7.39 2.9 10.98
11/1/2022 1:15:00 PM 10.71 51.278 0.061 7.4 2.92 10.98
11/1/2022 1:30:00 PM 10.88 51.584 0.061 7.41 2.94 10.95
11/1/2022 1:45:00 PM 11.06 51.908 0.061 7.42 2.93 10.89
11/1/2022 2:00:00 PM 11.21 52.178 0.061 7.42 2.92 10.86
11/1/2022 2:15:00 PM 11.3 52.34 0.061 7.43 2.94 10.81
11/1/2022 2:30:00 PM 11.3 52.34 0.061 7.44 2.95 10.81
11/1/2022 2:45:00 PM 11.33 52.394 0.061 7.45 2.96 10.8
11/1/2022 3:00:00 PM 11.29 52.322 0.061 7.44 3.02 10.72
11/1/2022 3:15:00 PM 11.47 52.646 0.061 7.45 2.93 10.72
11/1/2022 3:30:00 PM 11.75 53.15 0.061 7.45 2.94 10.71
11/1/2022 3:45:00 PM 11.93 53.474 0.061 7.47 2.98 10.68
11/1/2022 4:00:00 PM 11.97 53.546 0.061 7.48 2.99 10.58
11/1/2022 4:15:00 PM 11.94 53.492 0.061 7.46 3.01 10.5
11/1/2022 4:30:00 PM 11.92 53.456 0.061 7.45 3.03 10.48
11/1/2022 4:45:00 PM 11.88 53.384 0.061 7.45 2.97 10.47
11/1/2022 5:00:00 PM 11.81 53.258 0.061 7.45 3 10.44
11/1/2022 5:15:00 PM 11.78 53.204 0.061 7.43 3.06 10.39
11/1/2022 5:30:00 PM 11.75 53.15 0.061 7.41 3.04 10.33
11/1/2022 5:45:00 PM 11.73 53.114 0.061 7.39 3.09 10.26
11/1/2022 6:00:00 PM 11.7 53.06 0.061 7.38 3.15 10.21
11/1/2022 6:15:00 PM 11.66 52.988 0.062 7.36 3.06 10.15
11/1/2022 6:30:00 PM 11.62 52.916 0.062 7.36 3.03 10.12
11/1/2022 6:45:00 PM 11.61 52.898 0.062 7.35 3.04 10.1
11/1/2022 7:00:00 PM 11.58 52.844 0.062 7.34 3.07 10.09
11/1/2022 7:15:00 PM 11.56 52.808 0.062 7.33 3.12 10.07
11/1/2022 7:30:00 PM 11.52 52.736 0.062 7.33 3.02 10.09
11/1/2022 7:45:00 PM 11.47 52.646 0.062 7.32 3.06 10.08
11/1/2022 8:00:00 PM 11.42 52.556 0.062 7.31 3.09 10.09
11/1/2022 8:15:00 PM 11.37 52.466 0.063 7.31 3.06 10.09
11/1/2022 8:30:00 PM 11.32 52.376 0.063 7.3 3.14 10.09
11/1/2022 8:45:00 PM 11.27 52.286 0.063 7.3 3.11 10.11
11/1/2022 9:00:00 PM 11.22 52.196 0.063 7.29 3.02 10.13
11/1/2022 9:15:00 PM 11.14 52.052 0.063 7.29 3.09 10.13
11/1/2022 9:30:00 PM 11.05 51.89 0.063 7.29 3.11 10.15
11/1/2022 9:45:00 PM 10.97 51.746 0.063 7.28 3.08 10.18
11/1/2022 10:00:00 PM 10.87 51.566 0.063 7.28 3.13 10.2
11/1/2022 10:15:00 PM 10.8 51.44 0.063 7.28 3.14 10.22
11/1/2022 10:30:00 PM 10.73 51.314 0.063 7.28 3.12 10.23
11/1/2022 10:45:00 PM 10.65 51.17 0.063 7.28 3.07 10.26
11/1/2022 11:00:00 PM 10.56 51.008 0.063 7.29 3.07 10.29
11/1/2022 11:15:00 PM 10.47 50.846 0.063 7.28 3.04 10.32
11/1/2022 11:30:00 PM 10.38 50.684 0.063 7.29 3.12 10.34
11/1/2022 11:45:00 PM 10.29 50.522 0.063 7.27 3.7 10.35
11/2/2022 12:00:00 AM 10.2 50.36 0.063 7.29 3.18 10.4
11/2/2022 12:15:00 AM 10.1 50.18 0.063 7.28 3.14 10.42
11/2/2022 12:30:00 AM 10.02 50.036 0.063 7.28 3.17 10.45
11/2/2022 12:45:00 AM 9.92 49.856 0.063 7.27 3.2 10.45
11/2/2022 1:00:00 AM 9.83 49.694 0.063 7.27 3.24 10.47
11/2/2022 1:15:00 AM 9.74 49.532 0.063 7.26 3.19 10.49
11/2/2022 1:30:00 AM 9.65 49.37 0.063 7.25 3.14 10.5
11/2/2022 1:45:00 AM 9.55 49.19 0.063 7.25 3.15 10.53
11/2/2022 2:00:00 AM 9.47 49.046 0.063 7.24 3.23 10.55
11/2/2022 2:15:00 AM 9.37 48.866 0.063 7.24 3.22 10.58
11/2/2022 2:30:00 AM 9.29 48.722 0.063 7.24 3.17 10.6
11/2/2022 2:45:00 AM 9.2 48.56 0.063 7.24 3.21 10.62
11/2/2022 3:00:00 AM 9.12 48.416 0.063 7.23 3.19 10.64
11/2/2022 3:15:00 AM 9.04 48.272 0.063 7.23 3.22 10.68
11/2/2022 3:30:00 AM 8.97 48.146 0.063 7.23 3.22 10.71
11/2/2022 3:45:00 AM 8.9 48.02 0.063 7.23 3.19 10.73
11/2/2022 4:00:00 AM 8.85 47.93 0.063 7.24 3.25 10.75
11/2/2022 4:15:00 AM 8.78 47.804 0.063 7.22 3.24 10.76
11/2/2022 4:30:00 AM 8.71 47.678 0.063 7.22 3.24 10.79
11/2/2022 4:45:00 AM 8.66 47.588 0.063 7.22 3.23 10.81
11/2/2022 5:00:00 AM 8.62 47.516 0.063 7.21 3.17 10.81
11/2/2022 5:15:00 AM 8.58 47.444 0.063 7.21 3.24 10.84
11/2/2022 5:30:00 AM 8.55 47.39 0.063 7.21 3.2 10.85
11/2/2022 5:45:00 AM 8.52 47.336 0.063 7.2 3.23 10.86
11/2/2022 6:00:00 AM 8.49 47.282 0.063 7.2 3.19 10.88
11/2/2022 6:15:00 AM 8.46 47.228 0.063 7.2 3.23 10.87
11/2/2022 6:30:00 AM 8.44 47.192 0.063 7.2 3.26 10.9
11/2/2022 6:45:00 AM 8.41 47.138 0.063 7.2 3.22 10.9
11/2/2022 7:00:00 AM 8.39 47.102 0.063 7.2 3.26 10.91
11/2/2022 7:15:00 AM 8.37 47.066 0.063 7.2 3.26 10.91
11/2/2022 7:30:00 AM 8.35 47.03 0.063 7.21 3.26 10.94
11/2/2022 7:45:00 AM 8.33 46.994 0.063 7.2 3.21 10.94
11/2/2022 8:00:00 AM 8.32 46.976 0.063 7.21 3.2 10.95
11/2/2022 8:15:00 AM 8.31 46.958 0.063 7.22 3.16 10.99
11/2/2022 8:30:00 AM 8.31 46.958 0.062 7.22 3.19 11.02
11/2/2022 8:45:00 AM 8.3 46.94 0.062 7.23 3.21 11.09
11/2/2022 9:00:00 AM 8.3 46.94 0.062 7.24 3.15 11.15
11/2/2022 9:15:00 AM 8.33 46.994 0.062 7.25 3.15 11.21
11/2/2022 9:30:00 AM 8.37 47.066 0.062 7.26 3.22 11.28
11/2/2022 9:45:00 AM 8.42 47.156 0.062 7.27 3.18 11.33
11/2/2022 10:00:00 AM 8.49 47.282 0.062 7.29 3.17 11.34
11/2/2022 10:15:00 AM 8.57 47.426 0.062 7.29 3.34 11.36
11/2/2022 10:30:00 AM 8.66 47.588 0.062 7.3 3.18 11.38
11/2/2022 10:45:00 AM 8.83 47.894 0.062 7.32 3.19 11.41
11/2/2022 11:00:00 AM 9.01 48.218 0.061 7.33 3.13 11.42
11/2/2022 11:15:00 AM 9.15 48.47 0.061 7.34 3.01 11.39
11/2/2022 11:30:00 AM 9.28 48.704 0.061 7.35 3.02 11.38
11/2/2022 11:45:00 AM 9.39 48.902 0.061 7.36 3.01 11.38
11/2/2022 12:00:00 PM 9.51 49.118 0.061 7.36 3.04 11.33
11/2/2022 12:15:00 PM 9.63 49.334 0.061 7.37 2.98 11.32
11/2/2022 12:30:00 PM 9.73 49.514 0.061 7.39 2.98 11.31
11/2/2022 12:45:00 PM 9.87 49.766 0.061 7.39 2.95 11.28
11/2/2022 1:00:00 PM 10 50 0.061 7.39 2.98 11.23
11/2/2022 1:15:00 PM 10.11 50.198 0.061 7.41 3 11.22
11/2/2022 1:30:00 PM 10.24 50.432 0.061 7.42 2.97 11.2
11/2/2022 1:45:00 PM 10.37 50.666 0.061 7.42 2.99 11.14
11/2/2022 2:00:00 PM 10.5 50.9 0.061 7.42 2.95 11.11
11/2/2022 2:15:00 PM 10.63 51.134 0.061 7.43 2.93 11.05
11/2/2022 2:30:00 PM 10.77 51.386 0.061 7.42 3.15 10.99
11/2/2022 2:45:00 PM 10.88 51.584 0.061 7.42 3 10.94
11/2/2022 3:00:00 PM 10.97 51.746 0.061 7.42 2.88 10.91
11/2/2022 3:15:00 PM 11.04 51.872 0.061 7.42 2.91 10.86
11/2/2022 3:30:00 PM 11.08 51.944 0.061 7.42 2.88 10.84
11/2/2022 3:45:00 PM 11.12 52.016 0.061 7.42 2.88 10.82
11/2/2022 4:00:00 PM 11.12 52.016 0.061 7.42 2.89 10.77
11/2/2022 4:15:00 PM 11.13 52.034 0.061 7.41 2.9 10.73
11/2/2022 4:30:00 PM 11.12 52.016 0.061 7.41 2.88 10.72
11/2/2022 4:45:00 PM 11.09 51.962 0.061 7.41 2.95 10.68
11/2/2022 5:00:00 PM 11.06 51.908 0.061 7.39 2.94 10.64
11/2/2022 5:15:00 PM 11.02 51.836 0.061 7.39 2.9 10.62
11/2/2022 5:30:00 PM 10.98 51.764 0.061 7.37 3 10.55
11/2/2022 5:45:00 PM 10.94 51.692 0.061 7.36 2.94 10.49
11/2/2022 6:00:00 PM 10.89 51.602 0.062 7.35 2.94 10.46
11/2/2022 6:15:00 PM 10.85 51.53 0.062 7.35 2.93 10.43
11/2/2022 6:30:00 PM 10.8 51.44 0.062 7.35 2.93 10.41
11/2/2022 6:45:00 PM 10.75 51.35 0.062 7.34 2.97 10.38
11/2/2022 7:00:00 PM 10.71 51.278 0.062 7.34 2.95 10.38
11/2/2022 7:15:00 PM 10.67 51.206 0.062 7.33 2.96 10.38
11/2/2022 7:30:00 PM 10.61 51.098 0.062 7.34 2.96 10.38
11/2/2022 7:45:00 PM 10.54 50.972 0.062 7.33 2.97 10.39
11/2/2022 8:00:00 PM 10.45 50.81 0.063 7.32 3 10.4
11/2/2022 8:15:00 PM 10.36 50.648 0.063 7.32 2.96 10.42
11/2/2022 8:30:00 PM 10.26 50.468 0.063 7.31 3.07 10.43
11/2/2022 8:45:00 PM 10.15 50.27 0.063 7.3 3.16 10.45
11/2/2022 9:00:00 PM 10.04 50.072 0.063 7.3 3 10.46
11/2/2022 9:15:00 PM 9.92 49.856 0.063 7.29 3.02 10.48
11/2/2022 9:30:00 PM 9.8 49.64 0.063 7.28 3.02 10.5
11/2/2022 9:45:00 PM 9.69 49.442 0.063 7.28 3.05 10.52
11/2/2022 10:00:00 PM 9.58 49.244 0.063 7.27 3.05 10.54
11/2/2022 10:15:00 PM 9.48 49.064 0.063 7.26 2.96 10.56
11/2/2022 10:30:00 PM 9.36 48.848 0.064 7.28 3.05 10.6
11/2/2022 10:45:00 PM 9.26 48.668 0.064 7.28 3.05 10.61
11/2/2022 11:00:00 PM 9.16 48.488 0.064 7.27 3.05 10.65
11/2/2022 11:15:00 PM 9.07 48.326 0.064 7.26 3.4 10.67
11/2/2022 11:30:00 PM 8.96 48.128 0.064 7.25 3.42 10.71
11/2/2022 11:45:00 PM 8.87 47.966 0.064 7.25 3.44 10.73
11/3/2022 12:00:00 AM 8.76 47.768 0.064 7.24 3.48 10.78
11/3/2022 12:15:00 AM 8.67 47.606 0.064 7.24 3.53 10.8
11/3/2022 12:30:00 AM 8.57 47.426 0.064 7.23 3.52 10.83
11/3/2022 12:45:00 AM 8.47 47.246 0.064 7.22 3.49 10.86
11/3/2022 1:00:00 AM 8.37 47.066 0.064 7.22 3.47 10.88
11/3/2022 1:15:00 AM 8.27 46.886 0.064 7.21 3.47 10.92
11/3/2022 1:30:00 AM 8.17 46.706 0.064 7.21 3.55 10.96
11/3/2022 1:45:00 AM 8.08 46.544 0.064 7.2 3.52 10.98
11/3/2022 2:00:00 AM 7.99 46.382 0.064 7.2 3.64 11.01
11/3/2022 2:15:00 AM 7.9 46.22 0.064 7.2 3.49 11.04
11/3/2022 2:30:00 AM 7.8 46.04 0.064 7.19 3.5 11.07
11/3/2022 2:45:00 AM 7.7 45.86 0.064 7.2 3.57 11.11
11/3/2022 3:00:00 AM 7.62 45.716 0.064 7.21 3.58 11.13
11/3/2022 3:15:00 AM 7.53 45.554 0.064 7.21 3.61 11.15
11/3/2022 3:30:00 AM 7.44 45.392 0.064 7.2 3.54 11.2
11/3/2022 3:45:00 AM 7.35 45.23 0.064 7.19 3.46 11.21
11/3/2022 4:00:00 AM 7.26 45.068 0.064 7.19 3.51 11.24
11/3/2022 4:15:00 AM 7.18 44.924 0.064 7.19 3.57 11.27
11/3/2022 4:30:00 AM 7.1 44.78 0.064 7.19 3.5 11.3
11/3/2022 4:45:00 AM 7.02 44.636 0.064 7.19 3.61 11.33
11/3/2022 5:00:00 AM 6.95 44.51 0.063 7.18 3.55 11.35
11/3/2022 5:15:00 AM 6.88 44.384 0.063 7.19 3.64 11.38
11/3/2022 5:30:00 AM 6.81 44.258 0.063 7.19 3.57 11.41
11/3/2022 5:45:00 AM 6.74 44.132 0.063 7.18 3.57 11.41
11/3/2022 6:00:00 AM 6.67 44.006 0.063 7.18 3.58 11.45
11/3/2022 6:15:00 AM 6.6 43.88 0.063 7.19 3.5 11.48
11/3/2022 6:30:00 AM 6.54 43.772 0.063 7.19 3.53 11.5
11/3/2022 6:45:00 AM 6.48 43.664 0.063 7.19 3.5 11.51
11/3/2022 7:00:00 AM 6.42 43.556 0.063 7.19 3.57 11.54
11/3/2022 7:15:00 AM 6.36 43.448 0.063 7.19 3.55 11.56
11/3/2022 7:30:00 AM 6.3 43.34 0.063 7.18 3.57 11.57
11/3/2022 7:45:00 AM 6.24 43.232 0.063 7.19 3.52 11.61
11/3/2022 8:00:00 AM 6.18 43.124 0.063 7.19 3.54 11.66
11/3/2022 8:15:00 AM 6.14 43.052 0.063 7.19 3.49 11.69
11/3/2022 8:30:00 AM 6.09 42.962 0.063 7.2 3.49 11.76
11/3/2022 8:45:00 AM 6.06 42.908 0.063 7.21 3.46 11.81
11/3/2022 9:00:00 AM 6.03 42.854 0.063 7.21 3.48 11.86
11/3/2022 9:15:00 AM 6.02 42.836 0.063 7.22 3.41 11.92
11/3/2022 9:30:00 AM 6.03 42.854 0.063 7.24 3.58 11.97
11/3/2022 9:45:00 AM 6.04 42.872 0.063 7.24 3.42 12.01
11/3/2022 10:00:00 AM 6.08 42.944 0.063 7.25 3.44 12.03
11/3/2022 10:15:00 AM 6.14 43.052 0.063 7.26 3.38 12.04
11/3/2022 10:30:00 AM 6.21 43.178 0.063 7.27 3.35 12.06
11/3/2022 10:45:00 AM 6.33 43.394 0.062 7.29 3.31 12.07
11/3/2022 11:00:00 AM 6.45 43.61 0.062 7.28 3.29 12.07
11/3/2022 11:15:00 AM 6.6 43.88 0.062 7.28 3.26 12.06
11/3/2022 11:30:00 AM 6.75 44.15 0.062 7.29 3.22 12.06
11/3/2022 11:45:00 AM 6.89 44.402 0.062 7.32 3.25 12.07
11/3/2022 12:00:00 PM 7.08 44.744 0.062 7.32 3.27 12.02
11/3/2022 12:15:00 PM 7.28 45.104 0.062 7.33 3.22 11.98
11/3/2022 12:30:00 PM 7.5 45.5 0.062 7.33 3.24 11.91
11/3/2022 12:45:00 PM 7.74 45.932 0.062 7.32 3.3 11.82
11/3/2022 1:00:00 PM 7.96 46.328 0.062 7.32 3.23 11.77
11/3/2022 1:15:00 PM 8.15 46.67 0.062 7.33 3.29 11.72
11/3/2022 1:30:00 PM 8.31 46.958 0.062 7.35 3.25 11.7
11/3/2022 1:45:00 PM 8.45 47.21 0.062 7.38 3.27 11.7
11/3/2022 2:00:00 PM 8.6 47.48 0.062 7.38 3.21 11.63
11/3/2022 2:15:00 PM 8.79 47.822 0.062 7.36 3.27 11.54
11/3/2022 2:30:00 PM 8.99 48.182 0.061 7.34 3.25 11.45
11/3/2022 2:45:00 PM 9.08 48.344 0.062 7.37 3.23 11.45
11/3/2022 3:00:00 PM 9.18 48.524 0.062 7.38 3.25 11.43
11/3/2022 3:15:00 PM 9.3 48.74 0.061 7.38 3.25 11.37
11/3/2022 3:30:00 PM 9.39 48.902 0.061 7.37 3.26 11.31
11/3/2022 3:45:00 PM 9.44 48.992 0.062 7.39 3.26 11.31
11/3/2022 4:00:00 PM 9.47 49.046 0.061 7.39 3.25 11.26
11/3/2022 4:15:00 PM 9.51 49.118 0.061 7.4 3.29 11.22
11/3/2022 4:30:00 PM 9.53 49.154 0.062 7.4 3.39 11.19
11/3/2022 4:45:00 PM 9.54 49.172 0.062 7.4 3.27 11.13
11/3/2022 5:00:00 PM 9.55 49.19 0.062 7.39 3.26 11.08
11/3/2022 5:15:00 PM 9.55 49.19 0.062 7.39 3.32 11.03
11/3/2022 5:30:00 PM 9.56 49.208 0.062 7.38 3.33 10.98
11/3/2022 5:45:00 PM 9.56 49.208 0.062 7.37 3.26 10.93
11/3/2022 6:00:00 PM 9.57 49.226 0.062 7.36 3.26 10.87
11/3/2022 6:15:00 PM 9.56 49.208 0.062 7.35 3.29 10.81
11/3/2022 6:30:00 PM 9.56 49.208 0.062 7.34 3.29 10.75
11/3/2022 6:45:00 PM 9.55 49.19 0.062 7.34 3.37 10.73
11/3/2022 7:00:00 PM 9.53 49.154 0.062 7.33 3.28 10.7
11/3/2022 7:15:00 PM 9.52 49.136 0.062 7.33 3.47 10.67
11/3/2022 7:30:00 PM 9.5 49.1 0.062 7.32 3.38 10.67
11/3/2022 7:45:00 PM 9.46 49.028 0.063 7.32 3.38 10.66
11/3/2022 8:00:00 PM 9.42 48.956 0.063 7.32 3.37 10.67
11/3/2022 8:15:00 PM 9.35 48.83 0.063 7.32 3.36 10.69
11/3/2022 8:30:00 PM 9.29 48.722 0.063 7.32 3.36 10.7
11/3/2022 8:45:00 PM 9.2 48.56 0.063 7.31 3.39 10.71
11/3/2022 9:00:00 PM 9.12 48.416 0.063 7.31 3.35 10.73
11/3/2022 9:15:00 PM 9.04 48.272 0.063 7.3 3.31 10.74
11/3/2022 9:30:00 PM 8.95 48.11 0.063 7.3 3.32 10.77
11/3/2022 9:45:00 PM 8.86 47.948 0.063 7.3 3.35 10.78
11/3/2022 10:00:00 PM 8.78 47.804 0.064 7.3 3.36 10.8
11/3/2022 10:15:00 PM 8.69 47.642 0.064 7.29 3.35 10.84
11/3/2022 10:30:00 PM 8.61 47.498 0.064 7.3 3.35 10.84
11/3/2022 10:45:00 PM 8.53 47.354 0.064 7.29 3.38 10.87
11/3/2022 11:00:00 PM 8.44 47.192 0.064 7.28 3.35 10.91
11/3/2022 11:15:00 PM 8.36 47.048 0.064 7.28 3.34 10.93
11/3/2022 11:30:00 PM 8.27 46.886 0.064 7.28 3.37 10.95
11/3/2022 11:45:00 PM 8.19 46.742 0.064 7.27 3.33 10.96
11/4/2022 12:00:00 AM 8.11 46.598 0.064 7.26 3.32 10.99
11/4/2022 12:15:00 AM 8.02 46.436 0.064 7.26 3.37 11.01
11/4/2022 12:30:00 AM 7.93 46.274 0.064 7.26 3.38 11.04
11/4/2022 12:45:00 AM 7.85 46.13 0.064 7.26 3.77 11.07
11/4/2022 1:00:00 AM 7.76 45.968 0.064 7.26 3.35 11.1
11/4/2022 1:15:00 AM 7.68 45.824 0.064 7.25 3.36 11.12
11/4/2022 1:30:00 AM 7.6 45.68 0.064 7.25 3.45 11.16
11/4/2022 1:45:00 AM 7.52 45.536 0.064 7.24 3.38 11.17
11/4/2022 2:00:00 AM 7.44 45.392 0.064 7.24 3.29 11.2
11/4/2022 2:15:00 AM 7.36 45.248 0.064 7.24 3.3 11.23
11/4/2022 2:30:00 AM 7.28 45.104 0.064 7.24 3.33 11.25
11/4/2022 2:45:00 AM 7.2 44.96 0.064 7.23 3.43 11.28
11/4/2022 3:00:00 AM 7.12 44.816 0.064 7.23 3.37 11.31
11/4/2022 3:15:00 AM 7.06 44.708 0.064 7.22 3.35 11.32
11/4/2022 3:30:00 AM 6.98 44.564 0.064 7.22 3.56 11.36
11/4/2022 3:45:00 AM 6.92 44.456 0.064 7.24 3.36 11.38
11/4/2022 4:00:00 AM 6.85 44.33 0.064 7.22 3.39 11.4
11/4/2022 4:15:00 AM 6.78 44.204 0.064 7.21 3.41 11.42
11/4/2022 4:30:00 AM 6.72 44.096 0.064 7.21 3.35 11.44
11/4/2022 4:45:00 AM 6.66 43.988 0.064 7.2 3.66 11.46
11/4/2022 5:00:00 AM 6.61 43.898 0.064 7.2 3.3 11.47
11/4/2022 5:15:00 AM 6.55 43.79 0.064 7.2 3.4 11.5
11/4/2022 5:30:00 AM 6.49 43.682 0.064 7.2 3.44 11.52
11/4/2022 5:45:00 AM 6.43 43.574 0.064 7.2 3.47 11.53
11/4/2022 6:00:00 AM 6.38 43.484 0.064 7.19 3.38 11.55
11/4/2022 6:15:00 AM 6.33 43.394 0.064 7.19 3.38 11.58
11/4/2022 6:30:00 AM 6.28 43.304 0.064 7.21 3.39 11.57
11/4/2022 6:45:00 AM 6.24 43.232 0.064 7.19 3.37 11.6
11/4/2022 7:00:00 AM 6.2 43.16 0.064 7.19 3.36 11.61
11/4/2022 7:15:00 AM 6.15 43.07 0.064 7.19 3.42 11.65
11/4/2022 7:30:00 AM 6.11 42.998 0.064 7.19 3.4 11.64
11/4/2022 7:45:00 AM 6.08 42.944 0.064 7.19 3.42 11.66
11/4/2022 8:00:00 AM 6.04 42.872 0.064 7.19 3.46 11.69
11/4/2022 8:15:00 AM 6.01 42.818 0.063 7.2 3.38 11.73
11/4/2022 8:30:00 AM 5.98 42.764 0.063 7.21 3.36 11.8
11/4/2022 8:45:00 AM 5.97 42.746 0.063 7.22 4.87 11.85
11/4/2022 9:00:00 AM 5.98 42.764 0.063 7.22 3.27 11.88
11/4/2022 9:15:00 AM 5.97 42.746 0.063 7.24 3.24 11.94
11/4/2022 9:30:00 AM 5.99 42.782 0.063 7.25 3.29 11.97
11/4/2022 9:45:00 AM 6.03 42.854 0.063 7.25 3.33 12
11/4/2022 10:00:00 AM 6.08 42.944 0.063 7.26 3.34 12.03
11/4/2022 10:15:00 AM 6.16 43.088 0.063 7.27 3.36 12.04
11/4/2022 10:30:00 AM 6.26 43.268 0.063 7.27 3.34 12.04
11/4/2022 10:45:00 AM 6.38 43.484 0.063 7.29 3.33 12.04
11/4/2022 11:00:00 AM 6.51 43.718 0.063 7.3 3.35 12.06
11/4/2022 11:15:00 AM 6.65 43.97 0.063 7.31 3.34 12.07
11/4/2022 11:30:00 AM 6.81 44.258 0.062 7.33 3.5 12.06
11/4/2022 11:45:00 AM 7.01 44.618 0.062 7.33 3.49 12.02
11/4/2022 12:00:00 PM 7.23 45.014 0.062 7.33 3.32 11.96
11/4/2022 12:15:00 PM 7.41 45.338 0.062 7.35 3.36 11.94
11/4/2022 12:30:00 PM 7.64 45.752 0.062 7.34 3.31 11.86
11/4/2022 12:45:00 PM 7.89 46.202 0.062 7.33 3.38 11.77
11/4/2022 1:00:00 PM 8.1 46.58 0.062 7.32 3.35 11.7
11/4/2022 1:15:00 PM 8.28 46.904 0.062 7.34 3.31 11.69
11/4/2022 1:30:00 PM 8.47 47.246 0.062 7.35 3.39 11.64
11/4/2022 1:45:00 PM 8.66 47.588 0.062 7.36 3.35 11.59
11/4/2022 2:00:00 PM 8.81 47.858 0.061 7.37 3.33 11.53
11/4/2022 2:15:00 PM 8.97 48.146 0.061 7.37 3.4 11.5
11/4/2022 2:30:00 PM 9.11 48.398 0.061 7.39 3.38 11.48
11/4/2022 2:45:00 PM 9.23 48.614 0.061 7.38 3.35 11.42
11/4/2022 3:00:00 PM 9.31 48.758 0.061 7.39 3.35 11.38
11/4/2022 3:15:00 PM 9.39 48.902 0.061 7.4 3.38 11.37
11/4/2022 3:30:00 PM 9.49 49.082 0.061 7.4 3.38 11.34
11/4/2022 3:45:00 PM 9.54 49.172 0.061 7.41 3.31 11.29
11/4/2022 4:00:00 PM 9.57 49.226 0.061 7.43 3.34 11.27
11/4/2022 4:15:00 PM 9.66 49.388 0.061 7.42 3.37 11.24
11/4/2022 4:30:00 PM 9.76 49.568 0.061 7.43 3.42 11.19
11/4/2022 4:45:00 PM 9.78 49.604 0.061 7.44 3.42 11.15
11/4/2022 5:00:00 PM 9.82 49.676 0.061 7.44 3.43 11.11
11/4/2022 5:15:00 PM 9.88 49.784 0.061 7.43 3.46 11.05
11/4/2022 5:30:00 PM 9.91 49.838 0.061 7.42 3.41 10.95
11/4/2022 5:45:00 PM 9.94 49.892 0.061 7.4 3.5 10.86
11/4/2022 6:00:00 PM 9.94 49.892 0.061 7.38 3.43 10.79
11/4/2022 6:15:00 PM 9.94 49.892 0.062 7.36 3.52 10.71
11/4/2022 6:30:00 PM 9.94 49.892 0.062 7.35 3.63 10.65
11/4/2022 6:45:00 PM 9.94 49.892 0.062 7.34 3.43 10.58
11/4/2022 7:00:00 PM 9.94 49.892 0.062 7.33 3.53 10.56
11/4/2022 7:15:00 PM 9.93 49.874 0.062 7.33 3.56 10.54
11/4/2022 7:30:00 PM 9.92 49.856 0.062 7.32 3.47 10.52
11/4/2022 7:45:00 PM 9.9 49.82 0.062 7.32 3.54 10.52
11/4/2022 8:00:00 PM 9.87 49.766 0.062 7.32 3.46 10.51
11/4/2022 8:15:00 PM 9.83 49.694 0.062 7.31 3.55 10.51
11/4/2022 8:30:00 PM 9.79 49.622 0.063 7.3 3.51 10.5
11/4/2022 8:45:00 PM 9.74 49.532 0.063 7.3 3.56 10.52
11/4/2022 9:00:00 PM 9.7 49.46 0.063 7.3 3.6 10.51
11/4/2022 9:15:00 PM 9.64 49.352 0.063 7.3 3.7 10.52
11/4/2022 9:30:00 PM 9.59 49.262 0.063 7.3 3.56 10.54
11/4/2022 9:45:00 PM 9.54 49.172 0.063 7.29 3.67 10.55
11/4/2022 10:00:00 PM 9.49 49.082 0.063 7.29 3.55 10.56
11/4/2022 10:15:00 PM 9.44 48.992 0.063 7.29 3.57 10.58
11/4/2022 10:30:00 PM 9.39 48.902 0.063 7.29 3.47 10.59
11/4/2022 10:45:00 PM 9.34 48.812 0.063 7.29 3.63 10.6
11/4/2022 11:00:00 PM 9.31 48.758 0.064 7.28 3.92 10.6
11/4/2022 11:15:00 PM 9.28 48.704 0.064 7.28 3.52 10.61
11/4/2022 11:30:00 PM 9.26 48.668 0.064 7.28 3.53 10.63
11/4/2022 11:45:00 PM 9.28 48.704 0.064 7.28 3.43 10.63
11/5/2022 12:00:00 AM 9.32 48.776 0.064 7.28 3.46 10.6
11/5/2022 12:15:00 AM 9.31 48.758 0.064 7.28 3.63 10.61
11/5/2022 12:30:00 AM 9.28 48.704 0.064 7.28 3.53 10.62
11/5/2022 12:45:00 AM 9.24 48.632 0.064 7.29 3.55 10.65
11/5/2022 1:00:00 AM 9.25 48.65 0.064 7.28 3.5 10.64
11/5/2022 1:15:00 AM 9.23 48.614 0.064 7.3 3.46 10.68
11/5/2022 1:30:00 AM 9.23 48.614 0.064 7.28 3.5 10.65
11/5/2022 1:45:00 AM 9.21 48.578 0.064 7.28 3.56 10.66
11/5/2022 2:00:00 AM 9.19 48.542 0.064 7.28 3.55 10.66
11/5/2022 2:15:00 AM 9.15 48.47 0.064 7.27 3.45 10.67
11/5/2022 2:30:00 AM 9.12 48.416 0.064 7.26 3.5 10.65
11/5/2022 2:45:00 AM 9.07 48.326 0.064 7.26 5.48 10.67
11/5/2022 3:00:00 AM 9.04 48.272 0.064 7.25 3.67 10.66
11/5/2022 3:15:00 AM 9 48.2 0.064 7.25 4.84 10.67
11/5/2022 3:30:00 AM 8.97 48.146 0.064 7.25 3.61 10.7
11/5/2022 3:45:00 AM 8.94 48.092 0.063 7.25 3.45 10.7
11/5/2022 4:00:00 AM 8.92 48.056 0.063 7.25 3.38 10.69
11/5/2022 4:15:00 AM 8.95 48.11 0.063 7.25 3.37 10.71
11/5/2022 4:30:00 AM 8.99 48.182 0.063 7.25 3.4 10.71
11/5/2022 4:45:00 AM 8.95 48.11 0.063 7.26 3.45 10.72
11/5/2022 5:00:00 AM 8.9 48.02 0.063 7.26 3.47 10.71
11/5/2022 5:15:00 AM 8.85 47.93 0.063 7.25 3.41 10.74
11/5/2022 5:30:00 AM 8.82 47.876 0.063 7.24 5.72 10.74
11/5/2022 5:45:00 AM 8.8 47.84 0.063 7.24 3.56 10.72
11/5/2022 6:00:00 AM 8.79 47.822 0.063 7.24 4.13 10.72
11/5/2022 6:15:00 AM 8.77 47.786 0.063 7.24 4.02 10.74
11/5/2022 6:30:00 AM 8.75 47.75 0.063 7.23 4.05 10.73
11/5/2022 6:45:00 AM 8.72 47.696 0.063 7.24 4.11 10.73
11/5/2022 7:00:00 AM 8.71 47.678 0.063 7.24 4.11 10.75
11/5/2022 7:15:00 AM 8.7 47.66 0.063 7.24 4.16 10.78
11/5/2022 7:30:00 AM 8.69 47.642 0.063 7.24 4.22 10.78
11/5/2022 7:45:00 AM 8.71 47.678 0.063 7.24 4.34 10.76
11/5/2022 8:00:00 AM 8.75 47.75 0.063 7.24 4.1 10.8
11/5/2022 8:15:00 AM 8.87 47.966 0.063 7.25 4.26 10.81
11/5/2022 8:30:00 AM 8.99 48.182 0.063 7.25 4.01 10.79
11/5/2022 8:45:00 AM 9.09 48.362 0.063 7.27 3.94 10.83
11/5/2022 9:00:00 AM 9.16 48.488 0.063 7.28 4 10.85
11/5/2022 9:15:00 AM 9.19 48.542 0.063 7.29 3.96 10.91
11/5/2022 9:30:00 AM 9.27 48.686 0.063 7.29 3.83 10.96
11/5/2022 9:45:00 AM 9.42 48.956 0.063 7.29 4 10.97
11/5/2022 10:00:00 AM 9.52 49.136 0.062 7.32 3.95 11.03
11/5/2022 10:15:00 AM 9.66 49.388 0.062 7.33 3.9 11.06
11/5/2022 10:30:00 AM 9.76 49.568 0.062 7.34 3.96 11.04
11/5/2022 10:45:00 AM 9.88 49.784 0.062 7.34 3.83 11
11/5/2022 11:00:00 AM 10.01 50.018 0.062 7.35 3.88 11.02
11/5/2022 11:15:00 AM 10.11 50.198 0.062 7.39 3.95 11.07
11/5/2022 11:30:00 AM 10.27 50.486 0.062 7.39 3.96 11.04
11/5/2022 11:45:00 AM 10.45 50.81 0.062 7.39 3.88 11.02
11/5/2022 12:00:00 PM 10.59 51.062 0.062 7.41 3.8 11.03
11/5/2022 12:15:00 PM 10.74 51.332 0.062 7.44 3.86 11.04
11/5/2022 12:30:00 PM 10.85 51.53 0.062 7.47 3.88 11.03
11/5/2022 12:45:00 PM 11.04 51.872 0.061 7.47 3.82 11
11/5/2022 1:00:00 PM 11.18 52.124 0.061 7.45 3.9 10.9
11/5/2022 1:15:00 PM 11.3 52.34 0.061 7.45 4.02 10.84
11/5/2022 1:30:00 PM 11.43 52.574 0.061 7.47 3.61 10.85
11/5/2022 1:45:00 PM 11.6 52.88 0.061 7.47 3.58 10.81
11/5/2022 2:00:00 PM 11.77 53.186 0.061 7.45 3.5 10.72
11/5/2022 2:15:00 PM 11.93 53.474 0.061 7.45 3.2 10.69
11/5/2022 2:30:00 PM 12.07 53.726 0.061 7.47 3.41 10.68
11/5/2022 2:45:00 PM 12.19 53.942 0.061 7.49 3.45 10.65
11/5/2022 3:00:00 PM 12.3 54.14 0.061 7.48 3.47 10.57
11/5/2022 3:15:00 PM 12.39 54.302 0.061 7.5 3.41 10.58
11/5/2022 3:30:00 PM 12.51 54.518 0.061 7.53 3.41 10.59
11/5/2022 3:45:00 PM 12.64 54.752 0.061 7.51 3.39 10.51
11/5/2022 4:00:00 PM 12.76 54.968 0.061 7.48 3.29 10.43
11/5/2022 4:15:00 PM 12.8 55.04 0.061 7.48 3.18 10.33
11/5/2022 4:30:00 PM 12.83 55.094 0.061 7.47 3.22 10.24
11/5/2022 4:45:00 PM 12.84 55.112 0.061 7.48 3.33 10.17
11/5/2022 5:00:00 PM 12.87 55.166 0.061 7.47 3.28 10.11
11/5/2022 5:15:00 PM 12.9 55.22 0.061 7.45 3.24 10.07
11/5/2022 5:30:00 PM 12.94 55.292 0.062 7.45 3.53 10.01
11/5/2022 5:45:00 PM 12.92 55.256 0.062 7.45 3.37 9.96
11/5/2022 6:00:00 PM 12.94 55.292 0.062 7.43 3.29 9.89
11/5/2022 6:15:00 PM 12.97 55.346 0.062 7.43 3.35 9.82
11/5/2022 6:30:00 PM 12.99 55.382 0.062 7.41 3.76 9.75
11/5/2022 6:45:00 PM 12.99 55.382 0.062 7.39 3.47 9.7
11/5/2022 7:00:00 PM 12.96 55.328 0.063 7.39 3.66 9.68
11/5/2022 7:15:00 PM 12.95 55.31 0.063 7.39 3.5 9.68
11/5/2022 7:30:00 PM 12.94 55.292 0.063 7.39 3.38 9.67
11/5/2022 7:45:00 PM 12.91 55.238 0.063 7.39 3.48 9.65
11/5/2022 8:00:00 PM 12.89 55.202 0.063 7.38 3.56 9.65
11/5/2022 8:15:00 PM 12.86 55.148 0.063 7.37 3.47 9.63
11/5/2022 8:30:00 PM 12.86 55.148 0.063 7.35 3.36 9.59
11/5/2022 8:45:00 PM 12.83 55.094 0.063 7.34 3.28 9.58
11/5/2022 9:00:00 PM 12.82 55.076 0.064 7.35 3.49 9.58
11/5/2022 9:15:00 PM 12.81 55.058 0.064 7.34 3.34 9.59
11/5/2022 9:30:00 PM 12.78 55.004 0.064 7.35 3.59 9.61
11/5/2022 9:45:00 PM 12.78 55.004 0.064 7.35 3.45 9.6
11/5/2022 10:00:00 PM 12.75 54.95 0.064 7.35 3.46 9.6
11/5/2022 10:15:00 PM 12.73 54.914 0.064 7.34 3.4 9.6
11/5/2022 10:30:00 PM 12.72 54.896 0.064 7.34 3.6 9.6
11/5/2022 10:45:00 PM 12.72 54.896 0.064 7.33 4.02 9.59
11/5/2022 11:00:00 PM 12.71 54.878 0.064 7.33 3.99 9.59
11/5/2022 11:15:00 PM 12.69 54.842 0.064 7.34 3.96 9.61
11/5/2022 11:30:00 PM 12.68 54.824 0.064 7.35 3.79 9.63
11/5/2022 11:45:00 PM 12.66 54.788 0.064 7.34 3.8 9.62
11/6/2022 12:00:00 AM 12.67 54.806 0.064 7.35 3.72 9.64
11/6/2022 12:15:00 AM 12.7 54.86 0.064 7.32 3.88 9.58
11/6/2022 12:30:00 AM 12.68 54.824 0.064 7.33 4.13 9.6
11/6/2022 12:45:00 AM 12.65 54.77 0.064 7.33 3.67 9.6
11/6/2022 1:00:00 AM 12.62 54.716 0.065 7.35 3.86 9.65
11/6/2022 1:15:00 AM 12.61 54.698 0.064 7.33 3.71 9.62
11/6/2022 1:30:00 AM 12.61 54.698 0.064 7.31 3.8 9.6
11/6/2022 1:45:00 AM 12.64 54.752 0.064 7.32 4.06 9.6
11/6/2022 2:00:00 AM 12.68 54.824 0.064 7.32 3.54 9.59
11/6/2022 2:15:00 AM 12.71 54.878 0.064 7.31 7.09 9.57
11/6/2022 2:30:00 AM 12.73 54.914 0.064 7.31 7.2 9.58
11/6/2022 2:45:00 AM 12.74 54.932 0.064 7.33 7.14 9.6
11/6/2022 3:00:00 AM 12.75 54.95 0.064 7.33 8.46 9.6
11/6/2022 3:15:00 AM 12.75 54.95 0.064 7.33 8.46 9.62
11/6/2022 3:30:00 AM 12.77 54.986 0.064 7.32 9.17 9.57
11/6/2022 3:45:00 AM 12.81 55.058 0.064 7.31 8.55 9.56
11/6/2022 4:00:00 AM 12.85 55.13 0.064 7.3 9.09 9.53
11/6/2022 4:15:00 AM 12.87 55.166 0.064 7.32 6.68 9.56
11/6/2022 4:30:00 AM 12.89 55.202 0.064 7.31 6.58 9.54
11/6/2022 4:45:00 AM 12.89 55.202 0.064 7.31 6.69 9.52
11/6/2022 5:00:00 AM 12.9 55.22 0.064 7.31 8.27 9.53
11/6/2022 5:15:00 AM 12.91 55.238 0.064 7.3 8.84 9.52
11/6/2022 5:30:00 AM 12.91 55.238 0.064 7.3 8.88 9.53
11/6/2022 5:45:00 AM 12.93 55.274 0.064 7.3 8.22 9.52
11/6/2022 6:00:00 AM 12.92 55.256 0.064 7.31 8.39 9.54
11/6/2022 6:15:00 AM 12.93 55.274 0.064 7.31 8.39 9.53
11/6/2022 6:30:00 AM 12.94 55.292 0.064 7.29 8.09 9.49
11/6/2022 6:45:00 AM 12.92 55.256 0.064 7.3 9.34 9.5
11/6/2022 7:00:00 AM 12.94 55.292 0.064 7.3 8.59 9.52
11/6/2022 7:15:00 AM 12.95 55.31 0.064 7.32 8.23 9.56
11/6/2022 7:30:00 AM 12.95 55.31 0.064 7.32 8.23 9.59
11/6/2022 7:45:00 AM 12.95 55.31 0.064 7.32 8.14 9.66
11/6/2022 8:00:00 AM 13 55.4 0.063 7.33 7.86 9.74
11/6/2022 8:15:00 AM 13.07 55.526 0.063 7.34 7.87 9.81
11/6/2022 8:30:00 AM 13.14 55.652 0.063 7.35 8.17 9.89
11/6/2022 8:45:00 AM 13.18 55.724 0.063 7.38 8.06 9.97
11/6/2022 9:00:00 AM 13.23 55.814 0.063 7.4 8 10.01
11/6/2022 9:15:00 AM 13.28 55.904 0.063 7.41 8.15 10.04
11/6/2022 9:30:00 AM 13.33 55.994 0.063 7.42 8.26 10.04
11/6/2022 9:45:00 AM 13.36 56.048 0.063 7.41 8.23 10
11/6/2022 10:00:00 AM 13.5 56.3 0.063 7.41 8.4 10.04
11/6/2022 10:15:00 AM 13.65 56.57 0.062 7.43 7.96 10.07
11/6/2022 10:30:00 AM 13.76 56.768 0.062 7.46 8.46 10.09
11/6/2022 10:45:00 AM 13.79 56.822 0.062 7.48 8.56 10.1
11/6/2022 11:00:00 AM 13.91 57.038 0.062 7.49 8.41 10.11
11/6/2022 11:15:00 AM 14.07 57.326 0.062 7.49 8.03 10.09
11/6/2022 11:30:00 AM 14.18 57.524 0.062 7.49 7.77 10.04
11/6/2022 11:45:00 AM 14.38 57.884 0.062 7.49 8.45 10.01
11/6/2022 12:00:00 PM 14.42 57.956 0.062 7.49 8.06 9.93
11/6/2022 12:15:00 PM 14.47 58.046 0.062 7.5 8.18 9.94
11/6/2022 12:30:00 PM 14.49 58.082 0.062 7.53 8.09 9.97
11/6/2022 12:45:00 PM 14.48 58.064 0.062 7.53 8.26 9.91
11/6/2022 1:00:00 PM 14.49 58.082 0.062 7.52 8.62 9.89
11/6/2022 1:15:00 PM 14.51 58.118 0.062 7.53 8.64 9.86
11/6/2022 1:30:00 PM 14.56 58.208 0.062 7.53 8.7 9.85
11/6/2022 1:45:00 PM 14.62 58.316 0.062 7.53 9.17 9.83
11/6/2022 2:00:00 PM 14.67 58.406 0.062 7.53 9.73 9.83
11/6/2022 2:15:00 PM 14.69 58.442 0.062 7.52 10.68 9.8
11/6/2022 2:30:00 PM 14.75 58.55 0.062 7.54 9.62 9.8
11/6/2022 2:45:00 PM 14.76 58.568 0.062 7.54 8.05 9.74
11/6/2022 3:00:00 PM 14.77 58.586 0.061 7.52 9.79 9.62
11/6/2022 3:15:00 PM 14.77 58.586 0.061 7.51 8.42 9.61
11/6/2022 3:30:00 PM 14.74 58.532 0.061 7.5 8.76 9.54
11/6/2022 3:45:00 PM 14.72 58.496 0.061 7.49 8.54 9.55
11/6/2022 4:00:00 PM 14.71 58.478 0.062 7.5 8.35 9.56
11/6/2022 4:15:00 PM 14.65 58.37 0.062 7.48 8.36 9.55
11/6/2022 4:30:00 PM 14.6 58.28 0.062 7.47 8.4 9.53
11/6/2022 4:45:00 PM 14.55 58.19 0.062 7.46 8.45 9.48
11/6/2022 5:00:00 PM 14.48 58.064 0.062 7.44 8.25 9.41
11/6/2022 5:15:00 PM 14.43 57.974 0.062 7.41 8.18 9.34
11/6/2022 5:30:00 PM 14.39 57.902 0.062 7.4 8.22 9.3
11/6/2022 5:45:00 PM 14.36 57.848 0.063 7.4 8.23 9.27
11/6/2022 6:00:00 PM 14.31 57.758 0.063 7.37 8.3 9.24
11/6/2022 6:15:00 PM 14.28 57.704 0.063 7.37 8.18 9.23
11/6/2022 6:30:00 PM 14.24 57.632 0.063 7.37 8.58 9.23
11/6/2022 6:45:00 PM 14.22 57.596 0.063 7.37 7.75 9.23
11/6/2022 7:00:00 PM 14.22 57.596 0.063 7.37 8.08 9.24
11/6/2022 7:15:00 PM 14.2 57.56 0.063 7.36 7.72 9.21
11/6/2022 7:30:00 PM 14.16 57.488 0.063 7.35 10.21 9.22
11/6/2022 7:45:00 PM 14.13 57.434 0.063 7.35 10.51 9.23
11/6/2022 8:00:00 PM 14.11 57.398 0.063 7.34 10.53 9.22
11/6/2022 8:15:00 PM 14.04 57.272 0.063 7.33 9.84 9.21
11/6/2022 8:30:00 PM 13.99 57.182 0.064 7.33 9.75 9.22
11/6/2022 8:45:00 PM 13.91 57.038 0.064 7.32 9.86 9.24
11/6/2022 9:00:00 PM 13.85 56.93 0.064 7.32 10.12 9.25
11/6/2022 9:15:00 PM 13.8 56.84 0.064 7.32 9.69 9.26
11/6/2022 9:30:00 PM 13.76 56.768 0.064 7.31 12.67 9.27
11/6/2022 9:45:00 PM 13.73 56.714 0.064 7.3 11.51 9.27
11/6/2022 10:00:00 PM 13.7 56.66 0.065 7.3 11.51 9.29
11/6/2022 10:15:00 PM 13.68 56.624 0.065 7.3 11.55 9.3
11/6/2022 10:30:00 PM 13.66 56.588 0.065 7.3 11.45 9.31
11/6/2022 10:45:00 PM 13.62 56.516 0.065 7.31 11.48 9.33
11/6/2022 11:00:00 PM 13.56 56.408 0.065 7.29 11.47 9.33
11/6/2022 11:15:00 PM 13.52 56.336 0.065 7.28 11.53 9.34
11/6/2022 11:30:00 PM 13.46 56.228 0.065 7.28 11.64 9.35
11/6/2022 11:45:00 PM 13.4 56.12 0.065 7.28 11.69 9.37
11/7/2022 12:00:00 AM 13.34 56.012 0.065 7.28 11.74 9.39
11/7/2022 12:15:00 AM 13.27 55.886 0.065 7.28 11.54 9.4
11/7/2022 12:30:00 AM 13.23 55.814 0.065 7.27 11.35 9.42
11/7/2022 12:45:00 AM 13.19 55.742 0.065 7.28 11.76 9.43
11/7/2022 1:00:00 AM 13.16 55.688 0.065 7.27 12.43 9.43
11/7/2022 1:15:00 AM 13.14 55.652 0.065 7.27 12.59 9.45
11/7/2022 1:30:00 AM 13.1 55.58 0.065 7.26 12.82 9.45
11/7/2022 1:45:00 AM 13.05 55.49 0.065 7.26 12.65 9.46
11/7/2022 2:00:00 AM 12.99 55.382 0.065 7.25 12.85 9.47
11/7/2022 2:15:00 AM 12.91 55.238 0.065 7.25 13.91 9.49
11/7/2022 2:30:00 AM 12.83 55.094 0.065 7.25 13.14 9.51
11/7/2022 2:45:00 AM 12.76 54.968 0.065 7.25 14.36 9.52
11/7/2022 3:00:00 AM 12.68 54.824 0.065 7.25 14.7 9.54
11/7/2022 3:15:00 AM 12.61 54.698 0.065 7.25 14.99 9.55
11/7/2022 3:30:00 AM 12.53 54.554 0.065 7.26 14.57 9.58
11/7/2022 3:45:00 AM 12.45 54.41 0.065 7.27 15.45 9.6
11/7/2022 4:00:00 AM 12.38 54.284 0.065 7.25 14.62 9.59
11/7/2022 4:15:00 AM 12.29 54.122 0.065 7.25 14.64 9.63
11/7/2022 4:30:00 AM 12.21 53.978 0.065 7.25 16.25 9.66
11/7/2022 4:45:00 AM 12.12 53.816 0.065 7.25 12.58 9.67
11/7/2022 5:00:00 AM 12.04 53.672 0.065 7.25 12.75 9.69
11/7/2022 5:15:00 AM 11.95 53.51 0.065 7.25 8.23 9.72
11/7/2022 5:30:00 AM 11.86 53.348 0.065 7.25 7.31 9.76
11/7/2022 5:45:00 AM 11.77 53.186 0.065 7.25 8.53 9.78
11/7/2022 6:00:00 AM 11.69 53.042 0.065 7.24 8.92 9.79
11/7/2022 6:15:00 AM 11.6 52.88 0.065 7.24 8.24 9.82
11/7/2022 6:30:00 AM 11.51 52.718 0.065 7.24 9 9.85
11/7/2022 6:45:00 AM 11.43 52.574 0.065 7.23 8 9.85
11/7/2022 7:00:00 AM 11.36 52.448 0.064 7.22 8.81 9.86
11/7/2022 7:15:00 AM 11.29 52.322 0.064 7.24 8.09 9.93
11/7/2022 7:30:00 AM 11.23 52.214 0.064 7.24 8.04 10.02
11/7/2022 7:45:00 AM 11.18 52.124 0.064 7.25 8.8 10.07
11/7/2022 8:00:00 AM 11.13 52.034 0.064 7.26 8.21 10.13
11/7/2022 8:15:00 AM 11.1 51.98 0.064 7.26 5.51 10.21
11/7/2022 8:30:00 AM 11.11 51.998 0.064 7.3 5.58 10.3
11/7/2022 8:45:00 AM 11.12 52.016 0.064 7.3 5.22 10.35
11/7/2022 9:00:00 AM 11.14 52.052 0.064 7.3 4.21 10.4
11/7/2022 9:15:00 AM 11.17 52.106 0.064 7.32 4 10.43
11/7/2022 9:30:00 AM 11.21 52.178 0.064 7.32 3.82 10.47
11/7/2022 9:45:00 AM 11.27 52.286 0.064 7.34 3.92 10.51
11/7/2022 10:00:00 AM 11.33 52.394 0.064 7.36 3.88 10.55
11/7/2022 10:15:00 AM 11.39 52.502 0.063 7.36 3.69 10.58
11/7/2022 10:30:00 AM 11.45 52.61 0.063 7.37 3.6 10.59
11/7/2022 10:45:00 AM 11.51 52.718 0.063 7.38 4.19 10.6
11/7/2022 11:00:00 AM 11.59 52.862 0.063 7.4 3.56 10.6
11/7/2022 11:15:00 AM 11.65 52.97 0.063 7.39 3.55 10.58
11/7/2022 11:30:00 AM 11.72 53.096 0.063 7.38 3.55 10.57
11/7/2022 11:45:00 AM 11.81 53.258 0.063 7.4 3.52 10.57
11/7/2022 12:00:00 PM 11.89 53.402 0.063 7.41 3.5 10.59
11/7/2022 12:15:00 PM 11.97 53.546 0.063 7.42 4.98 10.59
11/7/2022 12:30:00 PM 12.05 53.69 0.063 7.42 4.92 10.56
11/7/2022 12:45:00 PM 12.12 53.816 0.063 7.43 4.82 10.54
11/7/2022 1:00:00 PM 12.18 53.924 0.063 7.43 4.71 10.53
11/7/2022 1:15:00 PM 12.2 53.96 0.063 7.43 4.74 10.52
11/7/2022 1:30:00 PM 12.24 54.032 0.063 7.44 4.69 10.51
11/7/2022 1:45:00 PM 12.25 54.05 0.063 7.45 4.7 10.5
11/7/2022 2:00:00 PM 12.25 54.05 0.063 7.45 4.65 10.49
11/7/2022 2:15:00 PM 12.25 54.05 0.063 7.45 4.89 10.48
11/7/2022 2:30:00 PM 12.22 53.996 0.063 7.47 4.82 10.49
11/7/2022 2:45:00 PM 12.18 53.924 0.063 7.47 4.66 10.49
11/7/2022 3:00:00 PM 12.11 53.798 0.063 7.46 4.75 10.46
11/7/2022 3:15:00 PM 12.06 53.708 0.063 7.46 4.69 10.44
11/7/2022 3:30:00 PM 11.99 53.582 0.063 7.45 4.76 10.4
11/7/2022 3:45:00 PM 11.92 53.456 0.063 7.45 4.93 10.39
11/7/2022 4:00:00 PM 11.85 53.33 0.063 7.44 4.8 10.36
11/7/2022 4:15:00 PM 11.73 53.114 0.063 7.43 5.08 10.35
11/7/2022 4:30:00 PM 11.65 52.97 0.064 7.42 4.95 10.31
11/7/2022 4:45:00 PM 11.59 52.862 0.064 7.42 4.49 10.29
11/7/2022 5:00:00 PM 11.51 52.718 0.064 7.41 4.58 10.25
11/7/2022 5:15:00 PM 11.44 52.592 0.064 7.39 4.59 10.22
11/7/2022 5:30:00 PM 11.35 52.43 0.064 7.38 4.53 10.17
11/7/2022 5:45:00 PM 11.27 52.286 0.064 7.37 4.66 10.15
11/7/2022 6:00:00 PM 11.18 52.124 0.064 7.36 4.94 10.15
11/7/2022 6:15:00 PM 11.1 51.98 0.064 7.35 4.87 10.15
11/7/2022 6:30:00 PM 11.02 51.836 0.064 7.34 4.86 10.15
11/7/2022 6:45:00 PM 10.95 51.71 0.064 7.33 4.79 10.15
11/7/2022 7:00:00 PM 10.88 51.584 0.064 7.34 4.84 10.18
11/7/2022 7:15:00 PM 10.81 51.458 0.065 7.33 4.85 10.19
11/7/2022 7:30:00 PM 10.73 51.314 0.065 7.32 4.83 10.2
11/7/2022 7:45:00 PM 10.64 51.152 0.065 7.31 4.94 10.22
11/7/2022 8:00:00 PM 10.54 50.972 0.065 7.31 4.85 10.24
11/7/2022 8:15:00 PM 10.43 50.774 0.065 7.3 4.85 10.26
11/7/2022 8:30:00 PM 10.33 50.594 0.065 7.31 4.8 10.29
11/7/2022 8:45:00 PM 10.22 50.396 0.065 7.29 4.85 10.32
11/7/2022 9:00:00 PM 10.13 50.234 0.065 7.28 4.83 10.34
11/7/2022 9:15:00 PM 10.03 50.054 0.065 7.27 5.15 10.36
11/7/2022 9:30:00 PM 9.93 49.874 0.065 7.27 5.62 10.4
11/7/2022 9:45:00 PM 9.84 49.712 0.065 7.27 5.16 10.43
11/7/2022 10:00:00 PM 9.76 49.568 0.065 7.27 5.31 10.45
11/7/2022 10:15:00 PM 9.68 49.424 0.065 7.27 5.27 10.48
11/7/2022 10:30:00 PM 9.6 49.28 0.065 7.26 5.19 10.5
11/7/2022 10:45:00 PM 9.52 49.136 0.066 7.27 5.11 10.52
11/7/2022 11:00:00 PM 9.44 48.992 0.066 7.28 5.12 10.56
11/7/2022 11:15:00 PM 9.36 48.848 0.066 7.26 5.31 10.58
11/7/2022 11:30:00 PM 9.27 48.686 0.066 7.25 5.14 10.61
11/7/2022 11:45:00 PM 9.18 48.524 0.066 7.26 5.1 10.64
11/8/2022 12:00:00 AM 9.1 48.38 0.066 7.25 5.36 10.67
11/8/2022 12:15:00 AM 9.01 48.218 0.066 7.25 5.16 10.68
11/8/2022 12:30:00 AM 8.93 48.074 0.066 7.24 5.11 10.72
11/8/2022 12:45:00 AM 8.85 47.93 0.066 7.25 5.07 10.73
11/8/2022 1:00:00 AM 8.76 47.768 0.066 7.24 5.08 10.79
11/8/2022 1:15:00 AM 8.67 47.606 0.066 7.25 5.2 10.82
11/8/2022 1:30:00 AM 8.59 47.462 0.066 7.25 5.01 10.82
11/8/2022 1:45:00 AM 8.51 47.318 0.066 7.25 5.01 10.86
11/8/2022 2:00:00 AM 8.42 47.156 0.066 7.24 5.06 10.88
11/8/2022 2:15:00 AM 8.33 46.994 0.065 7.24 4.97 10.89
11/8/2022 2:30:00 AM 8.24 46.832 0.065 7.24 5.06 10.92
11/8/2022 2:45:00 AM 8.15 46.67 0.065 7.23 5.12 10.96
11/8/2022 3:00:00 AM 8.06 46.508 0.065 7.23 5.11 11
11/8/2022 3:15:00 AM 7.99 46.382 0.065 7.23 4.92 11.01
11/8/2022 3:30:00 AM 7.9 46.22 0.065 7.23 4.93 11.04
11/8/2022 3:45:00 AM 7.81 46.058 0.065 7.23 4.97 11.06
11/8/2022 4:00:00 AM 7.73 45.914 0.065 7.23 4.96 11.09
11/8/2022 4:15:00 AM 7.64 45.752 0.065 7.23 5.11 11.12
11/8/2022 4:30:00 AM 7.55 45.59 0.065 7.23 4.96 11.16
11/8/2022 4:45:00 AM 7.47 45.446 0.065 7.23 5.01 11.18
11/8/2022 5:00:00 AM 7.39 45.302 0.065 7.23 4.99 11.21
11/8/2022 5:15:00 AM 7.31 45.158 0.065 7.22 4.99 11.23
11/8/2022 5:30:00 AM 7.24 45.032 0.065 7.23 5 11.26
11/8/2022 5:45:00 AM 7.2 44.96 0.065 7.23 4.98 11.29
11/8/2022 6:00:00 AM 7.18 44.924 0.065 7.27 4.96 11.31
11/8/2022 6:15:00 AM 7.16 44.888 0.065 7.24 4.96 11.32
11/8/2022 6:30:00 AM 7.13 44.834 0.065 7.24 4.96 11.34
11/8/2022 6:45:00 AM 7.11 44.798 0.065 7.24 4.95 11.34
11/8/2022 7:00:00 AM 7.09 44.762 0.065 7.25 4.98 11.37
11/8/2022 7:15:00 AM 7.07 44.726 0.065 7.25 4.93 11.4
11/8/2022 7:30:00 AM 7 44.6 0.065 7.26 4.97 11.47
11/8/2022 7:45:00 AM 6.98 44.564 0.065 7.27 4.88 11.56
11/8/2022 8:00:00 AM 6.97 44.546 0.065 7.28 5 11.64
11/8/2022 8:15:00 AM 6.96 44.528 0.064 7.29 4.91 11.69
11/8/2022 8:30:00 AM 6.97 44.546 0.064 7.3 4.9 11.74
11/8/2022 8:45:00 AM 6.98 44.564 0.064 7.31 4.92 11.79
11/8/2022 9:00:00 AM 7 44.6 0.064 7.32 4.91 11.82
11/8/2022 9:15:00 AM 7.05 44.69 0.064 7.32 4.8 11.83
11/8/2022 9:30:00 AM 7.1 44.78 0.064 7.34 4.9 11.87
11/8/2022 9:45:00 AM 7.18 44.924 0.064 7.36 4.84 11.89
11/8/2022 10:00:00 AM 7.26 45.068 0.064 7.36 4.95 11.88
11/8/2022 10:15:00 AM 7.36 45.248 0.064 7.37 4.89 11.89
11/8/2022 10:30:00 AM 7.48 45.464 0.064 7.38 5 11.89
11/8/2022 10:45:00 AM 7.59 45.662 0.064 7.38 4.94 11.88
11/8/2022 11:00:00 AM 7.7 45.86 0.064 7.39 4.91 11.88
11/8/2022 11:15:00 AM 7.82 46.076 0.064 7.4 4.82 11.86
11/8/2022 11:30:00 AM 7.95 46.31 0.063 7.38 11.3 11.81
11/8/2022 11:45:00 AM 8.04 46.472 0.063 7.4 3.21 11.81
11/8/2022 12:00:00 PM 8.15 46.67 0.063 7.4 11.4 11.78
11/8/2022 12:15:00 PM 8.25 46.85 0.063 7.4 3.63 11.77
11/8/2022 12:30:00 PM 8.35 47.03 0.063 7.4 3.88 11.74
11/8/2022 12:45:00 PM 8.45 47.21 0.063 7.4 3.62 11.71
11/8/2022 1:00:00 PM 8.51 47.318 0.063 7.41 3.72 11.69
11/8/2022 1:15:00 PM 8.58 47.444 0.063 7.41 3.6 11.65
11/8/2022 1:30:00 PM 8.65 47.57 0.062 7.41 3.62 11.65
11/8/2022 1:45:00 PM 8.71 47.678 0.063 7.41 3.98 11.63
11/8/2022 2:00:00 PM 8.77 47.786 0.063 7.41 3.67 11.6
11/8/2022 2:15:00 PM 8.81 47.858 0.063 7.41 4.12 11.55
11/8/2022 2:30:00 PM 8.86 47.948 0.063 7.4 3.8 11.51
11/8/2022 2:45:00 PM 8.85 47.93 0.063 7.4 4.33 11.49
11/8/2022 3:00:00 PM 8.8 47.84 0.063 7.4 4.62 11.47
11/8/2022 3:15:00 PM 8.77 47.786 0.063 7.4 4.84 11.45
11/8/2022 3:30:00 PM 8.74 47.732 0.063 7.4 4.91 11.44
11/8/2022 3:45:00 PM 8.7 47.66 0.063 7.39 4.66 11.39
11/8/2022 4:00:00 PM 8.67 47.606 0.063 7.38 4.72 11.36
11/8/2022 4:15:00 PM 8.64 47.552 0.063 7.37 4.77 11.32
11/8/2022 4:30:00 PM 8.61 47.498 0.063 7.36 4.65 11.26
11/8/2022 4:45:00 PM 8.58 47.444 0.063 7.36 4.95 11.22
11/8/2022 5:00:00 PM 8.55 47.39 0.063 7.35 4.84 11.2
11/8/2022 5:15:00 PM 8.5 47.3 0.063 7.34 4.77 11.16
11/8/2022 5:30:00 PM 8.45 47.21 0.063 7.33 4.84 11.11
11/8/2022 5:45:00 PM 8.39 47.102 0.063 7.33 4.8 11.09
11/8/2022 6:00:00 PM 8.34 47.012 0.064 7.32 4.8 11.08
11/8/2022 6:15:00 PM 8.28 46.904 0.064 7.32 4.79 11.08
11/8/2022 6:30:00 PM 8.23 46.814 0.064 7.32 4.75 11.07
11/8/2022 6:45:00 PM 8.17 46.706 0.064 7.32 4.81 11.09
11/8/2022 7:00:00 PM 8.12 46.616 0.064 7.32 4.83 11.09
11/8/2022 7:15:00 PM 8.05 46.49 0.064 7.31 4.85 11.11
11/8/2022 7:30:00 PM 7.97 46.346 0.064 7.32 4.8 11.14
11/8/2022 7:45:00 PM 7.89 46.202 0.064 7.32 4.85 11.15
11/8/2022 8:00:00 PM 7.8 46.04 0.064 7.31 4.88 11.17
11/8/2022 8:15:00 PM 7.71 45.878 0.064 7.31 4.87 11.19
11/8/2022 8:30:00 PM 7.6 45.68 0.064 7.3 4.88 11.23
11/8/2022 8:45:00 PM 7.5 45.5 0.065 7.29 4.88 11.23
11/8/2022 9:00:00 PM 7.4 45.32 0.065 7.3 4.84 11.26
11/8/2022 9:15:00 PM 7.3 45.14 0.065 7.28 4.85 11.29
11/8/2022 9:30:00 PM 7.21 44.978 0.065 7.27 4.81 11.31
11/8/2022 9:45:00 PM 7.1 44.78 0.065 7.27 4.84 11.35
11/8/2022 10:00:00 PM 7 44.6 0.065 7.25 4.8 11.37
11/8/2022 10:15:00 PM 6.9 44.42 0.065 7.25 4.87 11.41
11/8/2022 10:30:00 PM 6.81 44.258 0.065 7.25 4.83 11.45
11/8/2022 10:45:00 PM 6.71 44.078 0.065 7.25 4.84 11.48
11/8/2022 11:00:00 PM 6.63 43.934 0.065 7.24 4.85 11.5
11/8/2022 11:15:00 PM 6.54 43.772 0.065 7.24 4.93 11.54
11/8/2022 11:30:00 PM 6.46 43.628 0.065 7.23 4.78 11.56
11/8/2022 11:45:00 PM 6.39 43.502 0.065 7.24 4.82 11.6
11/9/2022 12:00:00 AM 6.3 43.34 0.065 7.23 4.81 11.61
11/9/2022 12:15:00 AM 6.24 43.232 0.065 7.24 4.86 11.64
11/9/2022 12:30:00 AM 6.17 43.106 0.065 7.24 4.85 11.66
11/9/2022 12:45:00 AM 6.09 42.962 0.065 7.23 4.87 11.7
11/9/2022 1:00:00 AM 6.02 42.836 0.065 7.22 4.85 11.71
11/9/2022 1:15:00 AM 5.93 42.674 0.065 7.23 4.89 11.75
11/9/2022 1:30:00 AM 5.85 42.53 0.065 7.23 4.84 11.79
11/9/2022 1:45:00 AM 5.78 42.404 0.065 7.22 4.85 11.81
11/9/2022 2:00:00 AM 5.69 42.242 0.065 7.22 4.84 11.84
11/9/2022 2:15:00 AM 5.61 42.098 0.065 7.22 4.75 11.87
11/9/2022 2:30:00 AM 5.53 41.954 0.065 7.22 4.8 11.89
11/9/2022 2:45:00 AM 5.46 41.828 0.065 7.26 4.81 11.92
11/9/2022 3:00:00 AM 5.38 41.684 0.065 7.23 4.86 11.95
11/9/2022 3:15:00 AM 5.3 41.54 0.065 7.22 4.81 11.98
11/9/2022 3:30:00 AM 5.23 41.414 0.065 7.22 4.83 12.01
11/9/2022 3:45:00 AM 5.15 41.27 0.065 7.22 4.85 12.03
11/9/2022 4:00:00 AM 5.08 41.144 0.065 7.21 4.75 12.06
11/9/2022 4:15:00 AM 5.01 41.018 0.065 7.21 4.79 12.07
11/9/2022 4:30:00 AM 4.93 40.874 0.065 7.22 4.76 12.11
11/9/2022 4:45:00 AM 4.86 40.748 0.065 7.21 4.76 12.13
11/9/2022 5:00:00 AM 4.78 40.604 0.065 7.22 4.76 12.16
11/9/2022 5:15:00 AM 4.72 40.496 0.065 7.22 4.8 12.18
11/9/2022 5:30:00 AM 4.65 40.37 0.065 7.21 4.73 12.2
11/9/2022 5:45:00 AM 4.58 40.244 0.065 7.21 4.73 12.22
11/9/2022 6:00:00 AM 4.51 40.118 0.065 7.21 4.74 12.25
11/9/2022 6:15:00 AM 4.45 40.01 0.065 7.22 4.75 12.27
11/9/2022 6:30:00 AM 4.38 39.884 0.065 7.21 4.8 12.3
11/9/2022 6:45:00 AM 4.32 39.776 0.065 7.22 4.77 12.33
11/9/2022 7:00:00 AM 4.25 39.65 0.065 7.22 4.79 12.36
11/9/2022 7:15:00 AM 4.2 39.56 0.065 7.23 4.77 12.42
11/9/2022 7:30:00 AM 4.15 39.47 0.065 7.24 4.72 12.48
11/9/2022 7:45:00 AM 4.1 39.38 0.065 7.24 4.73 12.53
11/9/2022 8:00:00 AM 4.06 39.308 0.065 7.25 4.78 12.58
11/9/2022 8:15:00 AM 4.03 39.254 0.065 7.26 4.74 12.64
11/9/2022 8:30:00 AM 4.03 39.254 0.065 7.27 4.65 12.7
11/9/2022 8:45:00 AM 4.04 39.272 0.064 7.28 4.66 12.73
11/9/2022 9:00:00 AM 4.07 39.326 0.064 7.29 4.66 12.77
11/9/2022 9:15:00 AM 4.11 39.398 0.064 7.3 4.66 12.8
11/9/2022 9:30:00 AM 4.18 39.524 0.064 7.31 4.67 12.82
11/9/2022 9:45:00 AM 4.26 39.668 0.064 7.32 4.7 12.83
11/9/2022 10:00:00 AM 4.37 39.866 0.064 7.33 4.59 12.83
11/9/2022 10:15:00 AM 4.52 40.136 0.064 7.33 4.64 12.81
11/9/2022 10:30:00 AM 4.67 40.406 0.064 7.33 4.77 12.79
11/9/2022 10:45:00 AM 4.81 40.658 0.064 7.35 4.81 12.79
11/9/2022 11:00:00 AM 4.95 40.91 0.064 7.35 4.74 12.75
11/9/2022 11:15:00 AM 5.11 41.198 0.064 7.36 4.76 12.74
11/9/2022 11:30:00 AM 5.26 41.468 0.063 7.36 4.75 12.69
11/9/2022 11:45:00 AM 5.41 41.738 0.063 7.36 4.78 12.65
11/9/2022 12:00:00 PM 5.56 42.008 0.063 7.37 4.81 12.62
11/9/2022 12:15:00 PM 5.74 42.332 0.063 7.36 4.81 12.55
11/9/2022 12:30:00 PM 5.87 42.566 0.063 7.37 4.81 12.52
11/9/2022 12:45:00 PM 6 42.8 0.063 7.38 4.91 12.49
11/9/2022 1:00:00 PM 6.13 43.034 0.063 7.37 4.9 12.4
11/9/2022 1:15:00 PM 6.27 43.286 0.063 7.37 4.68 12.37
11/9/2022 1:30:00 PM 6.38 43.484 0.063 7.37 4.9 12.31
11/9/2022 1:45:00 PM 6.49 43.682 0.063 7.36 4.97 12.25
11/9/2022 2:00:00 PM 6.55 43.79 0.063 7.37 5.01 12.23
11/9/2022 2:15:00 PM 6.56 43.808 0.063 7.38 4.78 12.22
11/9/2022 2:30:00 PM 6.6 43.88 0.063 7.38 4.85 12.19
11/9/2022 2:45:00 PM 6.61 43.898 0.063 7.39 4.9 12.19
11/9/2022 3:00:00 PM 6.62 43.916 0.063 7.39 4.94 12.17
11/9/2022 3:15:00 PM 6.71 44.078 0.063 7.39 4.91 12.13
11/9/2022 3:30:00 PM 6.77 44.186 0.063 7.4 4.98 12.09
11/9/2022 3:45:00 PM 6.81 44.258 0.063 7.39 4.96 12.04
11/9/2022 4:00:00 PM 6.84 44.312 0.063 7.39 4.91 11.99
11/9/2022 4:15:00 PM 6.84 44.312 0.063 7.38 5.01 11.92
11/9/2022 4:30:00 PM 6.85 44.33 0.063 7.37 4.93 11.86
11/9/2022 4:45:00 PM 6.81 44.258 0.063 7.38 4.94 11.83
11/9/2022 5:00:00 PM 6.78 44.204 0.063 7.38 4.92 11.77
11/9/2022 5:15:00 PM 6.75 44.15 0.063 7.37 4.91 11.74
11/9/2022 5:30:00 PM 6.7 44.06 0.063 7.36 4.95 11.69
11/9/2022 5:45:00 PM 6.66 43.988 0.063 7.35 4.96 11.66
11/9/2022 6:00:00 PM 6.62 43.916 0.063 7.34 4.96 11.64
11/9/2022 6:15:00 PM 6.59 43.862 0.063 7.34 5.73 11.62
11/9/2022 6:30:00 PM 6.56 43.808 0.063 7.34 5.5 11.62
11/9/2022 6:45:00 PM 6.53 43.754 0.063 7.33 5.81 11.61
11/9/2022 7:00:00 PM 6.49 43.682 0.064 7.33 5.77 11.61
11/9/2022 7:15:00 PM 6.45 43.61 0.064 7.33 5.59 11.61
11/9/2022 7:30:00 PM 6.4 43.52 0.064 7.32 5.64 11.61
11/9/2022 7:45:00 PM 6.35 43.43 0.064 7.32 5.61 11.62
11/9/2022 8:00:00 PM 6.29 43.322 0.064 7.32 5.64 11.64
11/9/2022 8:15:00 PM 6.22 43.196 0.064 7.32 5.66 11.66
11/9/2022 8:30:00 PM 6.15 43.07 0.064 7.31 5.54 11.67
11/9/2022 8:45:00 PM 6.08 42.944 0.064 7.31 5.53 11.7
11/9/2022 9:00:00 PM 6.01 42.818 0.064 7.31 5.56 11.72
11/9/2022 9:15:00 PM 5.94 42.692 0.064 7.3 5.52 11.74
11/9/2022 9:30:00 PM 5.86 42.548 0.064 7.31 5.5 11.76
11/9/2022 9:45:00 PM 5.79 42.422 0.065 7.3 5.53 11.77
11/9/2022 10:00:00 PM 5.72 42.296 0.065 7.29 5.53 11.8
11/9/2022 10:15:00 PM 5.64 42.152 0.065 7.29 5.5 11.82
11/9/2022 10:30:00 PM 5.57 42.026 0.065 7.29 5.54 11.84
11/9/2022 10:45:00 PM 5.5 41.9 0.065 7.28 5.57 11.87
11/9/2022 11:00:00 PM 5.43 41.774 0.065 7.28 5.6 11.87
11/9/2022 11:15:00 PM 5.36 41.648 0.065 7.28 5.61 11.91
11/9/2022 11:30:00 PM 5.3 41.54 0.065 7.27 5.69 11.93
11/9/2022 11:45:00 PM 5.24 41.432 0.065 7.27 5.79 11.94
11/10/2022 12:00:00 AM 5.18 41.324 0.065 7.27 5.65 11.96
11/10/2022 12:15:00 AM 5.11 41.198 0.065 7.27 5.59 11.99
11/10/2022 12:30:00 AM 5.05 41.09 0.065 7.26 5.59 12
11/10/2022 12:45:00 AM 4.99 40.982 0.065 7.26 5.55 12.02
11/10/2022 1:00:00 AM 4.93 40.874 0.065 7.26 5.57 12.04
11/10/2022 1:15:00 AM 4.87 40.766 0.065 7.26 5.57 12.07
11/10/2022 1:30:00 AM 4.81 40.658 0.065 7.25 5.54 12.09
11/10/2022 1:45:00 AM 4.75 40.55 0.065 7.25 5.55 12.12
11/10/2022 2:00:00 AM 4.7 40.46 0.065 7.25 5.55 12.12
11/10/2022 2:15:00 AM 4.64 40.352 0.065 7.25 5.56 12.15
11/10/2022 2:30:00 AM 4.59 40.262 0.065 7.25 5.59 12.17
11/10/2022 2:45:00 AM 4.53 40.154 0.065 7.24 5.56 12.19
11/10/2022 3:00:00 AM 4.49 40.082 0.065 7.24 5.79 12.21
11/10/2022 3:15:00 AM 4.43 39.974 0.065 7.24 5.55 12.23
11/10/2022 3:30:00 AM 4.39 39.902 0.065 7.24 5.55 12.24
11/10/2022 3:45:00 AM 4.34 39.812 0.065 7.24 5.57 12.26
11/10/2022 4:00:00 AM 4.29 39.722 0.065 7.24 5.52 12.28
11/10/2022 4:15:00 AM 4.24 39.632 0.065 7.24 5.58 12.3
11/10/2022 4:30:00 AM 4.2 39.56 0.065 7.23 5.54 12.31
11/10/2022 4:45:00 AM 4.16 39.488 0.065 7.23 5.51 12.33
11/10/2022 5:00:00 AM 4.12 39.416 0.065 7.23 5.51 12.33
11/10/2022 5:15:00 AM 4.07 39.326 0.065 7.23 5.53 12.37
11/10/2022 5:30:00 AM 4.03 39.254 0.065 7.23 5.49 12.38
11/10/2022 5:45:00 AM 3.99 39.182 0.065 7.23 5.47 12.4
11/10/2022 6:00:00 AM 3.96 39.128 0.065 7.23 5.44 12.4
11/10/2022 6:15:00 AM 3.91 39.038 0.065 7.23 5.45 12.42
11/10/2022 6:30:00 AM 3.87 38.966 0.065 7.23 5.47 12.44
11/10/2022 6:45:00 AM 3.84 38.912 0.065 7.23 5.44 12.45
11/10/2022 7:00:00 AM 3.81 38.858 0.065 7.23 5.4 12.48
11/10/2022 7:15:00 AM 3.78 38.804 0.065 7.23 5.54 12.52
11/10/2022 7:30:00 AM 3.75 38.75 0.064 7.24 5.54 12.56
11/10/2022 7:45:00 AM 3.74 38.732 0.064 7.25 5.52 12.61
11/10/2022 8:00:00 AM 3.72 38.696 0.064 7.26 5.53 12.66
11/10/2022 8:15:00 AM 3.71 38.678 0.064 7.26 5.52 12.7
11/10/2022 8:30:00 AM 3.73 38.714 0.064 7.27 5.52 12.75
11/10/2022 8:45:00 AM 3.77 38.786 0.064 7.28 5.52 12.79
11/10/2022 9:00:00 AM 3.82 38.876